<?xml version="1.0" encoding="UTF-8" standalone="no" ?>
<gpx xmlns="http://www.topografix.com/GPX/1/1" xmlns:xsi="http://www.w3.org/2001/XMLSchema-instance" xsi:schemaLocation="http://www.topografix.com/GPX/1/1 http://www.topografix.com/GPX/1/1/gpx.xsd" version="1.1" creator="VisuGPX - https://www.visugpx.com">
  <metadata>
    <name>Boucle autour de Lavaur</name>
    <desc><![CDATA[St Sul , Parisot , Briatexte , Fiac , Belcastel , Garrigues , Azas ,St Sul]]></desc>
  </metadata>
  <trk>
    <name><![CDATA[Boucle autour de Lavaur on GPSies.com]]></name>
    <trkseg>
      <trkpt lat="43.77113" lon="1.70108">
        <ele>112</ele>
        <time>2010-01-01T00:00:00Z</time>
      </trkpt>
      <trkpt lat="43.77112" lon="1.70107">
        <ele>112</ele>
        <time>2010-01-01T00:00:00Z</time>
      </trkpt>
      <trkpt lat="43.77028" lon="1.70337">
        <ele>113</ele>
        <time>2010-01-01T00:00:30Z</time>
      </trkpt>
      <trkpt lat="43.76946" lon="1.70554">
        <ele>114</ele>
        <time>2010-01-01T00:00:58Z</time>
      </trkpt>
      <trkpt lat="43.76927" lon="1.70612">
        <ele>114</ele>
        <time>2010-01-01T00:01:05Z</time>
      </trkpt>
      <trkpt lat="43.76913" lon="1.70679">
        <ele>114</ele>
        <time>2010-01-01T00:01:13Z</time>
      </trkpt>
      <trkpt lat="43.76908" lon="1.70717">
        <ele>114</ele>
        <time>2010-01-01T00:01:18Z</time>
      </trkpt>
      <trkpt lat="43.76902" lon="1.70864">
        <ele>113</ele>
        <time>2010-01-01T00:01:35Z</time>
      </trkpt>
      <trkpt lat="43.76874" lon="1.71497">
        <ele>113</ele>
        <time>2010-01-01T00:02:48Z</time>
      </trkpt>
      <trkpt lat="43.7685" lon="1.7203">
        <ele>114</ele>
        <time>2010-01-01T00:03:50Z</time>
      </trkpt>
      <trkpt lat="43.76834" lon="1.7243">
        <ele>114</ele>
        <time>2010-01-01T00:04:36Z</time>
      </trkpt>
      <trkpt lat="43.76823" lon="1.72486">
        <ele>115</ele>
        <time>2010-01-01T00:04:43Z</time>
      </trkpt>
      <trkpt lat="43.76809" lon="1.72545">
        <ele>116</ele>
        <time>2010-01-01T00:04:50Z</time>
      </trkpt>
      <trkpt lat="43.76807" lon="1.7259">
        <ele>115</ele>
        <time>2010-01-01T00:04:55Z</time>
      </trkpt>
      <trkpt lat="43.76832" lon="1.73106">
        <ele>116</ele>
        <time>2010-01-01T00:05:55Z</time>
      </trkpt>
      <trkpt lat="43.76848" lon="1.73246">
        <ele>118</ele>
        <time>2010-01-01T00:06:11Z</time>
      </trkpt>
      <trkpt lat="43.76861" lon="1.73345">
        <ele>118</ele>
        <time>2010-01-01T00:06:23Z</time>
      </trkpt>
      <trkpt lat="43.76921" lon="1.73565">
        <ele>116</ele>
        <time>2010-01-01T00:06:50Z</time>
      </trkpt>
      <trkpt lat="43.76943" lon="1.73704">
        <ele>115</ele>
        <time>2010-01-01T00:07:07Z</time>
      </trkpt>
      <trkpt lat="43.76946" lon="1.73744">
        <ele>115</ele>
        <time>2010-01-01T00:07:11Z</time>
      </trkpt>
      <trkpt lat="43.76948" lon="1.73793">
        <ele>116</ele>
        <time>2010-01-01T00:07:17Z</time>
      </trkpt>
      <trkpt lat="43.76946" lon="1.73915">
        <ele>115</ele>
        <time>2010-01-01T00:07:31Z</time>
      </trkpt>
      <trkpt lat="43.76957" lon="1.74078">
        <ele>115</ele>
        <time>2010-01-01T00:07:50Z</time>
      </trkpt>
      <trkpt lat="43.76957" lon="1.74077">
        <ele>115</ele>
        <time>2010-01-01T00:07:50Z</time>
      </trkpt>
      <trkpt lat="43.7697" lon="1.74201">
        <ele>118</ele>
        <time>2010-01-01T00:08:05Z</time>
      </trkpt>
      <trkpt lat="43.76971" lon="1.74257">
        <ele>119</ele>
        <time>2010-01-01T00:08:11Z</time>
      </trkpt>
      <trkpt lat="43.76968" lon="1.74315">
        <ele>118</ele>
        <time>2010-01-01T00:08:18Z</time>
      </trkpt>
      <trkpt lat="43.76958" lon="1.74389">
        <ele>116</ele>
        <time>2010-01-01T00:08:27Z</time>
      </trkpt>
      <trkpt lat="43.76931" lon="1.74484">
        <ele>117</ele>
        <time>2010-01-01T00:08:38Z</time>
      </trkpt>
      <trkpt lat="43.76858" lon="1.74662">
        <ele>119</ele>
        <time>2010-01-01T00:09:02Z</time>
      </trkpt>
      <trkpt lat="43.76822" lon="1.74769">
        <ele>117</ele>
        <time>2010-01-01T00:09:16Z</time>
      </trkpt>
      <trkpt lat="43.76809" lon="1.7483">
        <ele>116</ele>
        <time>2010-01-01T00:09:23Z</time>
      </trkpt>
      <trkpt lat="43.76801" lon="1.74887">
        <ele>117</ele>
        <time>2010-01-01T00:09:30Z</time>
      </trkpt>
      <trkpt lat="43.76789" lon="1.75031">
        <ele>119</ele>
        <time>2010-01-01T00:09:47Z</time>
      </trkpt>
      <trkpt lat="43.76732" lon="1.75343">
        <ele>116</ele>
        <time>2010-01-01T00:10:24Z</time>
      </trkpt>
      <trkpt lat="43.76718" lon="1.75399">
        <ele>115</ele>
        <time>2010-01-01T00:10:31Z</time>
      </trkpt>
      <trkpt lat="43.76691" lon="1.75478">
        <ele>119</ele>
        <time>2010-01-01T00:10:41Z</time>
      </trkpt>
      <trkpt lat="43.76633" lon="1.75617">
        <ele>118</ele>
        <time>2010-01-01T00:10:59Z</time>
      </trkpt>
      <trkpt lat="43.7659" lon="1.75708">
        <ele>121</ele>
        <time>2010-01-01T00:11:12Z</time>
      </trkpt>
      <trkpt lat="43.76574" lon="1.75746">
        <ele>122</ele>
        <time>2010-01-01T00:11:17Z</time>
      </trkpt>
      <trkpt lat="43.76566" lon="1.75775">
        <ele>121</ele>
        <time>2010-01-01T00:11:21Z</time>
      </trkpt>
      <trkpt lat="43.76561" lon="1.75849">
        <ele>119</ele>
        <time>2010-01-01T00:11:29Z</time>
      </trkpt>
      <trkpt lat="43.76544" lon="1.75964">
        <ele>122</ele>
        <time>2010-01-01T00:11:43Z</time>
      </trkpt>
      <trkpt lat="43.76539" lon="1.7602">
        <ele>120</ele>
        <time>2010-01-01T00:11:49Z</time>
      </trkpt>
      <trkpt lat="43.76538" lon="1.7608">
        <ele>121</ele>
        <time>2010-01-01T00:11:56Z</time>
      </trkpt>
      <trkpt lat="43.76534" lon="1.76096">
        <ele>122</ele>
        <time>2010-01-01T00:11:58Z</time>
      </trkpt>
      <trkpt lat="43.76517" lon="1.76145">
        <ele>124</ele>
        <time>2010-01-01T00:12:04Z</time>
      </trkpt>
      <trkpt lat="43.76501" lon="1.76177">
        <ele>123</ele>
        <time>2010-01-01T00:12:09Z</time>
      </trkpt>
      <trkpt lat="43.76464" lon="1.76231">
        <ele>123</ele>
        <time>2010-01-01T00:12:18Z</time>
      </trkpt>
      <trkpt lat="43.7642" lon="1.76312">
        <ele>121</ele>
        <time>2010-01-01T00:12:29Z</time>
      </trkpt>
      <trkpt lat="43.76391" lon="1.76353">
        <ele>120</ele>
        <time>2010-01-01T00:12:36Z</time>
      </trkpt>
      <trkpt lat="43.76395" lon="1.76365">
        <ele>120</ele>
        <time>2010-01-01T00:12:37Z</time>
      </trkpt>
      <trkpt lat="43.76409" lon="1.76383">
        <ele>121</ele>
        <time>2010-01-01T00:12:40Z</time>
      </trkpt>
      <trkpt lat="43.76427" lon="1.76401">
        <ele>122</ele>
        <time>2010-01-01T00:12:44Z</time>
      </trkpt>
      <trkpt lat="43.76446" lon="1.76415">
        <ele>124</ele>
        <time>2010-01-01T00:12:47Z</time>
      </trkpt>
      <trkpt lat="43.76466" lon="1.76426">
        <ele>125</ele>
        <time>2010-01-01T00:12:51Z</time>
      </trkpt>
      <trkpt lat="43.7651" lon="1.76437">
        <ele>115</ele>
        <time>2010-01-01T00:12:58Z</time>
      </trkpt>
      <trkpt lat="43.7662" lon="1.76462">
        <ele>113</ele>
        <time>2010-01-01T00:13:16Z</time>
      </trkpt>
      <trkpt lat="43.76674" lon="1.76472">
        <ele>122</ele>
        <time>2010-01-01T00:13:25Z</time>
      </trkpt>
      <trkpt lat="43.76684" lon="1.76477">
        <ele>124</ele>
        <time>2010-01-01T00:13:26Z</time>
      </trkpt>
      <trkpt lat="43.76691" lon="1.76484">
        <ele>126</ele>
        <time>2010-01-01T00:13:28Z</time>
      </trkpt>
      <trkpt lat="43.76703" lon="1.76503">
        <ele>131</ele>
        <time>2010-01-01T00:13:31Z</time>
      </trkpt>
      <trkpt lat="43.7672" lon="1.76555">
        <ele>141</ele>
        <time>2010-01-01T00:13:37Z</time>
      </trkpt>
      <trkpt lat="43.76725" lon="1.76581">
        <ele>139</ele>
        <time>2010-01-01T00:13:40Z</time>
      </trkpt>
      <trkpt lat="43.76727" lon="1.76614">
        <ele>141</ele>
        <time>2010-01-01T00:13:44Z</time>
      </trkpt>
      <trkpt lat="43.76723" lon="1.76708">
        <ele>151</ele>
        <time>2010-01-01T00:13:55Z</time>
      </trkpt>
      <trkpt lat="43.76719" lon="1.76742">
        <ele>153</ele>
        <time>2010-01-01T00:13:59Z</time>
      </trkpt>
      <trkpt lat="43.76714" lon="1.76773">
        <ele>155</ele>
        <time>2010-01-01T00:14:03Z</time>
      </trkpt>
      <trkpt lat="43.76693" lon="1.76867">
        <ele>158</ele>
        <time>2010-01-01T00:14:14Z</time>
      </trkpt>
      <trkpt lat="43.76689" lon="1.76943">
        <ele>162</ele>
        <time>2010-01-01T00:14:23Z</time>
      </trkpt>
      <trkpt lat="43.76667" lon="1.77073">
        <ele>173</ele>
        <time>2010-01-01T00:14:38Z</time>
      </trkpt>
      <trkpt lat="43.76654" lon="1.77141">
        <ele>175</ele>
        <time>2010-01-01T00:14:47Z</time>
      </trkpt>
      <trkpt lat="43.76648" lon="1.77163">
        <ele>174</ele>
        <time>2010-01-01T00:14:49Z</time>
      </trkpt>
      <trkpt lat="43.76643" lon="1.77175">
        <ele>174</ele>
        <time>2010-01-01T00:14:51Z</time>
      </trkpt>
      <trkpt lat="43.76614" lon="1.7721">
        <ele>173</ele>
        <time>2010-01-01T00:14:57Z</time>
      </trkpt>
      <trkpt lat="43.766" lon="1.77231">
        <ele>175</ele>
        <time>2010-01-01T00:15:00Z</time>
      </trkpt>
      <trkpt lat="43.76585" lon="1.77259">
        <ele>177</ele>
        <time>2010-01-01T00:15:04Z</time>
      </trkpt>
      <trkpt lat="43.76578" lon="1.77277">
        <ele>178</ele>
        <time>2010-01-01T00:15:07Z</time>
      </trkpt>
      <trkpt lat="43.76572" lon="1.773">
        <ele>179</ele>
        <time>2010-01-01T00:15:10Z</time>
      </trkpt>
      <trkpt lat="43.76562" lon="1.7738">
        <ele>181</ele>
        <time>2010-01-01T00:15:19Z</time>
      </trkpt>
      <trkpt lat="43.76618" lon="1.77393">
        <ele>183</ele>
        <time>2010-01-01T00:15:28Z</time>
      </trkpt>
      <trkpt lat="43.76617" lon="1.77393">
        <ele>183</ele>
        <time>2010-01-01T00:15:28Z</time>
      </trkpt>
      <trkpt lat="43.76631" lon="1.77395">
        <ele>183</ele>
        <time>2010-01-01T00:15:30Z</time>
      </trkpt>
      <trkpt lat="43.76662" lon="1.77393">
        <ele>183</ele>
        <time>2010-01-01T00:15:35Z</time>
      </trkpt>
      <trkpt lat="43.76688" lon="1.77382">
        <ele>184</ele>
        <time>2010-01-01T00:15:40Z</time>
      </trkpt>
      <trkpt lat="43.76752" lon="1.77341">
        <ele>182</ele>
        <time>2010-01-01T00:15:51Z</time>
      </trkpt>
      <trkpt lat="43.76753" lon="1.77352">
        <ele>183</ele>
        <time>2010-01-01T00:15:52Z</time>
      </trkpt>
      <trkpt lat="43.76753" lon="1.77358">
        <ele>183</ele>
        <time>2010-01-01T00:15:53Z</time>
      </trkpt>
      <trkpt lat="43.7675" lon="1.77364">
        <ele>184</ele>
        <time>2010-01-01T00:15:54Z</time>
      </trkpt>
      <trkpt lat="43.76744" lon="1.77369">
        <ele>184</ele>
        <time>2010-01-01T00:15:55Z</time>
      </trkpt>
      <trkpt lat="43.76717" lon="1.7738">
        <ele>184</ele>
        <time>2010-01-01T00:15:59Z</time>
      </trkpt>
      <trkpt lat="43.76675" lon="1.77418">
        <ele>184</ele>
        <time>2010-01-01T00:16:08Z</time>
      </trkpt>
      <trkpt lat="43.76656" lon="1.77437">
        <ele>183</ele>
        <time>2010-01-01T00:16:11Z</time>
      </trkpt>
      <trkpt lat="43.766" lon="1.77483">
        <ele>183</ele>
        <time>2010-01-01T00:16:22Z</time>
      </trkpt>
      <trkpt lat="43.76589" lon="1.77495">
        <ele>183</ele>
        <time>2010-01-01T00:16:24Z</time>
      </trkpt>
      <trkpt lat="43.76572" lon="1.77524">
        <ele>183</ele>
        <time>2010-01-01T00:16:28Z</time>
      </trkpt>
      <trkpt lat="43.76552" lon="1.77573">
        <ele>188</ele>
        <time>2010-01-01T00:16:35Z</time>
      </trkpt>
      <trkpt lat="43.76578" lon="1.776">
        <ele>184</ele>
        <time>2010-01-01T00:16:40Z</time>
      </trkpt>
      <trkpt lat="43.766" lon="1.77634">
        <ele>182</ele>
        <time>2010-01-01T00:16:45Z</time>
      </trkpt>
      <trkpt lat="43.766" lon="1.77633">
        <ele>182</ele>
        <time>2010-01-01T00:16:45Z</time>
      </trkpt>
      <trkpt lat="43.76612" lon="1.7766">
        <ele>183</ele>
        <time>2010-01-01T00:16:49Z</time>
      </trkpt>
      <trkpt lat="43.76621" lon="1.77688">
        <ele>184</ele>
        <time>2010-01-01T00:16:53Z</time>
      </trkpt>
      <trkpt lat="43.76624" lon="1.77705">
        <ele>185</ele>
        <time>2010-01-01T00:16:55Z</time>
      </trkpt>
      <trkpt lat="43.76623" lon="1.77741">
        <ele>186</ele>
        <time>2010-01-01T00:16:59Z</time>
      </trkpt>
      <trkpt lat="43.76614" lon="1.77841">
        <ele>187</ele>
        <time>2010-01-01T00:17:10Z</time>
      </trkpt>
      <trkpt lat="43.76615" lon="1.77865">
        <ele>186</ele>
        <time>2010-01-01T00:17:13Z</time>
      </trkpt>
      <trkpt lat="43.76623" lon="1.77882">
        <ele>186</ele>
        <time>2010-01-01T00:17:16Z</time>
      </trkpt>
      <trkpt lat="43.76652" lon="1.77914">
        <ele>185</ele>
        <time>2010-01-01T00:17:21Z</time>
      </trkpt>
      <trkpt lat="43.76713" lon="1.77973">
        <ele>185</ele>
        <time>2010-01-01T00:17:33Z</time>
      </trkpt>
      <trkpt lat="43.76726" lon="1.77982">
        <ele>185</ele>
        <time>2010-01-01T00:17:36Z</time>
      </trkpt>
      <trkpt lat="43.76735" lon="1.7799">
        <ele>184</ele>
        <time>2010-01-01T00:17:37Z</time>
      </trkpt>
      <trkpt lat="43.76732" lon="1.77995">
        <ele>184</ele>
        <time>2010-01-01T00:17:38Z</time>
      </trkpt>
      <trkpt lat="43.7673" lon="1.78006">
        <ele>183</ele>
        <time>2010-01-01T00:17:39Z</time>
      </trkpt>
      <trkpt lat="43.76733" lon="1.78017">
        <ele>183</ele>
        <time>2010-01-01T00:17:41Z</time>
      </trkpt>
      <trkpt lat="43.76736" lon="1.78021">
        <ele>183</ele>
        <time>2010-01-01T00:17:42Z</time>
      </trkpt>
      <trkpt lat="43.76745" lon="1.78023">
        <ele>183</ele>
        <time>2010-01-01T00:17:43Z</time>
      </trkpt>
      <trkpt lat="43.76749" lon="1.78021">
        <ele>183</ele>
        <time>2010-01-01T00:17:44Z</time>
      </trkpt>
      <trkpt lat="43.76754" lon="1.78033">
        <ele>184</ele>
        <time>2010-01-01T00:17:45Z</time>
      </trkpt>
      <trkpt lat="43.76769" lon="1.78098">
        <ele>185</ele>
        <time>2010-01-01T00:17:53Z</time>
      </trkpt>
      <trkpt lat="43.76815" lon="1.78244">
        <ele>187</ele>
        <time>2010-01-01T00:18:12Z</time>
      </trkpt>
      <trkpt lat="43.76831" lon="1.78323">
        <ele>188</ele>
        <time>2010-01-01T00:18:21Z</time>
      </trkpt>
      <trkpt lat="43.7686" lon="1.78455">
        <ele>186</ele>
        <time>2010-01-01T00:18:37Z</time>
      </trkpt>
      <trkpt lat="43.76894" lon="1.78597">
        <ele>187</ele>
        <time>2010-01-01T00:18:54Z</time>
      </trkpt>
      <trkpt lat="43.76909" lon="1.78629">
        <ele>188</ele>
        <time>2010-01-01T00:18:59Z</time>
      </trkpt>
      <trkpt lat="43.76934" lon="1.78657">
        <ele>188</ele>
        <time>2010-01-01T00:19:04Z</time>
      </trkpt>
      <trkpt lat="43.77024" lon="1.78718">
        <ele>187</ele>
        <time>2010-01-01T00:19:20Z</time>
      </trkpt>
      <trkpt lat="43.77023" lon="1.78718">
        <ele>187</ele>
        <time>2010-01-01T00:19:20Z</time>
      </trkpt>
      <trkpt lat="43.77074" lon="1.78752">
        <ele>185</ele>
        <time>2010-01-01T00:19:29Z</time>
      </trkpt>
      <trkpt lat="43.77106" lon="1.7878">
        <ele>186</ele>
        <time>2010-01-01T00:19:35Z</time>
      </trkpt>
      <trkpt lat="43.77137" lon="1.78813">
        <ele>187</ele>
        <time>2010-01-01T00:19:41Z</time>
      </trkpt>
      <trkpt lat="43.7724" lon="1.78932">
        <ele>185</ele>
        <time>2010-01-01T00:20:03Z</time>
      </trkpt>
      <trkpt lat="43.77256" lon="1.78954">
        <ele>185</ele>
        <time>2010-01-01T00:20:07Z</time>
      </trkpt>
      <trkpt lat="43.77269" lon="1.78978">
        <ele>185</ele>
        <time>2010-01-01T00:20:10Z</time>
      </trkpt>
      <trkpt lat="43.77299" lon="1.79049">
        <ele>184</ele>
        <time>2010-01-01T00:20:20Z</time>
      </trkpt>
      <trkpt lat="43.77386" lon="1.79196">
        <ele>186</ele>
        <time>2010-01-01T00:20:42Z</time>
      </trkpt>
      <trkpt lat="43.77447" lon="1.79312">
        <ele>184</ele>
        <time>2010-01-01T00:20:58Z</time>
      </trkpt>
      <trkpt lat="43.7746" lon="1.79328">
        <ele>184</ele>
        <time>2010-01-01T00:21:01Z</time>
      </trkpt>
      <trkpt lat="43.77503" lon="1.79357">
        <ele>182</ele>
        <time>2010-01-01T00:21:09Z</time>
      </trkpt>
      <trkpt lat="43.77517" lon="1.79373">
        <ele>182</ele>
        <time>2010-01-01T00:21:11Z</time>
      </trkpt>
      <trkpt lat="43.77533" lon="1.79405">
        <ele>183</ele>
        <time>2010-01-01T00:21:16Z</time>
      </trkpt>
      <trkpt lat="43.77547" lon="1.79461">
        <ele>185</ele>
        <time>2010-01-01T00:21:23Z</time>
      </trkpt>
      <trkpt lat="43.77555" lon="1.79489">
        <ele>186</ele>
        <time>2010-01-01T00:21:26Z</time>
      </trkpt>
      <trkpt lat="43.77615" lon="1.79583">
        <ele>186</ele>
        <time>2010-01-01T00:21:41Z</time>
      </trkpt>
      <trkpt lat="43.77649" lon="1.79645">
        <ele>186</ele>
        <time>2010-01-01T00:21:50Z</time>
      </trkpt>
      <trkpt lat="43.77664" lon="1.79691">
        <ele>186</ele>
        <time>2010-01-01T00:21:56Z</time>
      </trkpt>
      <trkpt lat="43.77712" lon="1.79907">
        <ele>187</ele>
        <time>2010-01-01T00:22:22Z</time>
      </trkpt>
      <trkpt lat="43.77723" lon="1.79949">
        <ele>186</ele>
        <time>2010-01-01T00:22:27Z</time>
      </trkpt>
      <trkpt lat="43.77745" lon="1.8001">
        <ele>191</ele>
        <time>2010-01-01T00:22:35Z</time>
      </trkpt>
      <trkpt lat="43.77933" lon="1.80442">
        <ele>186</ele>
        <time>2010-01-01T00:23:33Z</time>
      </trkpt>
      <trkpt lat="43.77974" lon="1.80513">
        <ele>186</ele>
        <time>2010-01-01T00:23:44Z</time>
      </trkpt>
      <trkpt lat="43.78021" lon="1.80582">
        <ele>186</ele>
        <time>2010-01-01T00:23:55Z</time>
      </trkpt>
      <trkpt lat="43.78084" lon="1.80658">
        <ele>188</ele>
        <time>2010-01-01T00:24:08Z</time>
      </trkpt>
      <trkpt lat="43.78083" lon="1.80658">
        <ele>188</ele>
        <time>2010-01-01T00:24:08Z</time>
      </trkpt>
      <trkpt lat="43.78166" lon="1.80758">
        <ele>190</ele>
        <time>2010-01-01T00:24:26Z</time>
      </trkpt>
      <trkpt lat="43.78203" lon="1.80795">
        <ele>192</ele>
        <time>2010-01-01T00:24:33Z</time>
      </trkpt>
      <trkpt lat="43.78287" lon="1.80866">
        <ele>191</ele>
        <time>2010-01-01T00:24:49Z</time>
      </trkpt>
      <trkpt lat="43.78333" lon="1.80922">
        <ele>192</ele>
        <time>2010-01-01T00:24:59Z</time>
      </trkpt>
      <trkpt lat="43.78354" lon="1.80952">
        <ele>196</ele>
        <time>2010-01-01T00:25:03Z</time>
      </trkpt>
      <trkpt lat="43.78363" lon="1.80977">
        <ele>197</ele>
        <time>2010-01-01T00:25:07Z</time>
      </trkpt>
      <trkpt lat="43.78368" lon="1.80997">
        <ele>196</ele>
        <time>2010-01-01T00:25:09Z</time>
      </trkpt>
      <trkpt lat="43.78382" lon="1.81091">
        <ele>199</ele>
        <time>2010-01-01T00:25:20Z</time>
      </trkpt>
      <trkpt lat="43.78387" lon="1.81109">
        <ele>198</ele>
        <time>2010-01-01T00:25:22Z</time>
      </trkpt>
      <trkpt lat="43.7848" lon="1.8127">
        <ele>194</ele>
        <time>2010-01-01T00:25:46Z</time>
      </trkpt>
      <trkpt lat="43.78538" lon="1.81355">
        <ele>192</ele>
        <time>2010-01-01T00:26:00Z</time>
      </trkpt>
      <trkpt lat="43.78573" lon="1.81386">
        <ele>191</ele>
        <time>2010-01-01T00:26:06Z</time>
      </trkpt>
      <trkpt lat="43.78611" lon="1.81405">
        <ele>189</ele>
        <time>2010-01-01T00:26:13Z</time>
      </trkpt>
      <trkpt lat="43.78638" lon="1.81408">
        <ele>188</ele>
        <time>2010-01-01T00:26:17Z</time>
      </trkpt>
      <trkpt lat="43.78664" lon="1.81407">
        <ele>189</ele>
        <time>2010-01-01T00:26:21Z</time>
      </trkpt>
      <trkpt lat="43.7868" lon="1.81412">
        <ele>190</ele>
        <time>2010-01-01T00:26:24Z</time>
      </trkpt>
      <trkpt lat="43.787" lon="1.81422">
        <ele>192</ele>
        <time>2010-01-01T00:26:27Z</time>
      </trkpt>
      <trkpt lat="43.7875" lon="1.81474">
        <ele>194</ele>
        <time>2010-01-01T00:26:37Z</time>
      </trkpt>
      <trkpt lat="43.78809" lon="1.81555">
        <ele>199</ele>
        <time>2010-01-01T00:26:51Z</time>
      </trkpt>
      <trkpt lat="43.78881" lon="1.81657">
        <ele>194</ele>
        <time>2010-01-01T00:27:07Z</time>
      </trkpt>
      <trkpt lat="43.78899" lon="1.81689">
        <ele>193</ele>
        <time>2010-01-01T00:27:12Z</time>
      </trkpt>
      <trkpt lat="43.78908" lon="1.81745">
        <ele>193</ele>
        <time>2010-01-01T00:27:19Z</time>
      </trkpt>
      <trkpt lat="43.78908" lon="1.81744">
        <ele>193</ele>
        <time>2010-01-01T00:27:19Z</time>
      </trkpt>
      <trkpt lat="43.78911" lon="1.81776">
        <ele>193</ele>
        <time>2010-01-01T00:27:22Z</time>
      </trkpt>
      <trkpt lat="43.78914" lon="1.81851">
        <ele>190</ele>
        <time>2010-01-01T00:27:31Z</time>
      </trkpt>
      <trkpt lat="43.78917" lon="1.81866">
        <ele>189</ele>
        <time>2010-01-01T00:27:33Z</time>
      </trkpt>
      <trkpt lat="43.78934" lon="1.81863">
        <ele>190</ele>
        <time>2010-01-01T00:27:36Z</time>
      </trkpt>
      <trkpt lat="43.78972" lon="1.81861">
        <ele>192</ele>
        <time>2010-01-01T00:27:42Z</time>
      </trkpt>
      <trkpt lat="43.79062" lon="1.81874">
        <ele>191</ele>
        <time>2010-01-01T00:27:56Z</time>
      </trkpt>
      <trkpt lat="43.79086" lon="1.81886">
        <ele>195</ele>
        <time>2010-01-01T00:28:00Z</time>
      </trkpt>
      <trkpt lat="43.79102" lon="1.819">
        <ele>197</ele>
        <time>2010-01-01T00:28:03Z</time>
      </trkpt>
      <trkpt lat="43.79186" lon="1.82011">
        <ele>198</ele>
        <time>2010-01-01T00:28:22Z</time>
      </trkpt>
      <trkpt lat="43.79185" lon="1.82011">
        <ele>198</ele>
        <time>2010-01-01T00:28:22Z</time>
      </trkpt>
      <trkpt lat="43.79512" lon="1.82436">
        <ele>201</ele>
        <time>2010-01-01T00:29:34Z</time>
      </trkpt>
      <trkpt lat="43.79595" lon="1.82541">
        <ele>203</ele>
        <time>2010-01-01T00:29:52Z</time>
      </trkpt>
      <trkpt lat="43.79638" lon="1.82601">
        <ele>204</ele>
        <time>2010-01-01T00:30:02Z</time>
      </trkpt>
      <trkpt lat="43.79659" lon="1.82634">
        <ele>204</ele>
        <time>2010-01-01T00:30:07Z</time>
      </trkpt>
      <trkpt lat="43.79678" lon="1.82671">
        <ele>205</ele>
        <time>2010-01-01T00:30:12Z</time>
      </trkpt>
      <trkpt lat="43.79736" lon="1.82821">
        <ele>205</ele>
        <time>2010-01-01T00:30:32Z</time>
      </trkpt>
      <trkpt lat="43.79774" lon="1.82926">
        <ele>201</ele>
        <time>2010-01-01T00:30:45Z</time>
      </trkpt>
      <trkpt lat="43.79774" lon="1.82925">
        <ele>201</ele>
        <time>2010-01-01T00:30:45Z</time>
      </trkpt>
      <trkpt lat="43.7981" lon="1.83023">
        <ele>196</ele>
        <time>2010-01-01T00:30:58Z</time>
      </trkpt>
      <trkpt lat="43.79788" lon="1.83044">
        <ele>194</ele>
        <time>2010-01-01T00:31:02Z</time>
      </trkpt>
      <trkpt lat="43.79672" lon="1.83171">
        <ele>191</ele>
        <time>2010-01-01T00:31:26Z</time>
      </trkpt>
      <trkpt lat="43.79594" lon="1.83232">
        <ele>198</ele>
        <time>2010-01-01T00:31:40Z</time>
      </trkpt>
      <trkpt lat="43.79509" lon="1.83324">
        <ele>201</ele>
        <time>2010-01-01T00:31:58Z</time>
      </trkpt>
      <trkpt lat="43.79501" lon="1.83334">
        <ele>201</ele>
        <time>2010-01-01T00:31:59Z</time>
      </trkpt>
      <trkpt lat="43.79466" lon="1.83394">
        <ele>204</ele>
        <time>2010-01-01T00:32:08Z</time>
      </trkpt>
      <trkpt lat="43.79436" lon="1.83457">
        <ele>207</ele>
        <time>2010-01-01T00:32:17Z</time>
      </trkpt>
      <trkpt lat="43.79422" lon="1.8349">
        <ele>207</ele>
        <time>2010-01-01T00:32:21Z</time>
      </trkpt>
      <trkpt lat="43.79394" lon="1.83578">
        <ele>209</ele>
        <time>2010-01-01T00:32:33Z</time>
      </trkpt>
      <trkpt lat="43.79358" lon="1.83722">
        <ele>216</ele>
        <time>2010-01-01T00:32:50Z</time>
      </trkpt>
      <trkpt lat="43.79342" lon="1.83792">
        <ele>210</ele>
        <time>2010-01-01T00:32:59Z</time>
      </trkpt>
      <trkpt lat="43.79335" lon="1.8382">
        <ele>210</ele>
        <time>2010-01-01T00:33:02Z</time>
      </trkpt>
      <trkpt lat="43.79318" lon="1.83857">
        <ele>210</ele>
        <time>2010-01-01T00:33:07Z</time>
      </trkpt>
      <trkpt lat="43.79307" lon="1.83876">
        <ele>210</ele>
        <time>2010-01-01T00:33:10Z</time>
      </trkpt>
      <trkpt lat="43.79278" lon="1.83914">
        <ele>211</ele>
        <time>2010-01-01T00:33:16Z</time>
      </trkpt>
      <trkpt lat="43.79156" lon="1.84027">
        <ele>220</ele>
        <time>2010-01-01T00:33:40Z</time>
      </trkpt>
      <trkpt lat="43.79144" lon="1.84039">
        <ele>221</ele>
        <time>2010-01-01T00:33:42Z</time>
      </trkpt>
      <trkpt lat="43.79119" lon="1.84077">
        <ele>224</ele>
        <time>2010-01-01T00:33:48Z</time>
      </trkpt>
      <trkpt lat="43.79106" lon="1.84103">
        <ele>227</ele>
        <time>2010-01-01T00:33:52Z</time>
      </trkpt>
      <trkpt lat="43.79087" lon="1.84146">
        <ele>231</ele>
        <time>2010-01-01T00:33:58Z</time>
      </trkpt>
      <trkpt lat="43.79064" lon="1.84221">
        <ele>235</ele>
        <time>2010-01-01T00:34:07Z</time>
      </trkpt>
      <trkpt lat="43.79055" lon="1.84248">
        <ele>238</ele>
        <time>2010-01-01T00:34:10Z</time>
      </trkpt>
      <trkpt lat="43.79048" lon="1.84265">
        <ele>240</ele>
        <time>2010-01-01T00:34:13Z</time>
      </trkpt>
      <trkpt lat="43.79038" lon="1.84279">
        <ele>241</ele>
        <time>2010-01-01T00:34:15Z</time>
      </trkpt>
      <trkpt lat="43.79005" lon="1.84312">
        <ele>242</ele>
        <time>2010-01-01T00:34:22Z</time>
      </trkpt>
      <trkpt lat="43.78995" lon="1.84328">
        <ele>243</ele>
        <time>2010-01-01T00:34:24Z</time>
      </trkpt>
      <trkpt lat="43.78985" lon="1.84358">
        <ele>246</ele>
        <time>2010-01-01T00:34:28Z</time>
      </trkpt>
      <trkpt lat="43.78967" lon="1.84434">
        <ele>248</ele>
        <time>2010-01-01T00:34:37Z</time>
      </trkpt>
      <trkpt lat="43.78962" lon="1.84446">
        <ele>248</ele>
        <time>2010-01-01T00:34:39Z</time>
      </trkpt>
      <trkpt lat="43.78955" lon="1.84456">
        <ele>249</ele>
        <time>2010-01-01T00:34:40Z</time>
      </trkpt>
      <trkpt lat="43.78947" lon="1.84464">
        <ele>250</ele>
        <time>2010-01-01T00:34:42Z</time>
      </trkpt>
      <trkpt lat="43.78937" lon="1.8447">
        <ele>251</ele>
        <time>2010-01-01T00:34:44Z</time>
      </trkpt>
      <trkpt lat="43.78937" lon="1.84471">
        <ele>251</ele>
        <time>2010-01-01T00:34:44Z</time>
      </trkpt>
      <trkpt lat="43.78885" lon="1.84505">
        <ele>250</ele>
        <time>2010-01-01T00:34:53Z</time>
      </trkpt>
      <trkpt lat="43.78877" lon="1.84512">
        <ele>250</ele>
        <time>2010-01-01T00:34:54Z</time>
      </trkpt>
      <trkpt lat="43.78866" lon="1.8453">
        <ele>249</ele>
        <time>2010-01-01T00:34:57Z</time>
      </trkpt>
      <trkpt lat="43.7882" lon="1.84667">
        <ele>250</ele>
        <time>2010-01-01T00:35:15Z</time>
      </trkpt>
      <trkpt lat="43.78785" lon="1.84778">
        <ele>256</ele>
        <time>2010-01-01T00:35:29Z</time>
      </trkpt>
      <trkpt lat="43.78769" lon="1.84871">
        <ele>259</ele>
        <time>2010-01-01T00:35:40Z</time>
      </trkpt>
      <trkpt lat="43.78717" lon="1.8507">
        <ele>270</ele>
        <time>2010-01-01T00:36:04Z</time>
      </trkpt>
      <trkpt lat="43.78711" lon="1.85113">
        <ele>274</ele>
        <time>2010-01-01T00:36:09Z</time>
      </trkpt>
      <trkpt lat="43.78712" lon="1.85132">
        <ele>275</ele>
        <time>2010-01-01T00:36:11Z</time>
      </trkpt>
      <trkpt lat="43.78716" lon="1.85162">
        <ele>275</ele>
        <time>2010-01-01T00:36:15Z</time>
      </trkpt>
      <trkpt lat="43.78781" lon="1.85497">
        <ele>279</ele>
        <time>2010-01-01T00:36:55Z</time>
      </trkpt>
      <trkpt lat="43.78788" lon="1.8552">
        <ele>281</ele>
        <time>2010-01-01T00:36:58Z</time>
      </trkpt>
      <trkpt lat="43.78811" lon="1.85569">
        <ele>276</ele>
        <time>2010-01-01T00:37:05Z</time>
      </trkpt>
      <trkpt lat="43.7882" lon="1.85593">
        <ele>272</ele>
        <time>2010-01-01T00:37:08Z</time>
      </trkpt>
      <trkpt lat="43.78846" lon="1.85759">
        <ele>264</ele>
        <time>2010-01-01T00:37:27Z</time>
      </trkpt>
      <trkpt lat="43.78849" lon="1.85787">
        <ele>264</ele>
        <time>2010-01-01T00:37:31Z</time>
      </trkpt>
      <trkpt lat="43.78848" lon="1.85814">
        <ele>265</ele>
        <time>2010-01-01T00:37:34Z</time>
      </trkpt>
      <trkpt lat="43.78841" lon="1.85867">
        <ele>269</ele>
        <time>2010-01-01T00:37:40Z</time>
      </trkpt>
      <trkpt lat="43.78834" lon="1.85896">
        <ele>271</ele>
        <time>2010-01-01T00:37:44Z</time>
      </trkpt>
      <trkpt lat="43.78813" lon="1.85957">
        <ele>271</ele>
        <time>2010-01-01T00:37:51Z</time>
      </trkpt>
      <trkpt lat="43.78744" lon="1.86099">
        <ele>266</ele>
        <time>2010-01-01T00:38:11Z</time>
      </trkpt>
      <trkpt lat="43.78663" lon="1.86274">
        <ele>258</ele>
        <time>2010-01-01T00:38:35Z</time>
      </trkpt>
      <trkpt lat="43.78651" lon="1.86313">
        <ele>257</ele>
        <time>2010-01-01T00:38:40Z</time>
      </trkpt>
      <trkpt lat="43.78644" lon="1.86351">
        <ele>257</ele>
        <time>2010-01-01T00:38:45Z</time>
      </trkpt>
      <trkpt lat="43.78638" lon="1.8642">
        <ele>260</ele>
        <time>2010-01-01T00:38:53Z</time>
      </trkpt>
      <trkpt lat="43.78633" lon="1.86443">
        <ele>260</ele>
        <time>2010-01-01T00:38:55Z</time>
      </trkpt>
      <trkpt lat="43.78625" lon="1.86462">
        <ele>260</ele>
        <time>2010-01-01T00:38:58Z</time>
      </trkpt>
      <trkpt lat="43.78616" lon="1.86477">
        <ele>259</ele>
        <time>2010-01-01T00:39:00Z</time>
      </trkpt>
      <trkpt lat="43.78601" lon="1.86496">
        <ele>257</ele>
        <time>2010-01-01T00:39:03Z</time>
      </trkpt>
      <trkpt lat="43.78538" lon="1.86551">
        <ele>253</ele>
        <time>2010-01-01T00:39:15Z</time>
      </trkpt>
      <trkpt lat="43.78528" lon="1.86565">
        <ele>252</ele>
        <time>2010-01-01T00:39:18Z</time>
      </trkpt>
      <trkpt lat="43.7852" lon="1.86582">
        <ele>251</ele>
        <time>2010-01-01T00:39:20Z</time>
      </trkpt>
      <trkpt lat="43.78515" lon="1.86596">
        <ele>249</ele>
        <time>2010-01-01T00:39:22Z</time>
      </trkpt>
      <trkpt lat="43.78515" lon="1.86608">
        <ele>248</ele>
        <time>2010-01-01T00:39:23Z</time>
      </trkpt>
      <trkpt lat="43.78473" lon="1.86632">
        <ele>247</ele>
        <time>2010-01-01T00:39:31Z</time>
      </trkpt>
      <trkpt lat="43.78458" lon="1.8664">
        <ele>247</ele>
        <time>2010-01-01T00:39:33Z</time>
      </trkpt>
      <trkpt lat="43.78424" lon="1.86665">
        <ele>247</ele>
        <time>2010-01-01T00:39:39Z</time>
      </trkpt>
      <trkpt lat="43.78342" lon="1.86745">
        <ele>241</ele>
        <time>2010-01-01T00:39:55Z</time>
      </trkpt>
      <trkpt lat="43.78317" lon="1.86777">
        <ele>237</ele>
        <time>2010-01-01T00:40:01Z</time>
      </trkpt>
      <trkpt lat="43.78298" lon="1.86816">
        <ele>235</ele>
        <time>2010-01-01T00:40:06Z</time>
      </trkpt>
      <trkpt lat="43.78279" lon="1.86846">
        <ele>234</ele>
        <time>2010-01-01T00:40:11Z</time>
      </trkpt>
      <trkpt lat="43.78263" lon="1.86859">
        <ele>234</ele>
        <time>2010-01-01T00:40:14Z</time>
      </trkpt>
      <trkpt lat="43.78242" lon="1.86865">
        <ele>233</ele>
        <time>2010-01-01T00:40:17Z</time>
      </trkpt>
      <trkpt lat="43.78211" lon="1.86857">
        <ele>230</ele>
        <time>2010-01-01T00:40:22Z</time>
      </trkpt>
      <trkpt lat="43.78133" lon="1.86828">
        <ele>226</ele>
        <time>2010-01-01T00:40:35Z</time>
      </trkpt>
      <trkpt lat="43.78093" lon="1.86824">
        <ele>228</ele>
        <time>2010-01-01T00:40:42Z</time>
      </trkpt>
      <trkpt lat="43.78064" lon="1.86826">
        <ele>226</ele>
        <time>2010-01-01T00:40:46Z</time>
      </trkpt>
      <trkpt lat="43.78018" lon="1.86852">
        <ele>222</ele>
        <time>2010-01-01T00:40:54Z</time>
      </trkpt>
      <trkpt lat="43.77964" lon="1.86902">
        <ele>220</ele>
        <time>2010-01-01T00:41:05Z</time>
      </trkpt>
      <trkpt lat="43.77917" lon="1.86955">
        <ele>215</ele>
        <time>2010-01-01T00:41:14Z</time>
      </trkpt>
      <trkpt lat="43.77852" lon="1.87017">
        <ele>216</ele>
        <time>2010-01-01T00:41:27Z</time>
      </trkpt>
      <trkpt lat="43.77792" lon="1.87065">
        <ele>215</ele>
        <time>2010-01-01T00:41:38Z</time>
      </trkpt>
      <trkpt lat="43.7774" lon="1.87102">
        <ele>212</ele>
        <time>2010-01-01T00:41:47Z</time>
      </trkpt>
      <trkpt lat="43.77724" lon="1.87117">
        <ele>213</ele>
        <time>2010-01-01T00:41:51Z</time>
      </trkpt>
      <trkpt lat="43.77714" lon="1.87134">
        <ele>213</ele>
        <time>2010-01-01T00:41:53Z</time>
      </trkpt>
      <trkpt lat="43.77696" lon="1.87187">
        <ele>212</ele>
        <time>2010-01-01T00:42:00Z</time>
      </trkpt>
      <trkpt lat="43.7768" lon="1.8724">
        <ele>211</ele>
        <time>2010-01-01T00:42:06Z</time>
      </trkpt>
      <trkpt lat="43.7767" lon="1.87269">
        <ele>211</ele>
        <time>2010-01-01T00:42:10Z</time>
      </trkpt>
      <trkpt lat="43.77658" lon="1.87286">
        <ele>212</ele>
        <time>2010-01-01T00:42:13Z</time>
      </trkpt>
      <trkpt lat="43.77601" lon="1.87333">
        <ele>211</ele>
        <time>2010-01-01T00:42:24Z</time>
      </trkpt>
      <trkpt lat="43.77556" lon="1.8736">
        <ele>208</ele>
        <time>2010-01-01T00:42:31Z</time>
      </trkpt>
      <trkpt lat="43.77501" lon="1.87376">
        <ele>205</ele>
        <time>2010-01-01T00:42:40Z</time>
      </trkpt>
      <trkpt lat="43.7748" lon="1.87389">
        <ele>204</ele>
        <time>2010-01-01T00:42:44Z</time>
      </trkpt>
      <trkpt lat="43.77409" lon="1.87459">
        <ele>198</ele>
        <time>2010-01-01T00:42:58Z</time>
      </trkpt>
      <trkpt lat="43.77367" lon="1.8751">
        <ele>198</ele>
        <time>2010-01-01T00:43:07Z</time>
      </trkpt>
      <trkpt lat="43.77339" lon="1.8756">
        <ele>200</ele>
        <time>2010-01-01T00:43:14Z</time>
      </trkpt>
      <trkpt lat="43.7726" lon="1.87679">
        <ele>197</ele>
        <time>2010-01-01T00:43:33Z</time>
      </trkpt>
      <trkpt lat="43.77232" lon="1.87703">
        <ele>195</ele>
        <time>2010-01-01T00:43:38Z</time>
      </trkpt>
      <trkpt lat="43.7721" lon="1.8773">
        <ele>194</ele>
        <time>2010-01-01T00:43:43Z</time>
      </trkpt>
      <trkpt lat="43.77195" lon="1.87767">
        <ele>193</ele>
        <time>2010-01-01T00:43:48Z</time>
      </trkpt>
      <trkpt lat="43.7716" lon="1.87893">
        <ele>193</ele>
        <time>2010-01-01T00:44:03Z</time>
      </trkpt>
      <trkpt lat="43.77128" lon="1.87995">
        <ele>196</ele>
        <time>2010-01-01T00:44:16Z</time>
      </trkpt>
      <trkpt lat="43.77118" lon="1.88019">
        <ele>194</ele>
        <time>2010-01-01T00:44:20Z</time>
      </trkpt>
      <trkpt lat="43.77026" lon="1.88243">
        <ele>180</ele>
        <time>2010-01-01T00:44:49Z</time>
      </trkpt>
      <trkpt lat="43.77004" lon="1.88276">
        <ele>177</ele>
        <time>2010-01-01T00:44:55Z</time>
      </trkpt>
      <trkpt lat="43.76896" lon="1.88374">
        <ele>170</ele>
        <time>2010-01-01T00:45:15Z</time>
      </trkpt>
      <trkpt lat="43.76758" lon="1.88494">
        <ele>162</ele>
        <time>2010-01-01T00:45:41Z</time>
      </trkpt>
      <trkpt lat="43.76735" lon="1.88518">
        <ele>160</ele>
        <time>2010-01-01T00:45:46Z</time>
      </trkpt>
      <trkpt lat="43.7672" lon="1.88556">
        <ele>161</ele>
        <time>2010-01-01T00:45:51Z</time>
      </trkpt>
      <trkpt lat="43.76703" lon="1.88578">
        <ele>163</ele>
        <time>2010-01-01T00:45:55Z</time>
      </trkpt>
      <trkpt lat="43.76685" lon="1.88589">
        <ele>165</ele>
        <time>2010-01-01T00:45:58Z</time>
      </trkpt>
      <trkpt lat="43.76639" lon="1.88612">
        <ele>166</ele>
        <time>2010-01-01T00:46:06Z</time>
      </trkpt>
      <trkpt lat="43.76584" lon="1.88658">
        <ele>164</ele>
        <time>2010-01-01T00:46:16Z</time>
      </trkpt>
      <trkpt lat="43.76555" lon="1.88689">
        <ele>164</ele>
        <time>2010-01-01T00:46:22Z</time>
      </trkpt>
      <trkpt lat="43.76535" lon="1.88719">
        <ele>164</ele>
        <time>2010-01-01T00:46:26Z</time>
      </trkpt>
      <trkpt lat="43.76514" lon="1.88756">
        <ele>165</ele>
        <time>2010-01-01T00:46:32Z</time>
      </trkpt>
      <trkpt lat="43.76488" lon="1.88793">
        <ele>165</ele>
        <time>2010-01-01T00:46:38Z</time>
      </trkpt>
      <trkpt lat="43.76441" lon="1.88853">
        <ele>162</ele>
        <time>2010-01-01T00:46:48Z</time>
      </trkpt>
      <trkpt lat="43.76372" lon="1.88931">
        <ele>160</ele>
        <time>2010-01-01T00:47:02Z</time>
      </trkpt>
      <trkpt lat="43.76281" lon="1.89022">
        <ele>160</ele>
        <time>2010-01-01T00:47:20Z</time>
      </trkpt>
      <trkpt lat="43.76213" lon="1.8913">
        <ele>160</ele>
        <time>2010-01-01T00:47:37Z</time>
      </trkpt>
      <trkpt lat="43.76169" lon="1.89198">
        <ele>159</ele>
        <time>2010-01-01T00:47:48Z</time>
      </trkpt>
      <trkpt lat="43.7615" lon="1.89184">
        <ele>160</ele>
        <time>2010-01-01T00:47:51Z</time>
      </trkpt>
      <trkpt lat="43.76131" lon="1.89238">
        <ele>158</ele>
        <time>2010-01-01T00:47:58Z</time>
      </trkpt>
      <trkpt lat="43.76101" lon="1.89306">
        <ele>158</ele>
        <time>2010-01-01T00:48:07Z</time>
      </trkpt>
      <trkpt lat="43.76025" lon="1.89452">
        <ele>157</ele>
        <time>2010-01-01T00:48:28Z</time>
      </trkpt>
      <trkpt lat="43.75976" lon="1.89545">
        <ele>146</ele>
        <time>2010-01-01T00:48:41Z</time>
      </trkpt>
      <trkpt lat="43.75938" lon="1.89608">
        <ele>144</ele>
        <time>2010-01-01T00:48:51Z</time>
      </trkpt>
      <trkpt lat="43.75894" lon="1.89676">
        <ele>143</ele>
        <time>2010-01-01T00:49:01Z</time>
      </trkpt>
      <trkpt lat="43.75744" lon="1.89888">
        <ele>151</ele>
        <time>2010-01-01T00:49:36Z</time>
      </trkpt>
      <trkpt lat="43.75678" lon="1.89986">
        <ele>145</ele>
        <time>2010-01-01T00:49:51Z</time>
      </trkpt>
      <trkpt lat="43.75549" lon="1.9017">
        <ele>140</ele>
        <time>2010-01-01T00:50:21Z</time>
      </trkpt>
      <trkpt lat="43.75531" lon="1.90185">
        <ele>140</ele>
        <time>2010-01-01T00:50:24Z</time>
      </trkpt>
      <trkpt lat="43.75525" lon="1.90185">
        <ele>139</ele>
        <time>2010-01-01T00:50:25Z</time>
      </trkpt>
      <trkpt lat="43.75519" lon="1.90191">
        <ele>139</ele>
        <time>2010-01-01T00:50:26Z</time>
      </trkpt>
      <trkpt lat="43.75516" lon="1.90207">
        <ele>139</ele>
        <time>2010-01-01T00:50:28Z</time>
      </trkpt>
      <trkpt lat="43.75509" lon="1.90225">
        <ele>139</ele>
        <time>2010-01-01T00:50:31Z</time>
      </trkpt>
      <trkpt lat="43.75351" lon="1.90457">
        <ele>139</ele>
        <time>2010-01-01T00:51:07Z</time>
      </trkpt>
      <trkpt lat="43.75334" lon="1.90476">
        <ele>138</ele>
        <time>2010-01-01T00:51:11Z</time>
      </trkpt>
      <trkpt lat="43.75322" lon="1.90485">
        <ele>137</ele>
        <time>2010-01-01T00:51:13Z</time>
      </trkpt>
      <trkpt lat="43.75292" lon="1.90488">
        <ele>134</ele>
        <time>2010-01-01T00:51:18Z</time>
      </trkpt>
      <trkpt lat="43.7528" lon="1.90494">
        <ele>133</ele>
        <time>2010-01-01T00:51:20Z</time>
      </trkpt>
      <trkpt lat="43.75265" lon="1.90521">
        <ele>131</ele>
        <time>2010-01-01T00:51:24Z</time>
      </trkpt>
      <trkpt lat="43.7526" lon="1.90535">
        <ele>131</ele>
        <time>2010-01-01T00:51:26Z</time>
      </trkpt>
      <trkpt lat="43.75253" lon="1.90562">
        <ele>131</ele>
        <time>2010-01-01T00:51:29Z</time>
      </trkpt>
      <trkpt lat="43.75247" lon="1.90588">
        <ele>134</ele>
        <time>2010-01-01T00:51:32Z</time>
      </trkpt>
      <trkpt lat="43.75246" lon="1.90602">
        <ele>136</ele>
        <time>2010-01-01T00:51:34Z</time>
      </trkpt>
      <trkpt lat="43.75258" lon="1.90641">
        <ele>140</ele>
        <time>2010-01-01T00:51:39Z</time>
      </trkpt>
      <trkpt lat="43.75256" lon="1.90663">
        <ele>141</ele>
        <time>2010-01-01T00:51:41Z</time>
      </trkpt>
      <trkpt lat="43.75194" lon="1.90803">
        <ele>146</ele>
        <time>2010-01-01T00:52:00Z</time>
      </trkpt>
      <trkpt lat="43.75184" lon="1.90813">
        <ele>146</ele>
        <time>2010-01-01T00:52:02Z</time>
      </trkpt>
      <trkpt lat="43.75176" lon="1.90813">
        <ele>146</ele>
        <time>2010-01-01T00:52:04Z</time>
      </trkpt>
      <trkpt lat="43.75175" lon="1.90813">
        <ele>146</ele>
        <time>2010-01-01T00:52:04Z</time>
      </trkpt>
      <trkpt lat="43.75152" lon="1.9081">
        <ele>146</ele>
        <time>2010-01-01T00:52:07Z</time>
      </trkpt>
      <trkpt lat="43.75145" lon="1.90811">
        <ele>146</ele>
        <time>2010-01-01T00:52:09Z</time>
      </trkpt>
      <trkpt lat="43.75131" lon="1.90786">
        <ele>146</ele>
        <time>2010-01-01T00:52:12Z</time>
      </trkpt>
      <trkpt lat="43.75094" lon="1.90735">
        <ele>145</ele>
        <time>2010-01-01T00:52:21Z</time>
      </trkpt>
      <trkpt lat="43.75042" lon="1.90651">
        <ele>145</ele>
        <time>2010-01-01T00:52:33Z</time>
      </trkpt>
      <trkpt lat="43.75042" lon="1.9065">
        <ele>145</ele>
        <time>2010-01-01T00:52:33Z</time>
      </trkpt>
      <trkpt lat="43.74998" lon="1.90578">
        <ele>142</ele>
        <time>2010-01-01T00:52:44Z</time>
      </trkpt>
      <trkpt lat="43.74924" lon="1.90451">
        <ele>146</ele>
        <time>2010-01-01T00:53:03Z</time>
      </trkpt>
      <trkpt lat="43.74905" lon="1.90426">
        <ele>147</ele>
        <time>2010-01-01T00:53:07Z</time>
      </trkpt>
      <trkpt lat="43.749" lon="1.90423">
        <ele>148</ele>
        <time>2010-01-01T00:53:08Z</time>
      </trkpt>
      <trkpt lat="43.749" lon="1.90422">
        <ele>148</ele>
        <time>2010-01-01T00:53:08Z</time>
      </trkpt>
      <trkpt lat="43.74853" lon="1.9039">
        <ele>153</ele>
        <time>2010-01-01T00:53:17Z</time>
      </trkpt>
      <trkpt lat="43.74847" lon="1.90384">
        <ele>153</ele>
        <time>2010-01-01T00:53:18Z</time>
      </trkpt>
      <trkpt lat="43.74826" lon="1.90379">
        <ele>152</ele>
        <time>2010-01-01T00:53:21Z</time>
      </trkpt>
      <trkpt lat="43.74805" lon="1.9037">
        <ele>154</ele>
        <time>2010-01-01T00:53:25Z</time>
      </trkpt>
      <trkpt lat="43.74776" lon="1.90354">
        <ele>155</ele>
        <time>2010-01-01T00:53:30Z</time>
      </trkpt>
      <trkpt lat="43.74614" lon="1.90273">
        <ele>157</ele>
        <time>2010-01-01T00:53:57Z</time>
      </trkpt>
      <trkpt lat="43.74613" lon="1.90273">
        <ele>157</ele>
        <time>2010-01-01T00:53:58Z</time>
      </trkpt>
      <trkpt lat="43.74467" lon="1.902">
        <ele>167</ele>
        <time>2010-01-01T00:54:23Z</time>
      </trkpt>
      <trkpt lat="43.74456" lon="1.90196">
        <ele>168</ele>
        <time>2010-01-01T00:54:24Z</time>
      </trkpt>
      <trkpt lat="43.74444" lon="1.90195">
        <ele>169</ele>
        <time>2010-01-01T00:54:26Z</time>
      </trkpt>
      <trkpt lat="43.74434" lon="1.90199">
        <ele>169</ele>
        <time>2010-01-01T00:54:28Z</time>
      </trkpt>
      <trkpt lat="43.74424" lon="1.90208">
        <ele>169</ele>
        <time>2010-01-01T00:54:30Z</time>
      </trkpt>
      <trkpt lat="43.74393" lon="1.90254">
        <ele>173</ele>
        <time>2010-01-01T00:54:37Z</time>
      </trkpt>
      <trkpt lat="43.74374" lon="1.90276">
        <ele>175</ele>
        <time>2010-01-01T00:54:41Z</time>
      </trkpt>
      <trkpt lat="43.74362" lon="1.90288">
        <ele>177</ele>
        <time>2010-01-01T00:54:43Z</time>
      </trkpt>
      <trkpt lat="43.74348" lon="1.90295">
        <ele>178</ele>
        <time>2010-01-01T00:54:46Z</time>
      </trkpt>
      <trkpt lat="43.74334" lon="1.90298">
        <ele>179</ele>
        <time>2010-01-01T00:54:48Z</time>
      </trkpt>
      <trkpt lat="43.74303" lon="1.90295">
        <ele>184</ele>
        <time>2010-01-01T00:54:53Z</time>
      </trkpt>
      <trkpt lat="43.7428" lon="1.90296">
        <ele>187</ele>
        <time>2010-01-01T00:54:57Z</time>
      </trkpt>
      <trkpt lat="43.74261" lon="1.90305">
        <ele>186</ele>
        <time>2010-01-01T00:55:00Z</time>
      </trkpt>
      <trkpt lat="43.74239" lon="1.90319">
        <ele>186</ele>
        <time>2010-01-01T00:55:04Z</time>
      </trkpt>
      <trkpt lat="43.74216" lon="1.90331">
        <ele>187</ele>
        <time>2010-01-01T00:55:08Z</time>
      </trkpt>
      <trkpt lat="43.74199" lon="1.90335">
        <ele>189</ele>
        <time>2010-01-01T00:55:11Z</time>
      </trkpt>
      <trkpt lat="43.74179" lon="1.90335">
        <ele>191</ele>
        <time>2010-01-01T00:55:14Z</time>
      </trkpt>
      <trkpt lat="43.74106" lon="1.90317">
        <ele>192</ele>
        <time>2010-01-01T00:55:26Z</time>
      </trkpt>
      <trkpt lat="43.74082" lon="1.90317">
        <ele>193</ele>
        <time>2010-01-01T00:55:29Z</time>
      </trkpt>
      <trkpt lat="43.74026" lon="1.90332">
        <ele>189</ele>
        <time>2010-01-01T00:55:39Z</time>
      </trkpt>
      <trkpt lat="43.73987" lon="1.90345">
        <ele>190</ele>
        <time>2010-01-01T00:55:45Z</time>
      </trkpt>
      <trkpt lat="43.73973" lon="1.90357">
        <ele>191</ele>
        <time>2010-01-01T00:55:48Z</time>
      </trkpt>
      <trkpt lat="43.73942" lon="1.90389">
        <ele>190</ele>
        <time>2010-01-01T00:55:54Z</time>
      </trkpt>
      <trkpt lat="43.73925" lon="1.904">
        <ele>189</ele>
        <time>2010-01-01T00:55:57Z</time>
      </trkpt>
      <trkpt lat="43.73909" lon="1.90401">
        <ele>188</ele>
        <time>2010-01-01T00:55:59Z</time>
      </trkpt>
      <trkpt lat="43.73898" lon="1.90398">
        <ele>187</ele>
        <time>2010-01-01T00:56:01Z</time>
      </trkpt>
      <trkpt lat="43.73889" lon="1.90389">
        <ele>187</ele>
        <time>2010-01-01T00:56:03Z</time>
      </trkpt>
      <trkpt lat="43.73881" lon="1.90377">
        <ele>187</ele>
        <time>2010-01-01T00:56:05Z</time>
      </trkpt>
      <trkpt lat="43.73876" lon="1.90363">
        <ele>189</ele>
        <time>2010-01-01T00:56:07Z</time>
      </trkpt>
      <trkpt lat="43.73873" lon="1.90342">
        <ele>192</ele>
        <time>2010-01-01T00:56:09Z</time>
      </trkpt>
      <trkpt lat="43.73874" lon="1.9032">
        <ele>195</ele>
        <time>2010-01-01T00:56:12Z</time>
      </trkpt>
      <trkpt lat="43.73904" lon="1.9021">
        <ele>204</ele>
        <time>2010-01-01T00:56:25Z</time>
      </trkpt>
      <trkpt lat="43.73907" lon="1.90179">
        <ele>205</ele>
        <time>2010-01-01T00:56:29Z</time>
      </trkpt>
      <trkpt lat="43.73905" lon="1.90149">
        <ele>204</ele>
        <time>2010-01-01T00:56:32Z</time>
      </trkpt>
      <trkpt lat="43.73903" lon="1.90118">
        <ele>203</ele>
        <time>2010-01-01T00:56:36Z</time>
      </trkpt>
      <trkpt lat="43.73891" lon="1.90076">
        <ele>203</ele>
        <time>2010-01-01T00:56:41Z</time>
      </trkpt>
      <trkpt lat="43.73867" lon="1.90032">
        <ele>204</ele>
        <time>2010-01-01T00:56:48Z</time>
      </trkpt>
      <trkpt lat="43.73853" lon="1.90019">
        <ele>204</ele>
        <time>2010-01-01T00:56:50Z</time>
      </trkpt>
      <trkpt lat="43.73837" lon="1.90011">
        <ele>204</ele>
        <time>2010-01-01T00:56:53Z</time>
      </trkpt>
      <trkpt lat="43.73823" lon="1.90035">
        <ele>205</ele>
        <time>2010-01-01T00:56:57Z</time>
      </trkpt>
      <trkpt lat="43.73805" lon="1.90077">
        <ele>206</ele>
        <time>2010-01-01T00:57:02Z</time>
      </trkpt>
      <trkpt lat="43.73798" lon="1.90085">
        <ele>206</ele>
        <time>2010-01-01T00:57:04Z</time>
      </trkpt>
      <trkpt lat="43.73787" lon="1.90089">
        <ele>208</ele>
        <time>2010-01-01T00:57:06Z</time>
      </trkpt>
      <trkpt lat="43.7378" lon="1.90089">
        <ele>208</ele>
        <time>2010-01-01T00:57:07Z</time>
      </trkpt>
      <trkpt lat="43.73751" lon="1.9008">
        <ele>212</ele>
        <time>2010-01-01T00:57:11Z</time>
      </trkpt>
      <trkpt lat="43.73727" lon="1.90079">
        <ele>213</ele>
        <time>2010-01-01T00:57:15Z</time>
      </trkpt>
      <trkpt lat="43.73712" lon="1.90084">
        <ele>213</ele>
        <time>2010-01-01T00:57:18Z</time>
      </trkpt>
      <trkpt lat="43.73698" lon="1.90094">
        <ele>213</ele>
        <time>2010-01-01T00:57:20Z</time>
      </trkpt>
      <trkpt lat="43.73673" lon="1.90119">
        <ele>214</ele>
        <time>2010-01-01T00:57:25Z</time>
      </trkpt>
      <trkpt lat="43.7359" lon="1.90209">
        <ele>222</ele>
        <time>2010-01-01T00:57:42Z</time>
      </trkpt>
      <trkpt lat="43.73542" lon="1.90273">
        <ele>227</ele>
        <time>2010-01-01T00:57:53Z</time>
      </trkpt>
      <trkpt lat="43.73526" lon="1.90291">
        <ele>229</ele>
        <time>2010-01-01T00:57:56Z</time>
      </trkpt>
      <trkpt lat="43.73505" lon="1.90307">
        <ele>230</ele>
        <time>2010-01-01T00:58:00Z</time>
      </trkpt>
      <trkpt lat="43.73486" lon="1.90318">
        <ele>231</ele>
        <time>2010-01-01T00:58:03Z</time>
      </trkpt>
      <trkpt lat="43.73311" lon="1.90402">
        <ele>234</ele>
        <time>2010-01-01T00:58:33Z</time>
      </trkpt>
      <trkpt lat="43.73296" lon="1.90405">
        <ele>234</ele>
        <time>2010-01-01T00:58:35Z</time>
      </trkpt>
      <trkpt lat="43.73285" lon="1.90405">
        <ele>234</ele>
        <time>2010-01-01T00:58:37Z</time>
      </trkpt>
      <trkpt lat="43.73273" lon="1.90403">
        <ele>234</ele>
        <time>2010-01-01T00:58:39Z</time>
      </trkpt>
      <trkpt lat="43.73236" lon="1.90385">
        <ele>236</ele>
        <time>2010-01-01T00:58:45Z</time>
      </trkpt>
      <trkpt lat="43.73223" lon="1.9038">
        <ele>236</ele>
        <time>2010-01-01T00:58:47Z</time>
      </trkpt>
      <trkpt lat="43.73209" lon="1.90379">
        <ele>237</ele>
        <time>2010-01-01T00:58:50Z</time>
      </trkpt>
      <trkpt lat="43.73158" lon="1.90386">
        <ele>241</ele>
        <time>2010-01-01T00:58:58Z</time>
      </trkpt>
      <trkpt lat="43.73108" lon="1.90402">
        <ele>246</ele>
        <time>2010-01-01T00:59:06Z</time>
      </trkpt>
      <trkpt lat="43.73085" lon="1.90402">
        <ele>248</ele>
        <time>2010-01-01T00:59:10Z</time>
      </trkpt>
      <trkpt lat="43.73084" lon="1.90402">
        <ele>248</ele>
        <time>2010-01-01T00:59:10Z</time>
      </trkpt>
      <trkpt lat="43.73059" lon="1.90399">
        <ele>252</ele>
        <time>2010-01-01T00:59:14Z</time>
      </trkpt>
      <trkpt lat="43.73025" lon="1.90392">
        <ele>258</ele>
        <time>2010-01-01T00:59:19Z</time>
      </trkpt>
      <trkpt lat="43.73007" lon="1.90381">
        <ele>263</ele>
        <time>2010-01-01T00:59:23Z</time>
      </trkpt>
      <trkpt lat="43.72982" lon="1.90352">
        <ele>265</ele>
        <time>2010-01-01T00:59:28Z</time>
      </trkpt>
      <trkpt lat="43.72965" lon="1.90345">
        <ele>266</ele>
        <time>2010-01-01T00:59:31Z</time>
      </trkpt>
      <trkpt lat="43.72946" lon="1.90346">
        <ele>265</ele>
        <time>2010-01-01T00:59:34Z</time>
      </trkpt>
      <trkpt lat="43.72935" lon="1.90344">
        <ele>263</ele>
        <time>2010-01-01T00:59:35Z</time>
      </trkpt>
      <trkpt lat="43.72932" lon="1.90356">
        <ele>263</ele>
        <time>2010-01-01T00:59:37Z</time>
      </trkpt>
      <trkpt lat="43.72926" lon="1.90366">
        <ele>263</ele>
        <time>2010-01-01T00:59:38Z</time>
      </trkpt>
      <trkpt lat="43.72903" lon="1.90393">
        <ele>261</ele>
        <time>2010-01-01T00:59:43Z</time>
      </trkpt>
      <trkpt lat="43.72896" lon="1.90402">
        <ele>261</ele>
        <time>2010-01-01T00:59:45Z</time>
      </trkpt>
      <trkpt lat="43.72878" lon="1.90431">
        <ele>261</ele>
        <time>2010-01-01T00:59:49Z</time>
      </trkpt>
      <trkpt lat="43.7287" lon="1.90437">
        <ele>260</ele>
        <time>2010-01-01T00:59:51Z</time>
      </trkpt>
      <trkpt lat="43.72831" lon="1.90452">
        <ele>258</ele>
        <time>2010-01-01T00:59:57Z</time>
      </trkpt>
      <trkpt lat="43.72813" lon="1.90455">
        <ele>257</ele>
        <time>2010-01-01T01:00:00Z</time>
      </trkpt>
      <trkpt lat="43.7277" lon="1.90459">
        <ele>255</ele>
        <time>2010-01-01T01:00:07Z</time>
      </trkpt>
      <trkpt lat="43.72742" lon="1.90458">
        <ele>253</ele>
        <time>2010-01-01T01:00:11Z</time>
      </trkpt>
      <trkpt lat="43.72716" lon="1.90462">
        <ele>251</ele>
        <time>2010-01-01T01:00:16Z</time>
      </trkpt>
      <trkpt lat="43.72713" lon="1.90466">
        <ele>251</ele>
        <time>2010-01-01T01:00:16Z</time>
      </trkpt>
      <trkpt lat="43.72712" lon="1.90473">
        <ele>251</ele>
        <time>2010-01-01T01:00:17Z</time>
      </trkpt>
      <trkpt lat="43.72716" lon="1.90509">
        <ele>250</ele>
        <time>2010-01-01T01:00:21Z</time>
      </trkpt>
      <trkpt lat="43.72714" lon="1.90525">
        <ele>250</ele>
        <time>2010-01-01T01:00:23Z</time>
      </trkpt>
      <trkpt lat="43.72709" lon="1.90539">
        <ele>250</ele>
        <time>2010-01-01T01:00:25Z</time>
      </trkpt>
      <trkpt lat="43.72704" lon="1.90544">
        <ele>249</ele>
        <time>2010-01-01T01:00:26Z</time>
      </trkpt>
      <trkpt lat="43.72696" lon="1.90547">
        <ele>248</ele>
        <time>2010-01-01T01:00:27Z</time>
      </trkpt>
      <trkpt lat="43.72691" lon="1.90545">
        <ele>247</ele>
        <time>2010-01-01T01:00:28Z</time>
      </trkpt>
      <trkpt lat="43.72687" lon="1.9054">
        <ele>246</ele>
        <time>2010-01-01T01:00:29Z</time>
      </trkpt>
      <trkpt lat="43.72673" lon="1.90499">
        <ele>241</ele>
        <time>2010-01-01T01:00:34Z</time>
      </trkpt>
      <trkpt lat="43.72667" lon="1.90491">
        <ele>240</ele>
        <time>2010-01-01T01:00:36Z</time>
      </trkpt>
      <trkpt lat="43.72659" lon="1.90487">
        <ele>239</ele>
        <time>2010-01-01T01:00:37Z</time>
      </trkpt>
      <trkpt lat="43.72645" lon="1.90487">
        <ele>237</ele>
        <time>2010-01-01T01:00:39Z</time>
      </trkpt>
      <trkpt lat="43.72613" lon="1.90496">
        <ele>233</ele>
        <time>2010-01-01T01:00:44Z</time>
      </trkpt>
      <trkpt lat="43.72584" lon="1.90515">
        <ele>229</ele>
        <time>2010-01-01T01:00:50Z</time>
      </trkpt>
      <trkpt lat="43.72573" lon="1.9052">
        <ele>228</ele>
        <time>2010-01-01T01:00:51Z</time>
      </trkpt>
      <trkpt lat="43.72563" lon="1.90522">
        <ele>227</ele>
        <time>2010-01-01T01:00:53Z</time>
      </trkpt>
      <trkpt lat="43.72551" lon="1.90521">
        <ele>226</ele>
        <time>2010-01-01T01:00:55Z</time>
      </trkpt>
      <trkpt lat="43.72511" lon="1.90508">
        <ele>222</ele>
        <time>2010-01-01T01:01:02Z</time>
      </trkpt>
      <trkpt lat="43.72439" lon="1.90509">
        <ele>217</ele>
        <time>2010-01-01T01:01:13Z</time>
      </trkpt>
      <trkpt lat="43.72427" lon="1.90512">
        <ele>216</ele>
        <time>2010-01-01T01:01:15Z</time>
      </trkpt>
      <trkpt lat="43.72414" lon="1.90517">
        <ele>216</ele>
        <time>2010-01-01T01:01:17Z</time>
      </trkpt>
      <trkpt lat="43.72376" lon="1.90539">
        <ele>214</ele>
        <time>2010-01-01T01:01:24Z</time>
      </trkpt>
      <trkpt lat="43.72364" lon="1.90543">
        <ele>213</ele>
        <time>2010-01-01T01:01:26Z</time>
      </trkpt>
      <trkpt lat="43.72353" lon="1.90544">
        <ele>213</ele>
        <time>2010-01-01T01:01:28Z</time>
      </trkpt>
      <trkpt lat="43.72289" lon="1.90543">
        <ele>213</ele>
        <time>2010-01-01T01:01:38Z</time>
      </trkpt>
      <trkpt lat="43.72266" lon="1.90546">
        <ele>211</ele>
        <time>2010-01-01T01:01:42Z</time>
      </trkpt>
      <trkpt lat="43.72244" lon="1.9055">
        <ele>208</ele>
        <time>2010-01-01T01:01:45Z</time>
      </trkpt>
      <trkpt lat="43.72228" lon="1.90559">
        <ele>207</ele>
        <time>2010-01-01T01:01:48Z</time>
      </trkpt>
      <trkpt lat="43.72195" lon="1.90581">
        <ele>205</ele>
        <time>2010-01-01T01:01:54Z</time>
      </trkpt>
      <trkpt lat="43.72177" lon="1.90589">
        <ele>204</ele>
        <time>2010-01-01T01:01:57Z</time>
      </trkpt>
      <trkpt lat="43.72157" lon="1.90593">
        <ele>202</ele>
        <time>2010-01-01T01:02:00Z</time>
      </trkpt>
      <trkpt lat="43.7213" lon="1.90591">
        <ele>199</ele>
        <time>2010-01-01T01:02:04Z</time>
      </trkpt>
      <trkpt lat="43.72112" lon="1.90593">
        <ele>197</ele>
        <time>2010-01-01T01:02:07Z</time>
      </trkpt>
      <trkpt lat="43.72095" lon="1.90601">
        <ele>197</ele>
        <time>2010-01-01T01:02:10Z</time>
      </trkpt>
      <trkpt lat="43.72067" lon="1.90625">
        <ele>197</ele>
        <time>2010-01-01T01:02:15Z</time>
      </trkpt>
      <trkpt lat="43.71963" lon="1.90735">
        <ele>192</ele>
        <time>2010-01-01T01:02:36Z</time>
      </trkpt>
      <trkpt lat="43.71946" lon="1.90751">
        <ele>192</ele>
        <time>2010-01-01T01:02:40Z</time>
      </trkpt>
      <trkpt lat="43.71915" lon="1.90769">
        <ele>189</ele>
        <time>2010-01-01T01:02:45Z</time>
      </trkpt>
      <trkpt lat="43.71915" lon="1.9077">
        <ele>189</ele>
        <time>2010-01-01T01:02:45Z</time>
      </trkpt>
      <trkpt lat="43.7187" lon="1.9079">
        <ele>189</ele>
        <time>2010-01-01T01:02:53Z</time>
      </trkpt>
      <trkpt lat="43.71852" lon="1.90796">
        <ele>188</ele>
        <time>2010-01-01T01:02:56Z</time>
      </trkpt>
      <trkpt lat="43.71799" lon="1.90802">
        <ele>185</ele>
        <time>2010-01-01T01:03:04Z</time>
      </trkpt>
      <trkpt lat="43.71785" lon="1.90807">
        <ele>185</ele>
        <time>2010-01-01T01:03:06Z</time>
      </trkpt>
      <trkpt lat="43.71774" lon="1.90815">
        <ele>185</ele>
        <time>2010-01-01T01:03:08Z</time>
      </trkpt>
      <trkpt lat="43.71746" lon="1.9084">
        <ele>184</ele>
        <time>2010-01-01T01:03:14Z</time>
      </trkpt>
      <trkpt lat="43.71701" lon="1.90877">
        <ele>184</ele>
        <time>2010-01-01T01:03:22Z</time>
      </trkpt>
      <trkpt lat="43.71685" lon="1.90888">
        <ele>183</ele>
        <time>2010-01-01T01:03:25Z</time>
      </trkpt>
      <trkpt lat="43.71668" lon="1.90896">
        <ele>183</ele>
        <time>2010-01-01T01:03:28Z</time>
      </trkpt>
      <trkpt lat="43.71477" lon="1.90939">
        <ele>180</ele>
        <time>2010-01-01T01:03:59Z</time>
      </trkpt>
      <trkpt lat="43.7145" lon="1.90947">
        <ele>178</ele>
        <time>2010-01-01T01:04:03Z</time>
      </trkpt>
      <trkpt lat="43.7139" lon="1.90982">
        <ele>176</ele>
        <time>2010-01-01T01:04:14Z</time>
      </trkpt>
      <trkpt lat="43.71328" lon="1.9103">
        <ele>173</ele>
        <time>2010-01-01T01:04:25Z</time>
      </trkpt>
      <trkpt lat="43.71298" lon="1.91044">
        <ele>173</ele>
        <time>2010-01-01T01:04:30Z</time>
      </trkpt>
      <trkpt lat="43.71267" lon="1.91051">
        <ele>174</ele>
        <time>2010-01-01T01:04:35Z</time>
      </trkpt>
      <trkpt lat="43.71222" lon="1.91055">
        <ele>176</ele>
        <time>2010-01-01T01:04:42Z</time>
      </trkpt>
      <trkpt lat="43.71193" lon="1.91067">
        <ele>178</ele>
        <time>2010-01-01T01:04:47Z</time>
      </trkpt>
      <trkpt lat="43.71121" lon="1.91117">
        <ele>181</ele>
        <time>2010-01-01T01:05:00Z</time>
      </trkpt>
      <trkpt lat="43.711" lon="1.91127">
        <ele>183</ele>
        <time>2010-01-01T01:05:04Z</time>
      </trkpt>
      <trkpt lat="43.71059" lon="1.91138">
        <ele>186</ele>
        <time>2010-01-01T01:05:10Z</time>
      </trkpt>
      <trkpt lat="43.70865" lon="1.91159">
        <ele>203</ele>
        <time>2010-01-01T01:05:42Z</time>
      </trkpt>
      <trkpt lat="43.70757" lon="1.91148">
        <ele>214</ele>
        <time>2010-01-01T01:05:59Z</time>
      </trkpt>
      <trkpt lat="43.70757" lon="1.91147">
        <ele>214</ele>
        <time>2010-01-01T01:05:59Z</time>
      </trkpt>
      <trkpt lat="43.7075" lon="1.91147">
        <ele>215</ele>
        <time>2010-01-01T01:06:00Z</time>
      </trkpt>
      <trkpt lat="43.70731" lon="1.91139">
        <ele>214</ele>
        <time>2010-01-01T01:06:03Z</time>
      </trkpt>
      <trkpt lat="43.7072" lon="1.91131">
        <ele>213</ele>
        <time>2010-01-01T01:06:05Z</time>
      </trkpt>
      <trkpt lat="43.70693" lon="1.91067">
        <ele>215</ele>
        <time>2010-01-01T01:06:14Z</time>
      </trkpt>
      <trkpt lat="43.70677" lon="1.9104">
        <ele>215</ele>
        <time>2010-01-01T01:06:18Z</time>
      </trkpt>
      <trkpt lat="43.70628" lon="1.9098">
        <ele>217</ele>
        <time>2010-01-01T01:06:28Z</time>
      </trkpt>
      <trkpt lat="43.70603" lon="1.90958">
        <ele>217</ele>
        <time>2010-01-01T01:06:33Z</time>
      </trkpt>
      <trkpt lat="43.70602" lon="1.90958">
        <ele>217</ele>
        <time>2010-01-01T01:06:33Z</time>
      </trkpt>
      <trkpt lat="43.70578" lon="1.90943">
        <ele>219</ele>
        <time>2010-01-01T01:06:38Z</time>
      </trkpt>
      <trkpt lat="43.7057" lon="1.90967">
        <ele>218</ele>
        <time>2010-01-01T01:06:41Z</time>
      </trkpt>
      <trkpt lat="43.70561" lon="1.9098">
        <ele>217</ele>
        <time>2010-01-01T01:06:43Z</time>
      </trkpt>
      <trkpt lat="43.70549" lon="1.90989">
        <ele>216</ele>
        <time>2010-01-01T01:06:45Z</time>
      </trkpt>
      <trkpt lat="43.70516" lon="1.91002">
        <ele>213</ele>
        <time>2010-01-01T01:06:50Z</time>
      </trkpt>
      <trkpt lat="43.70504" lon="1.9101">
        <ele>212</ele>
        <time>2010-01-01T01:06:52Z</time>
      </trkpt>
      <trkpt lat="43.70495" lon="1.91022">
        <ele>210</ele>
        <time>2010-01-01T01:06:54Z</time>
      </trkpt>
      <trkpt lat="43.70458" lon="1.91086">
        <ele>203</ele>
        <time>2010-01-01T01:07:04Z</time>
      </trkpt>
      <trkpt lat="43.70452" lon="1.911">
        <ele>202</ele>
        <time>2010-01-01T01:07:06Z</time>
      </trkpt>
      <trkpt lat="43.70449" lon="1.91111">
        <ele>200</ele>
        <time>2010-01-01T01:07:07Z</time>
      </trkpt>
      <trkpt lat="43.70444" lon="1.91156">
        <ele>197</ele>
        <time>2010-01-01T01:07:12Z</time>
      </trkpt>
      <trkpt lat="43.70438" lon="1.91174">
        <ele>195</ele>
        <time>2010-01-01T01:07:15Z</time>
      </trkpt>
      <trkpt lat="43.7036" lon="1.91329">
        <ele>184</ele>
        <time>2010-01-01T01:07:37Z</time>
      </trkpt>
      <trkpt lat="43.70349" lon="1.91351">
        <ele>183</ele>
        <time>2010-01-01T01:07:40Z</time>
      </trkpt>
      <trkpt lat="43.70341" lon="1.91364">
        <ele>183</ele>
        <time>2010-01-01T01:07:42Z</time>
      </trkpt>
      <trkpt lat="43.7027" lon="1.91444">
        <ele>177</ele>
        <time>2010-01-01T01:07:56Z</time>
      </trkpt>
      <trkpt lat="43.70261" lon="1.91458">
        <ele>177</ele>
        <time>2010-01-01T01:07:59Z</time>
      </trkpt>
      <trkpt lat="43.70241" lon="1.91499">
        <ele>175</ele>
        <time>2010-01-01T01:08:04Z</time>
      </trkpt>
      <trkpt lat="43.7023" lon="1.91519">
        <ele>174</ele>
        <time>2010-01-01T01:08:07Z</time>
      </trkpt>
      <trkpt lat="43.70218" lon="1.91531">
        <ele>174</ele>
        <time>2010-01-01T01:08:10Z</time>
      </trkpt>
      <trkpt lat="43.70111" lon="1.91605">
        <ele>168</ele>
        <time>2010-01-01T01:08:29Z</time>
      </trkpt>
      <trkpt lat="43.70031" lon="1.91643">
        <ele>163</ele>
        <time>2010-01-01T01:08:42Z</time>
      </trkpt>
      <trkpt lat="43.70023" lon="1.91655">
        <ele>162</ele>
        <time>2010-01-01T01:08:44Z</time>
      </trkpt>
      <trkpt lat="43.70018" lon="1.91668">
        <ele>161</ele>
        <time>2010-01-01T01:08:46Z</time>
      </trkpt>
      <trkpt lat="43.70018" lon="1.91687">
        <ele>161</ele>
        <time>2010-01-01T01:08:48Z</time>
      </trkpt>
      <trkpt lat="43.70021" lon="1.91705">
        <ele>161</ele>
        <time>2010-01-01T01:08:50Z</time>
      </trkpt>
      <trkpt lat="43.70022" lon="1.91719">
        <ele>160</ele>
        <time>2010-01-01T01:08:52Z</time>
      </trkpt>
      <trkpt lat="43.7002" lon="1.91729">
        <ele>160</ele>
        <time>2010-01-01T01:08:53Z</time>
      </trkpt>
      <trkpt lat="43.70003" lon="1.91754">
        <ele>159</ele>
        <time>2010-01-01T01:08:57Z</time>
      </trkpt>
      <trkpt lat="43.69987" lon="1.91782">
        <ele>160</ele>
        <time>2010-01-01T01:09:01Z</time>
      </trkpt>
      <trkpt lat="43.69981" lon="1.91799">
        <ele>161</ele>
        <time>2010-01-01T01:09:03Z</time>
      </trkpt>
      <trkpt lat="43.69974" lon="1.91817">
        <ele>162</ele>
        <time>2010-01-01T01:09:06Z</time>
      </trkpt>
      <trkpt lat="43.6997" lon="1.91841">
        <ele>165</ele>
        <time>2010-01-01T01:09:09Z</time>
      </trkpt>
      <trkpt lat="43.6997" lon="1.91867">
        <ele>168</ele>
        <time>2010-01-01T01:09:12Z</time>
      </trkpt>
      <trkpt lat="43.69978" lon="1.91913">
        <ele>171</ele>
        <time>2010-01-01T01:09:17Z</time>
      </trkpt>
      <trkpt lat="43.69983" lon="1.91967">
        <ele>174</ele>
        <time>2010-01-01T01:09:23Z</time>
      </trkpt>
      <trkpt lat="43.69985" lon="1.92029">
        <ele>177</ele>
        <time>2010-01-01T01:09:30Z</time>
      </trkpt>
      <trkpt lat="43.69983" lon="1.92059">
        <ele>178</ele>
        <time>2010-01-01T01:09:34Z</time>
      </trkpt>
      <trkpt lat="43.69977" lon="1.92084">
        <ele>178</ele>
        <time>2010-01-01T01:09:37Z</time>
      </trkpt>
      <trkpt lat="43.69918" lon="1.92216">
        <ele>183</ele>
        <time>2010-01-01T01:09:55Z</time>
      </trkpt>
      <trkpt lat="43.6991" lon="1.92242">
        <ele>184</ele>
        <time>2010-01-01T01:09:58Z</time>
      </trkpt>
      <trkpt lat="43.69886" lon="1.92388">
        <ele>191</ele>
        <time>2010-01-01T01:10:16Z</time>
      </trkpt>
      <trkpt lat="43.6988" lon="1.92416">
        <ele>192</ele>
        <time>2010-01-01T01:10:19Z</time>
      </trkpt>
      <trkpt lat="43.69814" lon="1.92566">
        <ele>188</ele>
        <time>2010-01-01T01:10:39Z</time>
      </trkpt>
      <trkpt lat="43.69802" lon="1.92601">
        <ele>188</ele>
        <time>2010-01-01T01:10:44Z</time>
      </trkpt>
      <trkpt lat="43.69795" lon="1.9263">
        <ele>189</ele>
        <time>2010-01-01T01:10:47Z</time>
      </trkpt>
      <trkpt lat="43.69795" lon="1.92656">
        <ele>191</ele>
        <time>2010-01-01T01:10:50Z</time>
      </trkpt>
      <trkpt lat="43.698" lon="1.92688">
        <ele>194</ele>
        <time>2010-01-01T01:10:54Z</time>
      </trkpt>
      <trkpt lat="43.6982" lon="1.92793">
        <ele>200</ele>
        <time>2010-01-01T01:11:07Z</time>
      </trkpt>
      <trkpt lat="43.69836" lon="1.92893">
        <ele>205</ele>
        <time>2010-01-01T01:11:19Z</time>
      </trkpt>
      <trkpt lat="43.69861" lon="1.932">
        <ele>203</ele>
        <time>2010-01-01T01:11:54Z</time>
      </trkpt>
      <trkpt lat="43.69859" lon="1.93238">
        <ele>203</ele>
        <time>2010-01-01T01:11:59Z</time>
      </trkpt>
      <trkpt lat="43.69855" lon="1.93282">
        <ele>202</ele>
        <time>2010-01-01T01:12:04Z</time>
      </trkpt>
      <trkpt lat="43.69836" lon="1.93415">
        <ele>204</ele>
        <time>2010-01-01T01:12:20Z</time>
      </trkpt>
      <trkpt lat="43.69822" lon="1.93536">
        <ele>209</ele>
        <time>2010-01-01T01:12:34Z</time>
      </trkpt>
      <trkpt lat="43.69816" lon="1.93607">
        <ele>213</ele>
        <time>2010-01-01T01:12:42Z</time>
      </trkpt>
      <trkpt lat="43.69814" lon="1.93684">
        <ele>217</ele>
        <time>2010-01-01T01:12:51Z</time>
      </trkpt>
      <trkpt lat="43.69811" lon="1.93708">
        <ele>216</ele>
        <time>2010-01-01T01:12:54Z</time>
      </trkpt>
      <trkpt lat="43.69813" lon="1.93733">
        <ele>215</ele>
        <time>2010-01-01T01:12:57Z</time>
      </trkpt>
      <trkpt lat="43.69817" lon="1.93757">
        <ele>215</ele>
        <time>2010-01-01T01:13:00Z</time>
      </trkpt>
      <trkpt lat="43.69818" lon="1.93776">
        <ele>214</ele>
        <time>2010-01-01T01:13:02Z</time>
      </trkpt>
      <trkpt lat="43.69816" lon="1.9382">
        <ele>214</ele>
        <time>2010-01-01T01:13:07Z</time>
      </trkpt>
      <trkpt lat="43.69816" lon="1.93852">
        <ele>214</ele>
        <time>2010-01-01T01:13:11Z</time>
      </trkpt>
      <trkpt lat="43.69822" lon="1.93874">
        <ele>215</ele>
        <time>2010-01-01T01:13:13Z</time>
      </trkpt>
      <trkpt lat="43.69843" lon="1.93921">
        <ele>216</ele>
        <time>2010-01-01T01:13:20Z</time>
      </trkpt>
      <trkpt lat="43.69845" lon="1.93941">
        <ele>216</ele>
        <time>2010-01-01T01:13:22Z</time>
      </trkpt>
      <trkpt lat="43.69843" lon="1.93959">
        <ele>216</ele>
        <time>2010-01-01T01:13:24Z</time>
      </trkpt>
      <trkpt lat="43.69828" lon="1.93993">
        <ele>216</ele>
        <time>2010-01-01T01:13:29Z</time>
      </trkpt>
      <trkpt lat="43.6982" lon="1.94022">
        <ele>216</ele>
        <time>2010-01-01T01:13:32Z</time>
      </trkpt>
      <trkpt lat="43.69815" lon="1.9406">
        <ele>217</ele>
        <time>2010-01-01T01:13:37Z</time>
      </trkpt>
      <trkpt lat="43.69814" lon="1.94139">
        <ele>223</ele>
        <time>2010-01-01T01:13:46Z</time>
      </trkpt>
      <trkpt lat="43.69801" lon="1.94222">
        <ele>226</ele>
        <time>2010-01-01T01:13:56Z</time>
      </trkpt>
      <trkpt lat="43.69799" lon="1.94252">
        <ele>226</ele>
        <time>2010-01-01T01:13:59Z</time>
      </trkpt>
      <trkpt lat="43.69793" lon="1.94333">
        <ele>226</ele>
        <time>2010-01-01T01:14:09Z</time>
      </trkpt>
      <trkpt lat="43.69749" lon="1.94325">
        <ele>226</ele>
        <time>2010-01-01T01:14:16Z</time>
      </trkpt>
      <trkpt lat="43.69709" lon="1.94325">
        <ele>226</ele>
        <time>2010-01-01T01:14:22Z</time>
      </trkpt>
      <trkpt lat="43.6965" lon="1.94337">
        <ele>227</ele>
        <time>2010-01-01T01:14:32Z</time>
      </trkpt>
      <trkpt lat="43.69626" lon="1.94339">
        <ele>227</ele>
        <time>2010-01-01T01:14:36Z</time>
      </trkpt>
      <trkpt lat="43.69613" lon="1.94335">
        <ele>227</ele>
        <time>2010-01-01T01:14:38Z</time>
      </trkpt>
      <trkpt lat="43.69603" lon="1.94328">
        <ele>226</ele>
        <time>2010-01-01T01:14:40Z</time>
      </trkpt>
      <trkpt lat="43.6957" lon="1.94283">
        <ele>221</ele>
        <time>2010-01-01T01:14:47Z</time>
      </trkpt>
      <trkpt lat="43.69555" lon="1.94278">
        <ele>219</ele>
        <time>2010-01-01T01:14:49Z</time>
      </trkpt>
      <trkpt lat="43.69546" lon="1.94282">
        <ele>219</ele>
        <time>2010-01-01T01:14:51Z</time>
      </trkpt>
      <trkpt lat="43.69533" lon="1.94295">
        <ele>219</ele>
        <time>2010-01-01T01:14:53Z</time>
      </trkpt>
      <trkpt lat="43.69514" lon="1.94336">
        <ele>219</ele>
        <time>2010-01-01T01:14:59Z</time>
      </trkpt>
      <trkpt lat="43.695" lon="1.9436">
        <ele>218</ele>
        <time>2010-01-01T01:15:03Z</time>
      </trkpt>
      <trkpt lat="43.69484" lon="1.94379">
        <ele>218</ele>
        <time>2010-01-01T01:15:06Z</time>
      </trkpt>
      <trkpt lat="43.69474" lon="1.94386">
        <ele>218</ele>
        <time>2010-01-01T01:15:08Z</time>
      </trkpt>
      <trkpt lat="43.69474" lon="1.94387">
        <ele>218</ele>
        <time>2010-01-01T01:15:08Z</time>
      </trkpt>
      <trkpt lat="43.69441" lon="1.94412">
        <ele>215</ele>
        <time>2010-01-01T01:15:14Z</time>
      </trkpt>
      <trkpt lat="43.69377" lon="1.94455">
        <ele>212</ele>
        <time>2010-01-01T01:15:25Z</time>
      </trkpt>
      <trkpt lat="43.69326" lon="1.94333">
        <ele>206</ele>
        <time>2010-01-01T01:15:42Z</time>
      </trkpt>
      <trkpt lat="43.69318" lon="1.94299">
        <ele>203</ele>
        <time>2010-01-01T01:15:46Z</time>
      </trkpt>
      <trkpt lat="43.69312" lon="1.94095">
        <ele>190</ele>
        <time>2010-01-01T01:16:09Z</time>
      </trkpt>
      <trkpt lat="43.69307" lon="1.94082">
        <ele>188</ele>
        <time>2010-01-01T01:16:11Z</time>
      </trkpt>
      <trkpt lat="43.69299" lon="1.9407">
        <ele>187</ele>
        <time>2010-01-01T01:16:13Z</time>
      </trkpt>
      <trkpt lat="43.69251" lon="1.94025">
        <ele>181</ele>
        <time>2010-01-01T01:16:22Z</time>
      </trkpt>
      <trkpt lat="43.69242" lon="1.94019">
        <ele>180</ele>
        <time>2010-01-01T01:16:24Z</time>
      </trkpt>
      <trkpt lat="43.69221" lon="1.94016">
        <ele>177</ele>
        <time>2010-01-01T01:16:27Z</time>
      </trkpt>
      <trkpt lat="43.6913" lon="1.94035">
        <ele>176</ele>
        <time>2010-01-01T01:16:42Z</time>
      </trkpt>
      <trkpt lat="43.69118" lon="1.94034">
        <ele>177</ele>
        <time>2010-01-01T01:16:44Z</time>
      </trkpt>
      <trkpt lat="43.69084" lon="1.94022">
        <ele>179</ele>
        <time>2010-01-01T01:16:50Z</time>
      </trkpt>
      <trkpt lat="43.69036" lon="1.94009">
        <ele>178</ele>
        <time>2010-01-01T01:16:57Z</time>
      </trkpt>
      <trkpt lat="43.69" lon="1.93992">
        <ele>180</ele>
        <time>2010-01-01T01:17:04Z</time>
      </trkpt>
      <trkpt lat="43.68988" lon="1.93988">
        <ele>182</ele>
        <time>2010-01-01T01:17:06Z</time>
      </trkpt>
      <trkpt lat="43.68947" lon="1.93984">
        <ele>189</ele>
        <time>2010-01-01T01:17:12Z</time>
      </trkpt>
      <trkpt lat="43.68946" lon="1.93984">
        <ele>189</ele>
        <time>2010-01-01T01:17:12Z</time>
      </trkpt>
      <trkpt lat="43.68937" lon="1.93983">
        <ele>190</ele>
        <time>2010-01-01T01:17:14Z</time>
      </trkpt>
      <trkpt lat="43.68918" lon="1.93972">
        <ele>191</ele>
        <time>2010-01-01T01:17:17Z</time>
      </trkpt>
      <trkpt lat="43.6888" lon="1.93935">
        <ele>191</ele>
        <time>2010-01-01T01:17:24Z</time>
      </trkpt>
      <trkpt lat="43.68828" lon="1.93896">
        <ele>195</ele>
        <time>2010-01-01T01:17:34Z</time>
      </trkpt>
      <trkpt lat="43.68806" lon="1.93878">
        <ele>198</ele>
        <time>2010-01-01T01:17:38Z</time>
      </trkpt>
      <trkpt lat="43.68769" lon="1.93842">
        <ele>198</ele>
        <time>2010-01-01T01:17:45Z</time>
      </trkpt>
      <trkpt lat="43.68712" lon="1.93762">
        <ele>196</ele>
        <time>2010-01-01T01:17:58Z</time>
      </trkpt>
      <trkpt lat="43.68674" lon="1.93724">
        <ele>195</ele>
        <time>2010-01-01T01:18:06Z</time>
      </trkpt>
      <trkpt lat="43.68658" lon="1.93713">
        <ele>194</ele>
        <time>2010-01-01T01:18:09Z</time>
      </trkpt>
      <trkpt lat="43.68583" lon="1.93684">
        <ele>190</ele>
        <time>2010-01-01T01:18:21Z</time>
      </trkpt>
      <trkpt lat="43.68545" lon="1.93661">
        <ele>189</ele>
        <time>2010-01-01T01:18:28Z</time>
      </trkpt>
      <trkpt lat="43.6853" lon="1.9365">
        <ele>189</ele>
        <time>2010-01-01T01:18:30Z</time>
      </trkpt>
      <trkpt lat="43.68503" lon="1.93619">
        <ele>189</ele>
        <time>2010-01-01T01:18:36Z</time>
      </trkpt>
      <trkpt lat="43.6849" lon="1.93607">
        <ele>188</ele>
        <time>2010-01-01T01:18:39Z</time>
      </trkpt>
      <trkpt lat="43.68473" lon="1.936">
        <ele>188</ele>
        <time>2010-01-01T01:18:41Z</time>
      </trkpt>
      <trkpt lat="43.68438" lon="1.93591">
        <ele>183</ele>
        <time>2010-01-01T01:18:47Z</time>
      </trkpt>
      <trkpt lat="43.68426" lon="1.93583">
        <ele>182</ele>
        <time>2010-01-01T01:18:49Z</time>
      </trkpt>
      <trkpt lat="43.68423" lon="1.93579">
        <ele>181</ele>
        <time>2010-01-01T01:18:50Z</time>
      </trkpt>
      <trkpt lat="43.68423" lon="1.93578">
        <ele>181</ele>
        <time>2010-01-01T01:18:50Z</time>
      </trkpt>
      <trkpt lat="43.684" lon="1.93544">
        <ele>177</ele>
        <time>2010-01-01T01:18:55Z</time>
      </trkpt>
      <trkpt lat="43.68393" lon="1.93537">
        <ele>177</ele>
        <time>2010-01-01T01:18:57Z</time>
      </trkpt>
      <trkpt lat="43.68387" lon="1.93536">
        <ele>176</ele>
        <time>2010-01-01T01:18:58Z</time>
      </trkpt>
      <trkpt lat="43.6838" lon="1.9354">
        <ele>175</ele>
        <time>2010-01-01T01:18:59Z</time>
      </trkpt>
      <trkpt lat="43.68376" lon="1.93533">
        <ele>175</ele>
        <time>2010-01-01T01:19:00Z</time>
      </trkpt>
      <trkpt lat="43.68358" lon="1.93525">
        <ele>173</ele>
        <time>2010-01-01T01:19:03Z</time>
      </trkpt>
      <trkpt lat="43.68339" lon="1.93514">
        <ele>170</ele>
        <time>2010-01-01T01:19:06Z</time>
      </trkpt>
      <trkpt lat="43.68316" lon="1.93493">
        <ele>165</ele>
        <time>2010-01-01T01:19:11Z</time>
      </trkpt>
      <trkpt lat="43.68275" lon="1.93447">
        <ele>160</ele>
        <time>2010-01-01T01:19:19Z</time>
      </trkpt>
      <trkpt lat="43.68275" lon="1.93446">
        <ele>160</ele>
        <time>2010-01-01T01:19:19Z</time>
      </trkpt>
      <trkpt lat="43.68259" lon="1.93432">
        <ele>159</ele>
        <time>2010-01-01T01:19:22Z</time>
      </trkpt>
      <trkpt lat="43.68251" lon="1.93428">
        <ele>158</ele>
        <time>2010-01-01T01:19:24Z</time>
      </trkpt>
      <trkpt lat="43.68243" lon="1.93429">
        <ele>158</ele>
        <time>2010-01-01T01:19:25Z</time>
      </trkpt>
      <trkpt lat="43.68237" lon="1.93436">
        <ele>158</ele>
        <time>2010-01-01T01:19:26Z</time>
      </trkpt>
      <trkpt lat="43.68148" lon="1.93551">
        <ele>157</ele>
        <time>2010-01-01T01:19:46Z</time>
      </trkpt>
      <trkpt lat="43.68081" lon="1.93633">
        <ele>156</ele>
        <time>2010-01-01T01:20:00Z</time>
      </trkpt>
      <trkpt lat="43.6805" lon="1.93689">
        <ele>157</ele>
        <time>2010-01-01T01:20:08Z</time>
      </trkpt>
      <trkpt lat="43.68036" lon="1.93673">
        <ele>156</ele>
        <time>2010-01-01T01:20:11Z</time>
      </trkpt>
      <trkpt lat="43.68017" lon="1.93642">
        <ele>156</ele>
        <time>2010-01-01T01:20:16Z</time>
      </trkpt>
      <trkpt lat="43.68017" lon="1.93641">
        <ele>156</ele>
        <time>2010-01-01T01:20:16Z</time>
      </trkpt>
      <trkpt lat="43.68013" lon="1.93635">
        <ele>156</ele>
        <time>2010-01-01T01:20:17Z</time>
      </trkpt>
      <trkpt lat="43.68002" lon="1.93626">
        <ele>156</ele>
        <time>2010-01-01T01:20:19Z</time>
      </trkpt>
      <trkpt lat="43.67973" lon="1.93615">
        <ele>156</ele>
        <time>2010-01-01T01:20:24Z</time>
      </trkpt>
      <trkpt lat="43.67944" lon="1.93592">
        <ele>150</ele>
        <time>2010-01-01T01:20:29Z</time>
      </trkpt>
      <trkpt lat="43.67929" lon="1.93588">
        <ele>150</ele>
        <time>2010-01-01T01:20:32Z</time>
      </trkpt>
      <trkpt lat="43.67913" lon="1.93597">
        <ele>150</ele>
        <time>2010-01-01T01:20:34Z</time>
      </trkpt>
      <trkpt lat="43.67897" lon="1.93613">
        <ele>150</ele>
        <time>2010-01-01T01:20:38Z</time>
      </trkpt>
      <trkpt lat="43.6788" lon="1.93619">
        <ele>149</ele>
        <time>2010-01-01T01:20:40Z</time>
      </trkpt>
      <trkpt lat="43.67874" lon="1.93616">
        <ele>148</ele>
        <time>2010-01-01T01:20:41Z</time>
      </trkpt>
      <trkpt lat="43.67873" lon="1.93616">
        <ele>148</ele>
        <time>2010-01-01T01:20:42Z</time>
      </trkpt>
      <trkpt lat="43.67864" lon="1.93611">
        <ele>147</ele>
        <time>2010-01-01T01:20:43Z</time>
      </trkpt>
      <trkpt lat="43.67855" lon="1.93589">
        <ele>145</ele>
        <time>2010-01-01T01:20:46Z</time>
      </trkpt>
      <trkpt lat="43.6785" lon="1.93536">
        <ele>143</ele>
        <time>2010-01-01T01:20:52Z</time>
      </trkpt>
      <trkpt lat="43.67859" lon="1.93499">
        <ele>141</ele>
        <time>2010-01-01T01:20:57Z</time>
      </trkpt>
      <trkpt lat="43.67904" lon="1.93381">
        <ele>138</ele>
        <time>2010-01-01T01:21:12Z</time>
      </trkpt>
      <trkpt lat="43.67908" lon="1.93351">
        <ele>139</ele>
        <time>2010-01-01T01:21:16Z</time>
      </trkpt>
      <trkpt lat="43.67891" lon="1.93337">
        <ele>139</ele>
        <time>2010-01-01T01:21:19Z</time>
      </trkpt>
      <trkpt lat="43.6785" lon="1.93316">
        <ele>140</ele>
        <time>2010-01-01T01:21:26Z</time>
      </trkpt>
      <trkpt lat="43.67694" lon="1.93266">
        <ele>138</ele>
        <time>2010-01-01T01:21:52Z</time>
      </trkpt>
      <trkpt lat="43.67693" lon="1.93266">
        <ele>138</ele>
        <time>2010-01-01T01:21:52Z</time>
      </trkpt>
      <trkpt lat="43.67654" lon="1.93258">
        <ele>139</ele>
        <time>2010-01-01T01:21:58Z</time>
      </trkpt>
      <trkpt lat="43.67609" lon="1.93259">
        <ele>141</ele>
        <time>2010-01-01T01:22:05Z</time>
      </trkpt>
      <trkpt lat="43.67647" lon="1.93047">
        <ele>140</ele>
        <time>2010-01-01T01:22:30Z</time>
      </trkpt>
      <trkpt lat="43.6761" lon="1.92997">
        <ele>142</ele>
        <time>2010-01-01T01:22:39Z</time>
      </trkpt>
      <trkpt lat="43.67603" lon="1.92976">
        <ele>142</ele>
        <time>2010-01-01T01:22:41Z</time>
      </trkpt>
      <trkpt lat="43.67624" lon="1.92793">
        <ele>141</ele>
        <time>2010-01-01T01:23:03Z</time>
      </trkpt>
      <trkpt lat="43.67624" lon="1.92767">
        <ele>141</ele>
        <time>2010-01-01T01:23:06Z</time>
      </trkpt>
      <trkpt lat="43.6762" lon="1.92742">
        <ele>141</ele>
        <time>2010-01-01T01:23:09Z</time>
      </trkpt>
      <trkpt lat="43.67603" lon="1.92708">
        <ele>140</ele>
        <time>2010-01-01T01:23:14Z</time>
      </trkpt>
      <trkpt lat="43.67602" lon="1.92708">
        <ele>140</ele>
        <time>2010-01-01T01:23:14Z</time>
      </trkpt>
      <trkpt lat="43.67549" lon="1.92612">
        <ele>142</ele>
        <time>2010-01-01T01:23:28Z</time>
      </trkpt>
      <trkpt lat="43.6744" lon="1.92405">
        <ele>149</ele>
        <time>2010-01-01T01:23:57Z</time>
      </trkpt>
      <trkpt lat="43.67286" lon="1.92166">
        <ele>152</ele>
        <time>2010-01-01T01:24:35Z</time>
      </trkpt>
      <trkpt lat="43.67195" lon="1.92016">
        <ele>152</ele>
        <time>2010-01-01T01:24:57Z</time>
      </trkpt>
      <trkpt lat="43.67139" lon="1.91945">
        <ele>154</ele>
        <time>2010-01-01T01:25:09Z</time>
      </trkpt>
      <trkpt lat="43.67085" lon="1.91892">
        <ele>154</ele>
        <time>2010-01-01T01:25:20Z</time>
      </trkpt>
      <trkpt lat="43.67071" lon="1.91877">
        <ele>154</ele>
        <time>2010-01-01T01:25:23Z</time>
      </trkpt>
      <trkpt lat="43.67066" lon="1.9186">
        <ele>153</ele>
        <time>2010-01-01T01:25:25Z</time>
      </trkpt>
      <trkpt lat="43.67063" lon="1.91836">
        <ele>153</ele>
        <time>2010-01-01T01:25:28Z</time>
      </trkpt>
      <trkpt lat="43.67053" lon="1.91791">
        <ele>154</ele>
        <time>2010-01-01T01:25:33Z</time>
      </trkpt>
      <trkpt lat="43.67028" lon="1.91752">
        <ele>155</ele>
        <time>2010-01-01T01:25:39Z</time>
      </trkpt>
      <trkpt lat="43.66979" lon="1.91681">
        <ele>155</ele>
        <time>2010-01-01T01:25:51Z</time>
      </trkpt>
      <trkpt lat="43.66979" lon="1.9168">
        <ele>156</ele>
        <time>2010-01-01T01:25:51Z</time>
      </trkpt>
      <trkpt lat="43.6697" lon="1.91668">
        <ele>156</ele>
        <time>2010-01-01T01:25:53Z</time>
      </trkpt>
      <trkpt lat="43.66925" lon="1.91584">
        <ele>155</ele>
        <time>2010-01-01T01:26:05Z</time>
      </trkpt>
      <trkpt lat="43.6692" lon="1.91573">
        <ele>155</ele>
        <time>2010-01-01T01:26:06Z</time>
      </trkpt>
      <trkpt lat="43.66924" lon="1.91566">
        <ele>155</ele>
        <time>2010-01-01T01:26:07Z</time>
      </trkpt>
      <trkpt lat="43.66926" lon="1.91558">
        <ele>155</ele>
        <time>2010-01-01T01:26:08Z</time>
      </trkpt>
      <trkpt lat="43.66927" lon="1.9155">
        <ele>156</ele>
        <time>2010-01-01T01:26:09Z</time>
      </trkpt>
      <trkpt lat="43.66925" lon="1.91542">
        <ele>156</ele>
        <time>2010-01-01T01:26:10Z</time>
      </trkpt>
      <trkpt lat="43.66921" lon="1.91534">
        <ele>156</ele>
        <time>2010-01-01T01:26:11Z</time>
      </trkpt>
      <trkpt lat="43.66918" lon="1.9153">
        <ele>156</ele>
        <time>2010-01-01T01:26:12Z</time>
      </trkpt>
      <trkpt lat="43.66909" lon="1.91526">
        <ele>156</ele>
        <time>2010-01-01T01:26:14Z</time>
      </trkpt>
      <trkpt lat="43.66899" lon="1.91529">
        <ele>156</ele>
        <time>2010-01-01T01:26:15Z</time>
      </trkpt>
      <trkpt lat="43.66895" lon="1.91533">
        <ele>156</ele>
        <time>2010-01-01T01:26:16Z</time>
      </trkpt>
      <trkpt lat="43.66837" lon="1.91438">
        <ele>156</ele>
        <time>2010-01-01T01:26:30Z</time>
      </trkpt>
      <trkpt lat="43.66812" lon="1.91411">
        <ele>155</ele>
        <time>2010-01-01T01:26:35Z</time>
      </trkpt>
      <trkpt lat="43.66786" lon="1.9139">
        <ele>155</ele>
        <time>2010-01-01T01:26:40Z</time>
      </trkpt>
      <trkpt lat="43.66781" lon="1.91389">
        <ele>155</ele>
        <time>2010-01-01T01:26:41Z</time>
      </trkpt>
      <trkpt lat="43.6678" lon="1.91389">
        <ele>155</ele>
        <time>2010-01-01T01:26:41Z</time>
      </trkpt>
      <trkpt lat="43.66757" lon="1.91382">
        <ele>157</ele>
        <time>2010-01-01T01:26:45Z</time>
      </trkpt>
      <trkpt lat="43.666" lon="1.91362">
        <ele>162</ele>
        <time>2010-01-01T01:27:10Z</time>
      </trkpt>
      <trkpt lat="43.66541" lon="1.9134">
        <ele>163</ele>
        <time>2010-01-01T01:27:20Z</time>
      </trkpt>
      <trkpt lat="43.66384" lon="1.91259">
        <ele>156</ele>
        <time>2010-01-01T01:27:47Z</time>
      </trkpt>
      <trkpt lat="43.66305" lon="1.91206">
        <ele>156</ele>
        <time>2010-01-01T01:28:01Z</time>
      </trkpt>
      <trkpt lat="43.66284" lon="1.91182">
        <ele>155</ele>
        <time>2010-01-01T01:28:05Z</time>
      </trkpt>
      <trkpt lat="43.66264" lon="1.91135">
        <ele>154</ele>
        <time>2010-01-01T01:28:12Z</time>
      </trkpt>
      <trkpt lat="43.66224" lon="1.91085">
        <ele>155</ele>
        <time>2010-01-01T01:28:20Z</time>
      </trkpt>
      <trkpt lat="43.66211" lon="1.91074">
        <ele>155</ele>
        <time>2010-01-01T01:28:23Z</time>
      </trkpt>
      <trkpt lat="43.66113" lon="1.91035">
        <ele>156</ele>
        <time>2010-01-01T01:28:39Z</time>
      </trkpt>
      <trkpt lat="43.66019" lon="1.90976">
        <ele>156</ele>
        <time>2010-01-01T01:28:56Z</time>
      </trkpt>
      <trkpt lat="43.65973" lon="1.9094">
        <ele>159</ele>
        <time>2010-01-01T01:29:04Z</time>
      </trkpt>
      <trkpt lat="43.65954" lon="1.90931">
        <ele>160</ele>
        <time>2010-01-01T01:29:07Z</time>
      </trkpt>
      <trkpt lat="43.65918" lon="1.90926">
        <ele>163</ele>
        <time>2010-01-01T01:29:13Z</time>
      </trkpt>
      <trkpt lat="43.65786" lon="1.90918">
        <ele>165</ele>
        <time>2010-01-01T01:29:34Z</time>
      </trkpt>
      <trkpt lat="43.65718" lon="1.909">
        <ele>168</ele>
        <time>2010-01-01T01:29:45Z</time>
      </trkpt>
      <trkpt lat="43.65637" lon="1.90864">
        <ele>172</ele>
        <time>2010-01-01T01:29:59Z</time>
      </trkpt>
      <trkpt lat="43.65604" lon="1.9084">
        <ele>172</ele>
        <time>2010-01-01T01:30:05Z</time>
      </trkpt>
      <trkpt lat="43.65532" lon="1.90737">
        <ele>179</ele>
        <time>2010-01-01T01:30:21Z</time>
      </trkpt>
      <trkpt lat="43.65505" lon="1.90719">
        <ele>179</ele>
        <time>2010-01-01T01:30:26Z</time>
      </trkpt>
      <trkpt lat="43.6545" lon="1.90699">
        <ele>180</ele>
        <time>2010-01-01T01:30:35Z</time>
      </trkpt>
      <trkpt lat="43.65422" lon="1.90684">
        <ele>180</ele>
        <time>2010-01-01T01:30:40Z</time>
      </trkpt>
      <trkpt lat="43.65396" lon="1.90662">
        <ele>178</ele>
        <time>2010-01-01T01:30:45Z</time>
      </trkpt>
      <trkpt lat="43.65361" lon="1.90629">
        <ele>175</ele>
        <time>2010-01-01T01:30:52Z</time>
      </trkpt>
      <trkpt lat="43.65328" lon="1.9059">
        <ele>174</ele>
        <time>2010-01-01T01:30:59Z</time>
      </trkpt>
      <trkpt lat="43.6531" lon="1.90572">
        <ele>173</ele>
        <time>2010-01-01T01:31:02Z</time>
      </trkpt>
      <trkpt lat="43.65238" lon="1.90533">
        <ele>176</ele>
        <time>2010-01-01T01:31:15Z</time>
      </trkpt>
      <trkpt lat="43.65182" lon="1.90497">
        <ele>181</ele>
        <time>2010-01-01T01:31:25Z</time>
      </trkpt>
      <trkpt lat="43.65146" lon="1.90467">
        <ele>185</ele>
        <time>2010-01-01T01:31:31Z</time>
      </trkpt>
      <trkpt lat="43.65127" lon="1.90446">
        <ele>187</ele>
        <time>2010-01-01T01:31:35Z</time>
      </trkpt>
      <trkpt lat="43.65116" lon="1.90423">
        <ele>189</ele>
        <time>2010-01-01T01:31:38Z</time>
      </trkpt>
      <trkpt lat="43.65094" lon="1.90353">
        <ele>194</ele>
        <time>2010-01-01T01:31:47Z</time>
      </trkpt>
      <trkpt lat="43.65089" lon="1.90341">
        <ele>195</ele>
        <time>2010-01-01T01:31:49Z</time>
      </trkpt>
      <trkpt lat="43.65088" lon="1.90341">
        <ele>195</ele>
        <time>2010-01-01T01:31:49Z</time>
      </trkpt>
      <trkpt lat="43.6507" lon="1.90296">
        <ele>199</ele>
        <time>2010-01-01T01:31:55Z</time>
      </trkpt>
      <trkpt lat="43.65029" lon="1.90209">
        <ele>202</ele>
        <time>2010-01-01T01:32:07Z</time>
      </trkpt>
      <trkpt lat="43.65002" lon="1.9016">
        <ele>202</ele>
        <time>2010-01-01T01:32:14Z</time>
      </trkpt>
      <trkpt lat="43.64975" lon="1.90128">
        <ele>203</ele>
        <time>2010-01-01T01:32:20Z</time>
      </trkpt>
      <trkpt lat="43.64955" lon="1.90115">
        <ele>203</ele>
        <time>2010-01-01T01:32:23Z</time>
      </trkpt>
      <trkpt lat="43.64934" lon="1.90111">
        <ele>204</ele>
        <time>2010-01-01T01:32:27Z</time>
      </trkpt>
      <trkpt lat="43.64839" lon="1.90097">
        <ele>204</ele>
        <time>2010-01-01T01:32:42Z</time>
      </trkpt>
      <trkpt lat="43.64818" lon="1.9009">
        <ele>204</ele>
        <time>2010-01-01T01:32:46Z</time>
      </trkpt>
      <trkpt lat="43.64785" lon="1.90073">
        <ele>203</ele>
        <time>2010-01-01T01:32:51Z</time>
      </trkpt>
      <trkpt lat="43.64762" lon="1.90057">
        <ele>202</ele>
        <time>2010-01-01T01:32:55Z</time>
      </trkpt>
      <trkpt lat="43.64742" lon="1.90036">
        <ele>201</ele>
        <time>2010-01-01T01:32:59Z</time>
      </trkpt>
      <trkpt lat="43.64681" lon="1.89952">
        <ele>194</ele>
        <time>2010-01-01T01:33:13Z</time>
      </trkpt>
      <trkpt lat="43.64649" lon="1.89912">
        <ele>195</ele>
        <time>2010-01-01T01:33:20Z</time>
      </trkpt>
      <trkpt lat="43.64629" lon="1.89893">
        <ele>195</ele>
        <time>2010-01-01T01:33:24Z</time>
      </trkpt>
      <trkpt lat="43.64618" lon="1.89886">
        <ele>195</ele>
        <time>2010-01-01T01:33:26Z</time>
      </trkpt>
      <trkpt lat="43.64609" lon="1.89883">
        <ele>195</ele>
        <time>2010-01-01T01:33:27Z</time>
      </trkpt>
      <trkpt lat="43.64596" lon="1.89884">
        <ele>194</ele>
        <time>2010-01-01T01:33:29Z</time>
      </trkpt>
      <trkpt lat="43.64522" lon="1.89913">
        <ele>189</ele>
        <time>2010-01-01T01:33:42Z</time>
      </trkpt>
      <trkpt lat="43.64495" lon="1.89913">
        <ele>187</ele>
        <time>2010-01-01T01:33:46Z</time>
      </trkpt>
      <trkpt lat="43.64464" lon="1.89897">
        <ele>184</ele>
        <time>2010-01-01T01:33:51Z</time>
      </trkpt>
      <trkpt lat="43.64312" lon="1.89797">
        <ele>182</ele>
        <time>2010-01-01T01:34:18Z</time>
      </trkpt>
      <trkpt lat="43.6427" lon="1.89752">
        <ele>182</ele>
        <time>2010-01-01T01:34:27Z</time>
      </trkpt>
      <trkpt lat="43.6423" lon="1.89681">
        <ele>182</ele>
        <time>2010-01-01T01:34:37Z</time>
      </trkpt>
      <trkpt lat="43.64199" lon="1.89644">
        <ele>181</ele>
        <time>2010-01-01T01:34:44Z</time>
      </trkpt>
      <trkpt lat="43.64199" lon="1.89643">
        <ele>181</ele>
        <time>2010-01-01T01:34:44Z</time>
      </trkpt>
      <trkpt lat="43.64187" lon="1.89628">
        <ele>181</ele>
        <time>2010-01-01T01:34:47Z</time>
      </trkpt>
      <trkpt lat="43.64174" lon="1.8964">
        <ele>179</ele>
        <time>2010-01-01T01:34:49Z</time>
      </trkpt>
      <trkpt lat="43.64121" lon="1.89703">
        <ele>178</ele>
        <time>2010-01-01T01:35:00Z</time>
      </trkpt>
      <trkpt lat="43.64111" lon="1.89721">
        <ele>178</ele>
        <time>2010-01-01T01:35:03Z</time>
      </trkpt>
      <trkpt lat="43.64106" lon="1.89741">
        <ele>179</ele>
        <time>2010-01-01T01:35:05Z</time>
      </trkpt>
      <trkpt lat="43.64101" lon="1.89819">
        <ele>177</ele>
        <time>2010-01-01T01:35:14Z</time>
      </trkpt>
      <trkpt lat="43.64095" lon="1.89842">
        <ele>177</ele>
        <time>2010-01-01T01:35:17Z</time>
      </trkpt>
      <trkpt lat="43.64084" lon="1.89861">
        <ele>178</ele>
        <time>2010-01-01T01:35:20Z</time>
      </trkpt>
      <trkpt lat="43.6405" lon="1.89909">
        <ele>186</ele>
        <time>2010-01-01T01:35:28Z</time>
      </trkpt>
      <trkpt lat="43.64007" lon="1.89969">
        <ele>191</ele>
        <time>2010-01-01T01:35:38Z</time>
      </trkpt>
      <trkpt lat="43.63998" lon="1.89989">
        <ele>192</ele>
        <time>2010-01-01T01:35:40Z</time>
      </trkpt>
      <trkpt lat="43.63991" lon="1.90011">
        <ele>193</ele>
        <time>2010-01-01T01:35:43Z</time>
      </trkpt>
      <trkpt lat="43.63964" lon="1.90125">
        <ele>195</ele>
        <time>2010-01-01T01:35:57Z</time>
      </trkpt>
      <trkpt lat="43.63955" lon="1.9015">
        <ele>195</ele>
        <time>2010-01-01T01:36:00Z</time>
      </trkpt>
      <trkpt lat="43.6394" lon="1.90173">
        <ele>196</ele>
        <time>2010-01-01T01:36:04Z</time>
      </trkpt>
      <trkpt lat="43.6392" lon="1.90192">
        <ele>196</ele>
        <time>2010-01-01T01:36:08Z</time>
      </trkpt>
      <trkpt lat="43.63863" lon="1.90239">
        <ele>196</ele>
        <time>2010-01-01T01:36:18Z</time>
      </trkpt>
      <trkpt lat="43.63855" lon="1.90242">
        <ele>197</ele>
        <time>2010-01-01T01:36:20Z</time>
      </trkpt>
      <trkpt lat="43.63827" lon="1.90242">
        <ele>199</ele>
        <time>2010-01-01T01:36:24Z</time>
      </trkpt>
      <trkpt lat="43.63812" lon="1.90236">
        <ele>200</ele>
        <time>2010-01-01T01:36:27Z</time>
      </trkpt>
      <trkpt lat="43.63799" lon="1.90223">
        <ele>201</ele>
        <time>2010-01-01T01:36:29Z</time>
      </trkpt>
      <trkpt lat="43.63779" lon="1.90196">
        <ele>202</ele>
        <time>2010-01-01T01:36:34Z</time>
      </trkpt>
      <trkpt lat="43.63764" lon="1.90181">
        <ele>203</ele>
        <time>2010-01-01T01:36:37Z</time>
      </trkpt>
      <trkpt lat="43.63746" lon="1.90168">
        <ele>206</ele>
        <time>2010-01-01T01:36:40Z</time>
      </trkpt>
      <trkpt lat="43.63719" lon="1.90154">
        <ele>208</ele>
        <time>2010-01-01T01:36:45Z</time>
      </trkpt>
      <trkpt lat="43.63667" lon="1.90136">
        <ele>209</ele>
        <time>2010-01-01T01:36:53Z</time>
      </trkpt>
      <trkpt lat="43.63666" lon="1.90136">
        <ele>210</ele>
        <time>2010-01-01T01:36:53Z</time>
      </trkpt>
      <trkpt lat="43.63592" lon="1.90106">
        <ele>218</ele>
        <time>2010-01-01T01:37:06Z</time>
      </trkpt>
      <trkpt lat="43.63538" lon="1.90089">
        <ele>221</ele>
        <time>2010-01-01T01:37:15Z</time>
      </trkpt>
      <trkpt lat="43.63486" lon="1.90066">
        <ele>223</ele>
        <time>2010-01-01T01:37:23Z</time>
      </trkpt>
      <trkpt lat="43.63464" lon="1.90052">
        <ele>224</ele>
        <time>2010-01-01T01:37:27Z</time>
      </trkpt>
      <trkpt lat="43.63439" lon="1.90041">
        <ele>224</ele>
        <time>2010-01-01T01:37:31Z</time>
      </trkpt>
      <trkpt lat="43.63409" lon="1.90023">
        <ele>225</ele>
        <time>2010-01-01T01:37:37Z</time>
      </trkpt>
      <trkpt lat="43.63334" lon="1.9">
        <ele>230</ele>
        <time>2010-01-01T01:37:49Z</time>
      </trkpt>
      <trkpt lat="43.63323" lon="1.89984">
        <ele>232</ele>
        <time>2010-01-01T01:37:51Z</time>
      </trkpt>
      <trkpt lat="43.63317" lon="1.89964">
        <ele>234</ele>
        <time>2010-01-01T01:37:54Z</time>
      </trkpt>
      <trkpt lat="43.63311" lon="1.89959">
        <ele>234</ele>
        <time>2010-01-01T01:37:55Z</time>
      </trkpt>
      <trkpt lat="43.63183" lon="1.89945">
        <ele>244</ele>
        <time>2010-01-01T01:38:16Z</time>
      </trkpt>
      <trkpt lat="43.6317" lon="1.89947">
        <ele>244</ele>
        <time>2010-01-01T01:38:18Z</time>
      </trkpt>
      <trkpt lat="43.63005" lon="1.90035">
        <ele>251</ele>
        <time>2010-01-01T01:38:46Z</time>
      </trkpt>
      <trkpt lat="43.62936" lon="1.90089">
        <ele>256</ele>
        <time>2010-01-01T01:38:59Z</time>
      </trkpt>
      <trkpt lat="43.62916" lon="1.90101">
        <ele>258</ele>
        <time>2010-01-01T01:39:02Z</time>
      </trkpt>
      <trkpt lat="43.62897" lon="1.9011">
        <ele>260</ele>
        <time>2010-01-01T01:39:05Z</time>
      </trkpt>
      <trkpt lat="43.62801" lon="1.90139">
        <ele>260</ele>
        <time>2010-01-01T01:39:21Z</time>
      </trkpt>
      <trkpt lat="43.62782" lon="1.90141">
        <ele>262</ele>
        <time>2010-01-01T01:39:24Z</time>
      </trkpt>
      <trkpt lat="43.62764" lon="1.90139">
        <ele>264</ele>
        <time>2010-01-01T01:39:27Z</time>
      </trkpt>
      <trkpt lat="43.62726" lon="1.90129">
        <ele>265</ele>
        <time>2010-01-01T01:39:33Z</time>
      </trkpt>
      <trkpt lat="43.62715" lon="1.9013">
        <ele>265</ele>
        <time>2010-01-01T01:39:35Z</time>
      </trkpt>
      <trkpt lat="43.62703" lon="1.90137">
        <ele>265</ele>
        <time>2010-01-01T01:39:37Z</time>
      </trkpt>
      <trkpt lat="43.62636" lon="1.90212">
        <ele>271</ele>
        <time>2010-01-01T01:39:51Z</time>
      </trkpt>
      <trkpt lat="43.62615" lon="1.90228">
        <ele>274</ele>
        <time>2010-01-01T01:39:55Z</time>
      </trkpt>
      <trkpt lat="43.62517" lon="1.90292">
        <ele>271</ele>
        <time>2010-01-01T01:40:12Z</time>
      </trkpt>
      <trkpt lat="43.62476" lon="1.9031">
        <ele>274</ele>
        <time>2010-01-01T01:40:19Z</time>
      </trkpt>
      <trkpt lat="43.62417" lon="1.90328">
        <ele>275</ele>
        <time>2010-01-01T01:40:29Z</time>
      </trkpt>
      <trkpt lat="43.62337" lon="1.90362">
        <ele>276</ele>
        <time>2010-01-01T01:40:42Z</time>
      </trkpt>
      <trkpt lat="43.62322" lon="1.90368">
        <ele>275</ele>
        <time>2010-01-01T01:40:45Z</time>
      </trkpt>
      <trkpt lat="43.62313" lon="1.90376">
        <ele>275</ele>
        <time>2010-01-01T01:40:46Z</time>
      </trkpt>
      <trkpt lat="43.62305" lon="1.90389">
        <ele>274</ele>
        <time>2010-01-01T01:40:48Z</time>
      </trkpt>
      <trkpt lat="43.62278" lon="1.90458">
        <ele>270</ele>
        <time>2010-01-01T01:40:57Z</time>
      </trkpt>
      <trkpt lat="43.62247" lon="1.90441">
        <ele>271</ele>
        <time>2010-01-01T01:41:03Z</time>
      </trkpt>
      <trkpt lat="43.62226" lon="1.90418">
        <ele>273</ele>
        <time>2010-01-01T01:41:07Z</time>
      </trkpt>
      <trkpt lat="43.62216" lon="1.90395">
        <ele>275</ele>
        <time>2010-01-01T01:41:10Z</time>
      </trkpt>
      <trkpt lat="43.62211" lon="1.90377">
        <ele>276</ele>
        <time>2010-01-01T01:41:12Z</time>
      </trkpt>
      <trkpt lat="43.62209" lon="1.90345">
        <ele>277</ele>
        <time>2010-01-01T01:41:16Z</time>
      </trkpt>
      <trkpt lat="43.62217" lon="1.90259">
        <ele>278</ele>
        <time>2010-01-01T01:41:26Z</time>
      </trkpt>
      <trkpt lat="43.62227" lon="1.90162">
        <ele>278</ele>
        <time>2010-01-01T01:41:38Z</time>
      </trkpt>
      <trkpt lat="43.62232" lon="1.90131">
        <ele>280</ele>
        <time>2010-01-01T01:41:41Z</time>
      </trkpt>
      <trkpt lat="43.62239" lon="1.90113">
        <ele>281</ele>
        <time>2010-01-01T01:41:44Z</time>
      </trkpt>
      <trkpt lat="43.62257" lon="1.90091">
        <ele>282</ele>
        <time>2010-01-01T01:41:47Z</time>
      </trkpt>
      <trkpt lat="43.62295" lon="1.90059">
        <ele>281</ele>
        <time>2010-01-01T01:41:55Z</time>
      </trkpt>
      <trkpt lat="43.62334" lon="1.90004">
        <ele>286</ele>
        <time>2010-01-01T01:42:03Z</time>
      </trkpt>
      <trkpt lat="43.62352" lon="1.89984">
        <ele>286</ele>
        <time>2010-01-01T01:42:07Z</time>
      </trkpt>
      <trkpt lat="43.62376" lon="1.89935">
        <ele>285</ele>
        <time>2010-01-01T01:42:14Z</time>
      </trkpt>
      <trkpt lat="43.62379" lon="1.8992">
        <ele>285</ele>
        <time>2010-01-01T01:42:16Z</time>
      </trkpt>
      <trkpt lat="43.62379" lon="1.89898">
        <ele>284</ele>
        <time>2010-01-01T01:42:18Z</time>
      </trkpt>
      <trkpt lat="43.62364" lon="1.89834">
        <ele>285</ele>
        <time>2010-01-01T01:42:26Z</time>
      </trkpt>
      <trkpt lat="43.62365" lon="1.89777">
        <ele>289</ele>
        <time>2010-01-01T01:42:33Z</time>
      </trkpt>
      <trkpt lat="43.62371" lon="1.89702">
        <ele>286</ele>
        <time>2010-01-01T01:42:42Z</time>
      </trkpt>
      <trkpt lat="43.62368" lon="1.89651">
        <ele>286</ele>
        <time>2010-01-01T01:42:47Z</time>
      </trkpt>
      <trkpt lat="43.62331" lon="1.89366">
        <ele>292</ele>
        <time>2010-01-01T01:43:21Z</time>
      </trkpt>
      <trkpt lat="43.62332" lon="1.89327">
        <ele>294</ele>
        <time>2010-01-01T01:43:26Z</time>
      </trkpt>
      <trkpt lat="43.62359" lon="1.89201">
        <ele>294</ele>
        <time>2010-01-01T01:43:41Z</time>
      </trkpt>
      <trkpt lat="43.6237" lon="1.89138">
        <ele>292</ele>
        <time>2010-01-01T01:43:48Z</time>
      </trkpt>
      <trkpt lat="43.62382" lon="1.89098">
        <ele>291</ele>
        <time>2010-01-01T01:43:53Z</time>
      </trkpt>
      <trkpt lat="43.62398" lon="1.8907">
        <ele>289</ele>
        <time>2010-01-01T01:43:57Z</time>
      </trkpt>
      <trkpt lat="43.62421" lon="1.89042">
        <ele>286</ele>
        <time>2010-01-01T01:44:02Z</time>
      </trkpt>
      <trkpt lat="43.62437" lon="1.89009">
        <ele>286</ele>
        <time>2010-01-01T01:44:07Z</time>
      </trkpt>
      <trkpt lat="43.62452" lon="1.8893">
        <ele>284</ele>
        <time>2010-01-01T01:44:16Z</time>
      </trkpt>
      <trkpt lat="43.62468" lon="1.88893">
        <ele>283</ele>
        <time>2010-01-01T01:44:21Z</time>
      </trkpt>
      <trkpt lat="43.62481" lon="1.88869">
        <ele>281</ele>
        <time>2010-01-01T01:44:25Z</time>
      </trkpt>
      <trkpt lat="43.6251" lon="1.88835">
        <ele>279</ele>
        <time>2010-01-01T01:44:31Z</time>
      </trkpt>
      <trkpt lat="43.62635" lon="1.88705">
        <ele>275</ele>
        <time>2010-01-01T01:44:56Z</time>
      </trkpt>
      <trkpt lat="43.62705" lon="1.8863">
        <ele>276</ele>
        <time>2010-01-01T01:45:10Z</time>
      </trkpt>
      <trkpt lat="43.62735" lon="1.88607">
        <ele>275</ele>
        <time>2010-01-01T01:45:16Z</time>
      </trkpt>
      <trkpt lat="43.62752" lon="1.88599">
        <ele>274</ele>
        <time>2010-01-01T01:45:19Z</time>
      </trkpt>
      <trkpt lat="43.62763" lon="1.88582">
        <ele>275</ele>
        <time>2010-01-01T01:45:21Z</time>
      </trkpt>
      <trkpt lat="43.62792" lon="1.88559">
        <ele>274</ele>
        <time>2010-01-01T01:45:27Z</time>
      </trkpt>
      <trkpt lat="43.62819" lon="1.88532">
        <ele>273</ele>
        <time>2010-01-01T01:45:32Z</time>
      </trkpt>
      <trkpt lat="43.62846" lon="1.88488">
        <ele>275</ele>
        <time>2010-01-01T01:45:39Z</time>
      </trkpt>
      <trkpt lat="43.62857" lon="1.88449">
        <ele>274</ele>
        <time>2010-01-01T01:45:43Z</time>
      </trkpt>
      <trkpt lat="43.62872" lon="1.88252">
        <ele>270</ele>
        <time>2010-01-01T01:46:06Z</time>
      </trkpt>
      <trkpt lat="43.62869" lon="1.88209">
        <ele>269</ele>
        <time>2010-01-01T01:46:11Z</time>
      </trkpt>
      <trkpt lat="43.62867" lon="1.8819">
        <ele>269</ele>
        <time>2010-01-01T01:46:14Z</time>
      </trkpt>
      <trkpt lat="43.62852" lon="1.88155">
        <ele>269</ele>
        <time>2010-01-01T01:46:18Z</time>
      </trkpt>
      <trkpt lat="43.62801" lon="1.88091">
        <ele>270</ele>
        <time>2010-01-01T01:46:29Z</time>
      </trkpt>
      <trkpt lat="43.62792" lon="1.88058">
        <ele>272</ele>
        <time>2010-01-01T01:46:34Z</time>
      </trkpt>
      <trkpt lat="43.62795" lon="1.88026">
        <ele>275</ele>
        <time>2010-01-01T01:46:37Z</time>
      </trkpt>
      <trkpt lat="43.62828" lon="1.87928">
        <ele>279</ele>
        <time>2010-01-01T01:46:50Z</time>
      </trkpt>
      <trkpt lat="43.62865" lon="1.87838">
        <ele>280</ele>
        <time>2010-01-01T01:47:02Z</time>
      </trkpt>
      <trkpt lat="43.62962" lon="1.87608">
        <ele>286</ele>
        <time>2010-01-01T01:47:33Z</time>
      </trkpt>
      <trkpt lat="43.62991" lon="1.87577">
        <ele>288</ele>
        <time>2010-01-01T01:47:38Z</time>
      </trkpt>
      <trkpt lat="43.63041" lon="1.87527">
        <ele>289</ele>
        <time>2010-01-01T01:47:48Z</time>
      </trkpt>
      <trkpt lat="43.63067" lon="1.87491">
        <ele>291</ele>
        <time>2010-01-01T01:47:54Z</time>
      </trkpt>
      <trkpt lat="43.63139" lon="1.87373">
        <ele>288</ele>
        <time>2010-01-01T01:48:12Z</time>
      </trkpt>
      <trkpt lat="43.632" lon="1.8728">
        <ele>282</ele>
        <time>2010-01-01T01:48:27Z</time>
      </trkpt>
      <trkpt lat="43.63231" lon="1.87227">
        <ele>279</ele>
        <time>2010-01-01T01:48:35Z</time>
      </trkpt>
      <trkpt lat="43.63241" lon="1.87205">
        <ele>278</ele>
        <time>2010-01-01T01:48:38Z</time>
      </trkpt>
      <trkpt lat="43.63249" lon="1.87171">
        <ele>278</ele>
        <time>2010-01-01T01:48:42Z</time>
      </trkpt>
      <trkpt lat="43.63261" lon="1.87049">
        <ele>278</ele>
        <time>2010-01-01T01:48:56Z</time>
      </trkpt>
      <trkpt lat="43.63275" lon="1.86871">
        <ele>282</ele>
        <time>2010-01-01T01:49:17Z</time>
      </trkpt>
      <trkpt lat="43.63281" lon="1.86822">
        <ele>285</ele>
        <time>2010-01-01T01:49:23Z</time>
      </trkpt>
      <trkpt lat="43.63289" lon="1.8678">
        <ele>286</ele>
        <time>2010-01-01T01:49:28Z</time>
      </trkpt>
      <trkpt lat="43.63306" lon="1.86723">
        <ele>289</ele>
        <time>2010-01-01T01:49:35Z</time>
      </trkpt>
      <trkpt lat="43.63319" lon="1.86683">
        <ele>291</ele>
        <time>2010-01-01T01:49:40Z</time>
      </trkpt>
      <trkpt lat="43.63338" lon="1.86645">
        <ele>294</ele>
        <time>2010-01-01T01:49:45Z</time>
      </trkpt>
      <trkpt lat="43.63364" lon="1.866">
        <ele>298</ele>
        <time>2010-01-01T01:49:52Z</time>
      </trkpt>
      <trkpt lat="43.63403" lon="1.8656">
        <ele>295</ele>
        <time>2010-01-01T01:50:00Z</time>
      </trkpt>
      <trkpt lat="43.63452" lon="1.86398">
        <ele>285</ele>
        <time>2010-01-01T01:50:20Z</time>
      </trkpt>
      <trkpt lat="43.63458" lon="1.86366">
        <ele>282</ele>
        <time>2010-01-01T01:50:24Z</time>
      </trkpt>
      <trkpt lat="43.63459" lon="1.86339">
        <ele>281</ele>
        <time>2010-01-01T01:50:27Z</time>
      </trkpt>
      <trkpt lat="43.63452" lon="1.86272">
        <ele>279</ele>
        <time>2010-01-01T01:50:35Z</time>
      </trkpt>
      <trkpt lat="43.63426" lon="1.86105">
        <ele>282</ele>
        <time>2010-01-01T01:50:55Z</time>
      </trkpt>
      <trkpt lat="43.63428" lon="1.86041">
        <ele>280</ele>
        <time>2010-01-01T01:51:02Z</time>
      </trkpt>
      <trkpt lat="43.63489" lon="1.85691">
        <ele>292</ele>
        <time>2010-01-01T01:51:44Z</time>
      </trkpt>
      <trkpt lat="43.6349" lon="1.85665">
        <ele>292</ele>
        <time>2010-01-01T01:51:47Z</time>
      </trkpt>
      <trkpt lat="43.63479" lon="1.85494">
        <ele>289</ele>
        <time>2010-01-01T01:52:07Z</time>
      </trkpt>
      <trkpt lat="43.63479" lon="1.85471">
        <ele>289</ele>
        <time>2010-01-01T01:52:09Z</time>
      </trkpt>
      <trkpt lat="43.63479" lon="1.85439">
        <ele>291</ele>
        <time>2010-01-01T01:52:13Z</time>
      </trkpt>
      <trkpt lat="43.63494" lon="1.85249">
        <ele>285</ele>
        <time>2010-01-01T01:52:35Z</time>
      </trkpt>
      <trkpt lat="43.63516" lon="1.85081">
        <ele>280</ele>
        <time>2010-01-01T01:52:55Z</time>
      </trkpt>
      <trkpt lat="43.63528" lon="1.85021">
        <ele>278</ele>
        <time>2010-01-01T01:53:02Z</time>
      </trkpt>
      <trkpt lat="43.63527" lon="1.84985">
        <ele>278</ele>
        <time>2010-01-01T01:53:06Z</time>
      </trkpt>
      <trkpt lat="43.6352" lon="1.84938">
        <ele>276</ele>
        <time>2010-01-01T01:53:12Z</time>
      </trkpt>
      <trkpt lat="43.63501" lon="1.84846">
        <ele>276</ele>
        <time>2010-01-01T01:53:23Z</time>
      </trkpt>
      <trkpt lat="43.63502" lon="1.8481">
        <ele>277</ele>
        <time>2010-01-01T01:53:27Z</time>
      </trkpt>
      <trkpt lat="43.63569" lon="1.84634">
        <ele>284</ele>
        <time>2010-01-01T01:53:50Z</time>
      </trkpt>
      <trkpt lat="43.63616" lon="1.84518">
        <ele>287</ele>
        <time>2010-01-01T01:54:06Z</time>
      </trkpt>
      <trkpt lat="43.63656" lon="1.8446">
        <ele>288</ele>
        <time>2010-01-01T01:54:15Z</time>
      </trkpt>
      <trkpt lat="43.63761" lon="1.84313">
        <ele>279</ele>
        <time>2010-01-01T01:54:39Z</time>
      </trkpt>
      <trkpt lat="43.63819" lon="1.84228">
        <ele>282</ele>
        <time>2010-01-01T01:54:52Z</time>
      </trkpt>
      <trkpt lat="43.63864" lon="1.84184">
        <ele>280</ele>
        <time>2010-01-01T01:55:01Z</time>
      </trkpt>
      <trkpt lat="43.63915" lon="1.84137">
        <ele>281</ele>
        <time>2010-01-01T01:55:11Z</time>
      </trkpt>
      <trkpt lat="43.63945" lon="1.84095">
        <ele>284</ele>
        <time>2010-01-01T01:55:18Z</time>
      </trkpt>
      <trkpt lat="43.63965" lon="1.84049">
        <ele>283</ele>
        <time>2010-01-01T01:55:24Z</time>
      </trkpt>
      <trkpt lat="43.64001" lon="1.83958">
        <ele>284</ele>
        <time>2010-01-01T01:55:36Z</time>
      </trkpt>
      <trkpt lat="43.64029" lon="1.83852">
        <ele>285</ele>
        <time>2010-01-01T01:55:49Z</time>
      </trkpt>
      <trkpt lat="43.64047" lon="1.83753">
        <ele>287</ele>
        <time>2010-01-01T01:56:01Z</time>
      </trkpt>
      <trkpt lat="43.64062" lon="1.83559">
        <ele>278</ele>
        <time>2010-01-01T01:56:24Z</time>
      </trkpt>
      <trkpt lat="43.64067" lon="1.83501">
        <ele>273</ele>
        <time>2010-01-01T01:56:30Z</time>
      </trkpt>
      <trkpt lat="43.64073" lon="1.83451">
        <ele>272</ele>
        <time>2010-01-01T01:56:36Z</time>
      </trkpt>
      <trkpt lat="43.64086" lon="1.83371">
        <ele>276</ele>
        <time>2010-01-01T01:56:46Z</time>
      </trkpt>
      <trkpt lat="43.64105" lon="1.83326">
        <ele>279</ele>
        <time>2010-01-01T01:56:52Z</time>
      </trkpt>
      <trkpt lat="43.64125" lon="1.83296">
        <ele>282</ele>
        <time>2010-01-01T01:56:56Z</time>
      </trkpt>
      <trkpt lat="43.64181" lon="1.83247">
        <ele>287</ele>
        <time>2010-01-01T01:57:07Z</time>
      </trkpt>
      <trkpt lat="43.64191" lon="1.83219">
        <ele>288</ele>
        <time>2010-01-01T01:57:11Z</time>
      </trkpt>
      <trkpt lat="43.642" lon="1.83184">
        <ele>288</ele>
        <time>2010-01-01T01:57:15Z</time>
      </trkpt>
      <trkpt lat="43.64205" lon="1.83141">
        <ele>286</ele>
        <time>2010-01-01T01:57:20Z</time>
      </trkpt>
      <trkpt lat="43.64207" lon="1.83085">
        <ele>288</ele>
        <time>2010-01-01T01:57:27Z</time>
      </trkpt>
      <trkpt lat="43.64211" lon="1.83029">
        <ele>287</ele>
        <time>2010-01-01T01:57:33Z</time>
      </trkpt>
      <trkpt lat="43.6421" lon="1.82995">
        <ele>286</ele>
        <time>2010-01-01T01:57:37Z</time>
      </trkpt>
      <trkpt lat="43.64172" lon="1.82913">
        <ele>287</ele>
        <time>2010-01-01T01:57:48Z</time>
      </trkpt>
      <trkpt lat="43.64126" lon="1.82856">
        <ele>283</ele>
        <time>2010-01-01T01:57:58Z</time>
      </trkpt>
      <trkpt lat="43.64126" lon="1.82855">
        <ele>283</ele>
        <time>2010-01-01T01:57:58Z</time>
      </trkpt>
      <trkpt lat="43.64091" lon="1.82813">
        <ele>285</ele>
        <time>2010-01-01T01:58:06Z</time>
      </trkpt>
      <trkpt lat="43.64066" lon="1.82765">
        <ele>284</ele>
        <time>2010-01-01T01:58:13Z</time>
      </trkpt>
      <trkpt lat="43.64076" lon="1.82751">
        <ele>284</ele>
        <time>2010-01-01T01:58:15Z</time>
      </trkpt>
      <trkpt lat="43.64097" lon="1.82701">
        <ele>285</ele>
        <time>2010-01-01T01:58:22Z</time>
      </trkpt>
      <trkpt lat="43.64096" lon="1.82688">
        <ele>284</ele>
        <time>2010-01-01T01:58:23Z</time>
      </trkpt>
      <trkpt lat="43.64109" lon="1.82602">
        <ele>281</ele>
        <time>2010-01-01T01:58:33Z</time>
      </trkpt>
      <trkpt lat="43.64106" lon="1.82562">
        <ele>279</ele>
        <time>2010-01-01T01:58:38Z</time>
      </trkpt>
      <trkpt lat="43.64077" lon="1.8241">
        <ele>272</ele>
        <time>2010-01-01T01:58:56Z</time>
      </trkpt>
      <trkpt lat="43.64067" lon="1.82296">
        <ele>272</ele>
        <time>2010-01-01T01:59:09Z</time>
      </trkpt>
      <trkpt lat="43.64085" lon="1.82263">
        <ele>271</ele>
        <time>2010-01-01T01:59:14Z</time>
      </trkpt>
      <trkpt lat="43.6414" lon="1.82169">
        <ele>262</ele>
        <time>2010-01-01T01:59:28Z</time>
      </trkpt>
      <trkpt lat="43.64167" lon="1.82131">
        <ele>261</ele>
        <time>2010-01-01T01:59:34Z</time>
      </trkpt>
      <trkpt lat="43.64189" lon="1.82099">
        <ele>261</ele>
        <time>2010-01-01T01:59:40Z</time>
      </trkpt>
      <trkpt lat="43.64297" lon="1.81922">
        <ele>261</ele>
        <time>2010-01-01T02:00:06Z</time>
      </trkpt>
      <trkpt lat="43.64321" lon="1.81873">
        <ele>259</ele>
        <time>2010-01-01T02:00:13Z</time>
      </trkpt>
      <trkpt lat="43.64359" lon="1.81802">
        <ele>257</ele>
        <time>2010-01-01T02:00:23Z</time>
      </trkpt>
      <trkpt lat="43.64392" lon="1.81733">
        <ele>257</ele>
        <time>2010-01-01T02:00:33Z</time>
      </trkpt>
      <trkpt lat="43.64441" lon="1.81642">
        <ele>252</ele>
        <time>2010-01-01T02:00:46Z</time>
      </trkpt>
      <trkpt lat="43.64482" lon="1.81585">
        <ele>254</ele>
        <time>2010-01-01T02:00:55Z</time>
      </trkpt>
      <trkpt lat="43.64573" lon="1.81469">
        <ele>251</ele>
        <time>2010-01-01T02:01:15Z</time>
      </trkpt>
      <trkpt lat="43.64596" lon="1.81468">
        <ele>251</ele>
        <time>2010-01-01T02:01:19Z</time>
      </trkpt>
      <trkpt lat="43.64615" lon="1.81483">
        <ele>249</ele>
        <time>2010-01-01T02:01:22Z</time>
      </trkpt>
      <trkpt lat="43.64638" lon="1.81514">
        <ele>247</ele>
        <time>2010-01-01T02:01:28Z</time>
      </trkpt>
      <trkpt lat="43.64674" lon="1.81568">
        <ele>244</ele>
        <time>2010-01-01T02:01:36Z</time>
      </trkpt>
      <trkpt lat="43.64699" lon="1.81582">
        <ele>242</ele>
        <time>2010-01-01T02:01:40Z</time>
      </trkpt>
      <trkpt lat="43.64715" lon="1.81573">
        <ele>243</ele>
        <time>2010-01-01T02:01:43Z</time>
      </trkpt>
      <trkpt lat="43.64749" lon="1.81523">
        <ele>245</ele>
        <time>2010-01-01T02:01:51Z</time>
      </trkpt>
      <trkpt lat="43.6479" lon="1.81469">
        <ele>246</ele>
        <time>2010-01-01T02:02:00Z</time>
      </trkpt>
      <trkpt lat="43.64824" lon="1.81431">
        <ele>248</ele>
        <time>2010-01-01T02:02:07Z</time>
      </trkpt>
      <trkpt lat="43.64842" lon="1.81393">
        <ele>248</ele>
        <time>2010-01-01T02:02:12Z</time>
      </trkpt>
      <trkpt lat="43.64858" lon="1.81344">
        <ele>248</ele>
        <time>2010-01-01T02:02:19Z</time>
      </trkpt>
      <trkpt lat="43.64796" lon="1.81078">
        <ele>251</ele>
        <time>2010-01-01T02:02:51Z</time>
      </trkpt>
      <trkpt lat="43.64791" lon="1.81016">
        <ele>251</ele>
        <time>2010-01-01T02:02:58Z</time>
      </trkpt>
      <trkpt lat="43.64793" lon="1.80984">
        <ele>251</ele>
        <time>2010-01-01T02:03:02Z</time>
      </trkpt>
      <trkpt lat="43.64848" lon="1.80789">
        <ele>255</ele>
        <time>2010-01-01T02:03:26Z</time>
      </trkpt>
      <trkpt lat="43.64905" lon="1.80642">
        <ele>261</ele>
        <time>2010-01-01T02:03:46Z</time>
      </trkpt>
      <trkpt lat="43.64909" lon="1.8061">
        <ele>264</ele>
        <time>2010-01-01T02:03:49Z</time>
      </trkpt>
      <trkpt lat="43.6494" lon="1.80245">
        <ele>252</ele>
        <time>2010-01-01T02:04:32Z</time>
      </trkpt>
      <trkpt lat="43.64966" lon="1.8015">
        <ele>252</ele>
        <time>2010-01-01T02:04:44Z</time>
      </trkpt>
      <trkpt lat="43.64969" lon="1.80117">
        <ele>252</ele>
        <time>2010-01-01T02:04:48Z</time>
      </trkpt>
      <trkpt lat="43.64964" lon="1.80086">
        <ele>253</ele>
        <time>2010-01-01T02:04:51Z</time>
      </trkpt>
      <trkpt lat="43.64957" lon="1.80051">
        <ele>255</ele>
        <time>2010-01-01T02:04:55Z</time>
      </trkpt>
      <trkpt lat="43.64964" lon="1.80002">
        <ele>258</ele>
        <time>2010-01-01T02:05:01Z</time>
      </trkpt>
      <trkpt lat="43.64985" lon="1.79945">
        <ele>261</ele>
        <time>2010-01-01T02:05:09Z</time>
      </trkpt>
      <trkpt lat="43.65033" lon="1.79845">
        <ele>264</ele>
        <time>2010-01-01T02:05:23Z</time>
      </trkpt>
      <trkpt lat="43.65082" lon="1.79716">
        <ele>266</ele>
        <time>2010-01-01T02:05:39Z</time>
      </trkpt>
      <trkpt lat="43.65118" lon="1.7966">
        <ele>271</ele>
        <time>2010-01-01T02:05:48Z</time>
      </trkpt>
      <trkpt lat="43.65146" lon="1.79616">
        <ele>268</ele>
        <time>2010-01-01T02:05:55Z</time>
      </trkpt>
      <trkpt lat="43.65167" lon="1.79569">
        <ele>267</ele>
        <time>2010-01-01T02:06:01Z</time>
      </trkpt>
      <trkpt lat="43.65177" lon="1.79525">
        <ele>267</ele>
        <time>2010-01-01T02:06:07Z</time>
      </trkpt>
      <trkpt lat="43.65186" lon="1.79439">
        <ele>266</ele>
        <time>2010-01-01T02:06:17Z</time>
      </trkpt>
      <trkpt lat="43.65191" lon="1.79417">
        <ele>266</ele>
        <time>2010-01-01T02:06:19Z</time>
      </trkpt>
      <trkpt lat="43.65202" lon="1.79379">
        <ele>265</ele>
        <time>2010-01-01T02:06:24Z</time>
      </trkpt>
      <trkpt lat="43.65232" lon="1.79288">
        <ele>266</ele>
        <time>2010-01-01T02:06:36Z</time>
      </trkpt>
      <trkpt lat="43.6524" lon="1.7927">
        <ele>265</ele>
        <time>2010-01-01T02:06:38Z</time>
      </trkpt>
      <trkpt lat="43.65268" lon="1.79221">
        <ele>264</ele>
        <time>2010-01-01T02:06:45Z</time>
      </trkpt>
      <trkpt lat="43.65399" lon="1.79014">
        <ele>261</ele>
        <time>2010-01-01T02:07:17Z</time>
      </trkpt>
      <trkpt lat="43.65445" lon="1.78935">
        <ele>260</ele>
        <time>2010-01-01T02:07:29Z</time>
      </trkpt>
      <trkpt lat="43.65488" lon="1.78786">
        <ele>262</ele>
        <time>2010-01-01T02:07:48Z</time>
      </trkpt>
      <trkpt lat="43.65538" lon="1.7868">
        <ele>263</ele>
        <time>2010-01-01T02:08:02Z</time>
      </trkpt>
      <trkpt lat="43.65561" lon="1.78612">
        <ele>261</ele>
        <time>2010-01-01T02:08:11Z</time>
      </trkpt>
      <trkpt lat="43.65582" lon="1.78561">
        <ele>264</ele>
        <time>2010-01-01T02:08:18Z</time>
      </trkpt>
      <trkpt lat="43.65633" lon="1.78463">
        <ele>266</ele>
        <time>2010-01-01T02:08:32Z</time>
      </trkpt>
      <trkpt lat="43.657" lon="1.78307">
        <ele>268</ele>
        <time>2010-01-01T02:08:53Z</time>
      </trkpt>
      <trkpt lat="43.65799" lon="1.78">
        <ele>259</ele>
        <time>2010-01-01T02:09:32Z</time>
      </trkpt>
      <trkpt lat="43.65824" lon="1.77916">
        <ele>258</ele>
        <time>2010-01-01T02:09:42Z</time>
      </trkpt>
      <trkpt lat="43.65864" lon="1.7776">
        <ele>255</ele>
        <time>2010-01-01T02:10:01Z</time>
      </trkpt>
      <trkpt lat="43.65891" lon="1.77657">
        <ele>258</ele>
        <time>2010-01-01T02:10:14Z</time>
      </trkpt>
      <trkpt lat="43.65898" lon="1.77621">
        <ele>259</ele>
        <time>2010-01-01T02:10:18Z</time>
      </trkpt>
      <trkpt lat="43.659" lon="1.77589">
        <ele>260</ele>
        <time>2010-01-01T02:10:22Z</time>
      </trkpt>
      <trkpt lat="43.65905" lon="1.77452">
        <ele>256</ele>
        <time>2010-01-01T02:10:38Z</time>
      </trkpt>
      <trkpt lat="43.65905" lon="1.77414">
        <ele>256</ele>
        <time>2010-01-01T02:10:42Z</time>
      </trkpt>
      <trkpt lat="43.659" lon="1.77323">
        <ele>257</ele>
        <time>2010-01-01T02:10:53Z</time>
      </trkpt>
      <trkpt lat="43.65901" lon="1.77287">
        <ele>256</ele>
        <time>2010-01-01T02:10:57Z</time>
      </trkpt>
      <trkpt lat="43.6592" lon="1.77113">
        <ele>250</ele>
        <time>2010-01-01T02:11:18Z</time>
      </trkpt>
      <trkpt lat="43.65918" lon="1.77088">
        <ele>250</ele>
        <time>2010-01-01T02:11:20Z</time>
      </trkpt>
      <trkpt lat="43.65909" lon="1.77059">
        <ele>250</ele>
        <time>2010-01-01T02:11:24Z</time>
      </trkpt>
      <trkpt lat="43.65882" lon="1.7701">
        <ele>249</ele>
        <time>2010-01-01T02:11:31Z</time>
      </trkpt>
      <trkpt lat="43.65826" lon="1.76929">
        <ele>255</ele>
        <time>2010-01-01T02:11:44Z</time>
      </trkpt>
      <trkpt lat="43.65792" lon="1.76839">
        <ele>258</ele>
        <time>2010-01-01T02:11:56Z</time>
      </trkpt>
      <trkpt lat="43.65789" lon="1.76825">
        <ele>258</ele>
        <time>2010-01-01T02:11:58Z</time>
      </trkpt>
      <trkpt lat="43.65789" lon="1.76815">
        <ele>258</ele>
        <time>2010-01-01T02:11:59Z</time>
      </trkpt>
      <trkpt lat="43.6585" lon="1.76587">
        <ele>256</ele>
        <time>2010-01-01T02:12:27Z</time>
      </trkpt>
      <trkpt lat="43.65934" lon="1.76305">
        <ele>259</ele>
        <time>2010-01-01T02:13:02Z</time>
      </trkpt>
      <trkpt lat="43.65951" lon="1.7625">
        <ele>262</ele>
        <time>2010-01-01T02:13:09Z</time>
      </trkpt>
      <trkpt lat="43.65964" lon="1.76217">
        <ele>265</ele>
        <time>2010-01-01T02:13:14Z</time>
      </trkpt>
      <trkpt lat="43.65982" lon="1.76185">
        <ele>269</ele>
        <time>2010-01-01T02:13:18Z</time>
      </trkpt>
      <trkpt lat="43.6598" lon="1.76179">
        <ele>269</ele>
        <time>2010-01-01T02:13:19Z</time>
      </trkpt>
      <trkpt lat="43.66001" lon="1.76152">
        <ele>270</ele>
        <time>2010-01-01T02:13:24Z</time>
      </trkpt>
      <trkpt lat="43.66036" lon="1.76095">
        <ele>266</ele>
        <time>2010-01-01T02:13:32Z</time>
      </trkpt>
      <trkpt lat="43.66159" lon="1.759">
        <ele>266</ele>
        <time>2010-01-01T02:14:02Z</time>
      </trkpt>
      <trkpt lat="43.66174" lon="1.75867">
        <ele>265</ele>
        <time>2010-01-01T02:14:07Z</time>
      </trkpt>
      <trkpt lat="43.66223" lon="1.75731">
        <ele>260</ele>
        <time>2010-01-01T02:14:24Z</time>
      </trkpt>
      <trkpt lat="43.66292" lon="1.75597">
        <ele>255</ele>
        <time>2010-01-01T02:14:43Z</time>
      </trkpt>
      <trkpt lat="43.66309" lon="1.75545">
        <ele>256</ele>
        <time>2010-01-01T02:14:50Z</time>
      </trkpt>
      <trkpt lat="43.66326" lon="1.75453">
        <ele>257</ele>
        <time>2010-01-01T02:15:01Z</time>
      </trkpt>
      <trkpt lat="43.66365" lon="1.75291">
        <ele>258</ele>
        <time>2010-01-01T02:15:21Z</time>
      </trkpt>
      <trkpt lat="43.6638" lon="1.75199">
        <ele>258</ele>
        <time>2010-01-01T02:15:32Z</time>
      </trkpt>
      <trkpt lat="43.664" lon="1.75131">
        <ele>258</ele>
        <time>2010-01-01T02:15:40Z</time>
      </trkpt>
      <trkpt lat="43.66506" lon="1.74828">
        <ele>258</ele>
        <time>2010-01-01T02:16:19Z</time>
      </trkpt>
      <trkpt lat="43.6661" lon="1.74542">
        <ele>262</ele>
        <time>2010-01-01T02:16:56Z</time>
      </trkpt>
      <trkpt lat="43.66735" lon="1.74229">
        <ele>268</ele>
        <time>2010-01-01T02:17:38Z</time>
      </trkpt>
      <trkpt lat="43.66774" lon="1.74151">
        <ele>263</ele>
        <time>2010-01-01T02:17:49Z</time>
      </trkpt>
      <trkpt lat="43.66787" lon="1.74127">
        <ele>261</ele>
        <time>2010-01-01T02:17:52Z</time>
      </trkpt>
      <trkpt lat="43.66818" lon="1.74081">
        <ele>260</ele>
        <time>2010-01-01T02:17:59Z</time>
      </trkpt>
      <trkpt lat="43.66831" lon="1.74068">
        <ele>259</ele>
        <time>2010-01-01T02:18:02Z</time>
      </trkpt>
      <trkpt lat="43.66906" lon="1.74012">
        <ele>256</ele>
        <time>2010-01-01T02:18:16Z</time>
      </trkpt>
      <trkpt lat="43.66936" lon="1.7398">
        <ele>255</ele>
        <time>2010-01-01T02:18:22Z</time>
      </trkpt>
      <trkpt lat="43.66946" lon="1.73967">
        <ele>255</ele>
        <time>2010-01-01T02:18:24Z</time>
      </trkpt>
      <trkpt lat="43.66955" lon="1.7395">
        <ele>256</ele>
        <time>2010-01-01T02:18:26Z</time>
      </trkpt>
      <trkpt lat="43.67028" lon="1.73778">
        <ele>263</ele>
        <time>2010-01-01T02:18:49Z</time>
      </trkpt>
      <trkpt lat="43.67043" lon="1.73756">
        <ele>263</ele>
        <time>2010-01-01T02:18:53Z</time>
      </trkpt>
      <trkpt lat="43.67061" lon="1.73736">
        <ele>264</ele>
        <time>2010-01-01T02:18:57Z</time>
      </trkpt>
      <trkpt lat="43.67157" lon="1.73664">
        <ele>261</ele>
        <time>2010-01-01T02:19:14Z</time>
      </trkpt>
      <trkpt lat="43.67204" lon="1.73617">
        <ele>257</ele>
        <time>2010-01-01T02:19:23Z</time>
      </trkpt>
      <trkpt lat="43.67281" lon="1.73524">
        <ele>254</ele>
        <time>2010-01-01T02:19:40Z</time>
      </trkpt>
      <trkpt lat="43.67353" lon="1.73438">
        <ele>251</ele>
        <time>2010-01-01T02:19:55Z</time>
      </trkpt>
      <trkpt lat="43.6713" lon="1.73002">
        <ele>260</ele>
        <time>2010-01-01T02:20:57Z</time>
      </trkpt>
      <trkpt lat="43.6713" lon="1.73001">
        <ele>260</ele>
        <time>2010-01-01T02:20:57Z</time>
      </trkpt>
      <trkpt lat="43.67046" lon="1.72839">
        <ele>266</ele>
        <time>2010-01-01T02:21:20Z</time>
      </trkpt>
      <trkpt lat="43.66992" lon="1.72725">
        <ele>276</ele>
        <time>2010-01-01T02:21:36Z</time>
      </trkpt>
      <trkpt lat="43.67014" lon="1.72701">
        <ele>276</ele>
        <time>2010-01-01T02:21:40Z</time>
      </trkpt>
      <trkpt lat="43.67088" lon="1.72609">
        <ele>276</ele>
        <time>2010-01-01T02:21:56Z</time>
      </trkpt>
      <trkpt lat="43.67155" lon="1.72533">
        <ele>271</ele>
        <time>2010-01-01T02:22:10Z</time>
      </trkpt>
      <trkpt lat="43.67222" lon="1.72465">
        <ele>266</ele>
        <time>2010-01-01T02:22:24Z</time>
      </trkpt>
      <trkpt lat="43.67235" lon="1.72446">
        <ele>265</ele>
        <time>2010-01-01T02:22:27Z</time>
      </trkpt>
      <trkpt lat="43.67349" lon="1.72196">
        <ele>266</ele>
        <time>2010-01-01T02:23:01Z</time>
      </trkpt>
      <trkpt lat="43.67387" lon="1.72109">
        <ele>265</ele>
        <time>2010-01-01T02:23:13Z</time>
      </trkpt>
      <trkpt lat="43.67431" lon="1.72004">
        <ele>264</ele>
        <time>2010-01-01T02:23:27Z</time>
      </trkpt>
      <trkpt lat="43.67462" lon="1.71913">
        <ele>259</ele>
        <time>2010-01-01T02:23:38Z</time>
      </trkpt>
      <trkpt lat="43.67526" lon="1.71736">
        <ele>259</ele>
        <time>2010-01-01T02:24:01Z</time>
      </trkpt>
      <trkpt lat="43.67544" lon="1.71693">
        <ele>259</ele>
        <time>2010-01-01T02:24:07Z</time>
      </trkpt>
      <trkpt lat="43.67667" lon="1.71459">
        <ele>255</ele>
        <time>2010-01-01T02:24:40Z</time>
      </trkpt>
      <trkpt lat="43.67754" lon="1.7124">
        <ele>259</ele>
        <time>2010-01-01T02:25:09Z</time>
      </trkpt>
      <trkpt lat="43.67762" lon="1.71225">
        <ele>258</ele>
        <time>2010-01-01T02:25:12Z</time>
      </trkpt>
      <trkpt lat="43.67787" lon="1.71184">
        <ele>259</ele>
        <time>2010-01-01T02:25:18Z</time>
      </trkpt>
      <trkpt lat="43.68065" lon="1.70708">
        <ele>243</ele>
        <time>2010-01-01T02:26:29Z</time>
      </trkpt>
      <trkpt lat="43.68082" lon="1.70679">
        <ele>242</ele>
        <time>2010-01-01T02:26:33Z</time>
      </trkpt>
      <trkpt lat="43.68096" lon="1.70692">
        <ele>242</ele>
        <time>2010-01-01T02:26:36Z</time>
      </trkpt>
      <trkpt lat="43.68143" lon="1.70729">
        <ele>237</ele>
        <time>2010-01-01T02:26:44Z</time>
      </trkpt>
      <trkpt lat="43.68213" lon="1.70792">
        <ele>230</ele>
        <time>2010-01-01T02:26:58Z</time>
      </trkpt>
      <trkpt lat="43.68282" lon="1.7085">
        <ele>231</ele>
        <time>2010-01-01T02:27:11Z</time>
      </trkpt>
      <trkpt lat="43.68282" lon="1.70849">
        <ele>231</ele>
        <time>2010-01-01T02:27:11Z</time>
      </trkpt>
      <trkpt lat="43.68308" lon="1.70873">
        <ele>232</ele>
        <time>2010-01-01T02:27:16Z</time>
      </trkpt>
      <trkpt lat="43.68362" lon="1.7091">
        <ele>234</ele>
        <time>2010-01-01T02:27:25Z</time>
      </trkpt>
      <trkpt lat="43.68379" lon="1.70917">
        <ele>233</ele>
        <time>2010-01-01T02:27:28Z</time>
      </trkpt>
      <trkpt lat="43.6841" lon="1.70927">
        <ele>232</ele>
        <time>2010-01-01T02:27:33Z</time>
      </trkpt>
      <trkpt lat="43.68589" lon="1.70966">
        <ele>228</ele>
        <time>2010-01-01T02:28:02Z</time>
      </trkpt>
      <trkpt lat="43.68659" lon="1.70992">
        <ele>226</ele>
        <time>2010-01-01T02:28:14Z</time>
      </trkpt>
      <trkpt lat="43.68835" lon="1.71052">
        <ele>207</ele>
        <time>2010-01-01T02:28:43Z</time>
      </trkpt>
      <trkpt lat="43.6887" lon="1.71068">
        <ele>205</ele>
        <time>2010-01-01T02:28:49Z</time>
      </trkpt>
      <trkpt lat="43.68905" lon="1.7109">
        <ele>202</ele>
        <time>2010-01-01T02:28:55Z</time>
      </trkpt>
      <trkpt lat="43.68985" lon="1.71167">
        <ele>194</ele>
        <time>2010-01-01T02:29:11Z</time>
      </trkpt>
      <trkpt lat="43.69011" lon="1.71187">
        <ele>196</ele>
        <time>2010-01-01T02:29:15Z</time>
      </trkpt>
      <trkpt lat="43.69073" lon="1.71218">
        <ele>202</ele>
        <time>2010-01-01T02:29:26Z</time>
      </trkpt>
      <trkpt lat="43.69096" lon="1.71238">
        <ele>205</ele>
        <time>2010-01-01T02:29:30Z</time>
      </trkpt>
      <trkpt lat="43.69103" lon="1.7124">
        <ele>206</ele>
        <time>2010-01-01T02:29:31Z</time>
      </trkpt>
      <trkpt lat="43.69111" lon="1.71238">
        <ele>207</ele>
        <time>2010-01-01T02:29:33Z</time>
      </trkpt>
      <trkpt lat="43.69121" lon="1.71228">
        <ele>208</ele>
        <time>2010-01-01T02:29:35Z</time>
      </trkpt>
      <trkpt lat="43.69142" lon="1.71199">
        <ele>210</ele>
        <time>2010-01-01T02:29:39Z</time>
      </trkpt>
      <trkpt lat="43.69154" lon="1.71196">
        <ele>212</ele>
        <time>2010-01-01T02:29:41Z</time>
      </trkpt>
      <trkpt lat="43.6916" lon="1.71198">
        <ele>214</ele>
        <time>2010-01-01T02:29:42Z</time>
      </trkpt>
      <trkpt lat="43.69166" lon="1.71207">
        <ele>215</ele>
        <time>2010-01-01T02:29:44Z</time>
      </trkpt>
      <trkpt lat="43.69194" lon="1.71303">
        <ele>222</ele>
        <time>2010-01-01T02:29:56Z</time>
      </trkpt>
      <trkpt lat="43.69232" lon="1.71466">
        <ele>231</ele>
        <time>2010-01-01T02:30:16Z</time>
      </trkpt>
      <trkpt lat="43.69239" lon="1.71488">
        <ele>231</ele>
        <time>2010-01-01T02:30:18Z</time>
      </trkpt>
      <trkpt lat="43.69246" lon="1.71503">
        <ele>232</ele>
        <time>2010-01-01T02:30:20Z</time>
      </trkpt>
      <trkpt lat="43.69282" lon="1.71552">
        <ele>238</ele>
        <time>2010-01-01T02:30:29Z</time>
      </trkpt>
      <trkpt lat="43.69289" lon="1.71564">
        <ele>238</ele>
        <time>2010-01-01T02:30:30Z</time>
      </trkpt>
      <trkpt lat="43.69291" lon="1.71573">
        <ele>237</ele>
        <time>2010-01-01T02:30:31Z</time>
      </trkpt>
      <trkpt lat="43.69294" lon="1.71693">
        <ele>239</ele>
        <time>2010-01-01T02:30:45Z</time>
      </trkpt>
      <trkpt lat="43.69294" lon="1.71692">
        <ele>239</ele>
        <time>2010-01-01T02:30:45Z</time>
      </trkpt>
      <trkpt lat="43.69294" lon="1.71716">
        <ele>238</ele>
        <time>2010-01-01T02:30:48Z</time>
      </trkpt>
      <trkpt lat="43.69297" lon="1.7173">
        <ele>238</ele>
        <time>2010-01-01T02:30:50Z</time>
      </trkpt>
      <trkpt lat="43.69302" lon="1.71741">
        <ele>239</ele>
        <time>2010-01-01T02:30:51Z</time>
      </trkpt>
      <trkpt lat="43.69363" lon="1.71816">
        <ele>242</ele>
        <time>2010-01-01T02:31:04Z</time>
      </trkpt>
      <trkpt lat="43.69382" lon="1.71793">
        <ele>243</ele>
        <time>2010-01-01T02:31:09Z</time>
      </trkpt>
      <trkpt lat="43.69478" lon="1.71682">
        <ele>241</ele>
        <time>2010-01-01T02:31:29Z</time>
      </trkpt>
      <trkpt lat="43.69509" lon="1.7164">
        <ele>242</ele>
        <time>2010-01-01T02:31:35Z</time>
      </trkpt>
      <trkpt lat="43.69532" lon="1.71596">
        <ele>240</ele>
        <time>2010-01-01T02:31:42Z</time>
      </trkpt>
      <trkpt lat="43.69546" lon="1.71555">
        <ele>238</ele>
        <time>2010-01-01T02:31:47Z</time>
      </trkpt>
      <trkpt lat="43.69614" lon="1.71272">
        <ele>236</ele>
        <time>2010-01-01T02:32:22Z</time>
      </trkpt>
      <trkpt lat="43.69618" lon="1.71242">
        <ele>235</ele>
        <time>2010-01-01T02:32:25Z</time>
      </trkpt>
      <trkpt lat="43.69623" lon="1.71029">
        <ele>237</ele>
        <time>2010-01-01T02:32:50Z</time>
      </trkpt>
      <trkpt lat="43.69626" lon="1.71006">
        <ele>237</ele>
        <time>2010-01-01T02:32:52Z</time>
      </trkpt>
      <trkpt lat="43.69675" lon="1.70811">
        <ele>237</ele>
        <time>2010-01-01T02:33:16Z</time>
      </trkpt>
      <trkpt lat="43.69689" lon="1.70756">
        <ele>237</ele>
        <time>2010-01-01T02:33:23Z</time>
      </trkpt>
      <trkpt lat="43.69879" lon="1.70855">
        <ele>231</ele>
        <time>2010-01-01T02:33:56Z</time>
      </trkpt>
      <trkpt lat="43.69905" lon="1.70873">
        <ele>229</ele>
        <time>2010-01-01T02:34:00Z</time>
      </trkpt>
      <trkpt lat="43.70058" lon="1.71019">
        <ele>218</ele>
        <time>2010-01-01T02:34:30Z</time>
      </trkpt>
      <trkpt lat="43.7013" lon="1.71083">
        <ele>215</ele>
        <time>2010-01-01T02:34:44Z</time>
      </trkpt>
      <trkpt lat="43.70242" lon="1.71168">
        <ele>215</ele>
        <time>2010-01-01T02:35:04Z</time>
      </trkpt>
      <trkpt lat="43.70273" lon="1.71183">
        <ele>215</ele>
        <time>2010-01-01T02:35:09Z</time>
      </trkpt>
      <trkpt lat="43.70406" lon="1.71207">
        <ele>219</ele>
        <time>2010-01-01T02:35:31Z</time>
      </trkpt>
      <trkpt lat="43.70406" lon="1.71206">
        <ele>219</ele>
        <time>2010-01-01T02:35:31Z</time>
      </trkpt>
      <trkpt lat="43.70537" lon="1.7123">
        <ele>221</ele>
        <time>2010-01-01T02:35:52Z</time>
      </trkpt>
      <trkpt lat="43.70604" lon="1.71217">
        <ele>221</ele>
        <time>2010-01-01T02:36:03Z</time>
      </trkpt>
      <trkpt lat="43.7067" lon="1.71198">
        <ele>224</ele>
        <time>2010-01-01T02:36:14Z</time>
      </trkpt>
      <trkpt lat="43.70705" lon="1.71182">
        <ele>225</ele>
        <time>2010-01-01T02:36:20Z</time>
      </trkpt>
      <trkpt lat="43.70815" lon="1.71117">
        <ele>226</ele>
        <time>2010-01-01T02:36:39Z</time>
      </trkpt>
      <trkpt lat="43.70865" lon="1.71097">
        <ele>226</ele>
        <time>2010-01-01T02:36:47Z</time>
      </trkpt>
      <trkpt lat="43.70887" lon="1.71084">
        <ele>226</ele>
        <time>2010-01-01T02:36:51Z</time>
      </trkpt>
      <trkpt lat="43.70968" lon="1.70997">
        <ele>225</ele>
        <time>2010-01-01T02:37:07Z</time>
      </trkpt>
      <trkpt lat="43.71033" lon="1.70945">
        <ele>224</ele>
        <time>2010-01-01T02:37:19Z</time>
      </trkpt>
      <trkpt lat="43.71168" lon="1.70823">
        <ele>221</ele>
        <time>2010-01-01T02:37:45Z</time>
      </trkpt>
      <trkpt lat="43.71189" lon="1.708">
        <ele>221</ele>
        <time>2010-01-01T02:37:50Z</time>
      </trkpt>
      <trkpt lat="43.71214" lon="1.70762">
        <ele>221</ele>
        <time>2010-01-01T02:37:56Z</time>
      </trkpt>
      <trkpt lat="43.71338" lon="1.70547">
        <ele>224</ele>
        <time>2010-01-01T02:38:27Z</time>
      </trkpt>
      <trkpt lat="43.7137" lon="1.7049">
        <ele>225</ele>
        <time>2010-01-01T02:38:36Z</time>
      </trkpt>
      <trkpt lat="43.71438" lon="1.7039">
        <ele>226</ele>
        <time>2010-01-01T02:38:52Z</time>
      </trkpt>
      <trkpt lat="43.71468" lon="1.70341">
        <ele>227</ele>
        <time>2010-01-01T02:38:59Z</time>
      </trkpt>
      <trkpt lat="43.71496" lon="1.70287">
        <ele>228</ele>
        <time>2010-01-01T02:39:07Z</time>
      </trkpt>
      <trkpt lat="43.71529" lon="1.70201">
        <ele>226</ele>
        <time>2010-01-01T02:39:18Z</time>
      </trkpt>
      <trkpt lat="43.71568" lon="1.70104">
        <ele>224</ele>
        <time>2010-01-01T02:39:31Z</time>
      </trkpt>
      <trkpt lat="43.71581" lon="1.70063">
        <ele>224</ele>
        <time>2010-01-01T02:39:36Z</time>
      </trkpt>
      <trkpt lat="43.71585" lon="1.70029">
        <ele>223</ele>
        <time>2010-01-01T02:39:40Z</time>
      </trkpt>
      <trkpt lat="43.71584" lon="1.69967">
        <ele>226</ele>
        <time>2010-01-01T02:39:47Z</time>
      </trkpt>
      <trkpt lat="43.71592" lon="1.6993">
        <ele>226</ele>
        <time>2010-01-01T02:39:52Z</time>
      </trkpt>
      <trkpt lat="43.71664" lon="1.69796">
        <ele>221</ele>
        <time>2010-01-01T02:40:11Z</time>
      </trkpt>
      <trkpt lat="43.71703" lon="1.69701">
        <ele>219</ele>
        <time>2010-01-01T02:40:24Z</time>
      </trkpt>
      <trkpt lat="43.71747" lon="1.69599">
        <ele>220</ele>
        <time>2010-01-01T02:40:37Z</time>
      </trkpt>
      <trkpt lat="43.71861" lon="1.6938">
        <ele>222</ele>
        <time>2010-01-01T02:41:09Z</time>
      </trkpt>
      <trkpt lat="43.71887" lon="1.6932">
        <ele>223</ele>
        <time>2010-01-01T02:41:17Z</time>
      </trkpt>
      <trkpt lat="43.71924" lon="1.69224">
        <ele>224</ele>
        <time>2010-01-01T02:41:29Z</time>
      </trkpt>
      <trkpt lat="43.7198" lon="1.69088">
        <ele>221</ele>
        <time>2010-01-01T02:41:47Z</time>
      </trkpt>
      <trkpt lat="43.71995" lon="1.69037">
        <ele>220</ele>
        <time>2010-01-01T02:41:54Z</time>
      </trkpt>
      <trkpt lat="43.72012" lon="1.68915">
        <ele>219</ele>
        <time>2010-01-01T02:42:08Z</time>
      </trkpt>
      <trkpt lat="43.72038" lon="1.68694">
        <ele>220</ele>
        <time>2010-01-01T02:42:34Z</time>
      </trkpt>
      <trkpt lat="43.72051" lon="1.68631">
        <ele>222</ele>
        <time>2010-01-01T02:42:42Z</time>
      </trkpt>
      <trkpt lat="43.72069" lon="1.68573">
        <ele>221</ele>
        <time>2010-01-01T02:42:49Z</time>
      </trkpt>
      <trkpt lat="43.72089" lon="1.68536">
        <ele>219</ele>
        <time>2010-01-01T02:42:54Z</time>
      </trkpt>
      <trkpt lat="43.72119" lon="1.685">
        <ele>216</ele>
        <time>2010-01-01T02:43:01Z</time>
      </trkpt>
      <trkpt lat="43.72174" lon="1.68453">
        <ele>206</ele>
        <time>2010-01-01T02:43:11Z</time>
      </trkpt>
      <trkpt lat="43.72184" lon="1.68427">
        <ele>205</ele>
        <time>2010-01-01T02:43:14Z</time>
      </trkpt>
      <trkpt lat="43.72216" lon="1.68301">
        <ele>199</ele>
        <time>2010-01-01T02:43:30Z</time>
      </trkpt>
      <trkpt lat="43.72229" lon="1.68259">
        <ele>200</ele>
        <time>2010-01-01T02:43:35Z</time>
      </trkpt>
      <trkpt lat="43.72241" lon="1.68227">
        <ele>198</ele>
        <time>2010-01-01T02:43:39Z</time>
      </trkpt>
      <trkpt lat="43.72283" lon="1.68145">
        <ele>194</ele>
        <time>2010-01-01T02:43:51Z</time>
      </trkpt>
      <trkpt lat="43.72302" lon="1.68103">
        <ele>192</ele>
        <time>2010-01-01T02:43:57Z</time>
      </trkpt>
      <trkpt lat="43.72378" lon="1.67863">
        <ele>189</ele>
        <time>2010-01-01T02:44:27Z</time>
      </trkpt>
      <trkpt lat="43.72406" lon="1.67778">
        <ele>191</ele>
        <time>2010-01-01T02:44:38Z</time>
      </trkpt>
      <trkpt lat="43.72477" lon="1.67864">
        <ele>193</ele>
        <time>2010-01-01T02:44:53Z</time>
      </trkpt>
      <trkpt lat="43.7251" lon="1.67896">
        <ele>194</ele>
        <time>2010-01-01T02:44:59Z</time>
      </trkpt>
      <trkpt lat="43.72533" lon="1.67923">
        <ele>192</ele>
        <time>2010-01-01T02:45:04Z</time>
      </trkpt>
      <trkpt lat="43.72557" lon="1.67871">
        <ele>194</ele>
        <time>2010-01-01T02:45:11Z</time>
      </trkpt>
      <trkpt lat="43.72614" lon="1.6778">
        <ele>195</ele>
        <time>2010-01-01T02:45:25Z</time>
      </trkpt>
      <trkpt lat="43.72664" lon="1.67703">
        <ele>192</ele>
        <time>2010-01-01T02:45:37Z</time>
      </trkpt>
      <trkpt lat="43.72808" lon="1.67643">
        <ele>190</ele>
        <time>2010-01-01T02:46:01Z</time>
      </trkpt>
      <trkpt lat="43.72905" lon="1.67607">
        <ele>191</ele>
        <time>2010-01-01T02:46:17Z</time>
      </trkpt>
      <trkpt lat="43.72947" lon="1.67592">
        <ele>190</ele>
        <time>2010-01-01T02:46:24Z</time>
      </trkpt>
      <trkpt lat="43.72995" lon="1.67553">
        <ele>190</ele>
        <time>2010-01-01T02:46:33Z</time>
      </trkpt>
      <trkpt lat="43.73065" lon="1.67525">
        <ele>187</ele>
        <time>2010-01-01T02:46:45Z</time>
      </trkpt>
      <trkpt lat="43.73214" lon="1.67533">
        <ele>186</ele>
        <time>2010-01-01T02:47:09Z</time>
      </trkpt>
      <trkpt lat="43.73256" lon="1.67534">
        <ele>187</ele>
        <time>2010-01-01T02:47:16Z</time>
      </trkpt>
      <trkpt lat="43.73291" lon="1.67537">
        <ele>187</ele>
        <time>2010-01-01T02:47:21Z</time>
      </trkpt>
      <trkpt lat="43.73363" lon="1.6755">
        <ele>186</ele>
        <time>2010-01-01T02:47:33Z</time>
      </trkpt>
      <trkpt lat="43.73362" lon="1.6755">
        <ele>186</ele>
        <time>2010-01-01T02:47:33Z</time>
      </trkpt>
      <trkpt lat="43.73398" lon="1.67559">
        <ele>183</ele>
        <time>2010-01-01T02:47:39Z</time>
      </trkpt>
      <trkpt lat="43.7346" lon="1.67579">
        <ele>181</ele>
        <time>2010-01-01T02:47:49Z</time>
      </trkpt>
      <trkpt lat="43.7354" lon="1.6761">
        <ele>179</ele>
        <time>2010-01-01T02:48:02Z</time>
      </trkpt>
      <trkpt lat="43.73559" lon="1.67615">
        <ele>179</ele>
        <time>2010-01-01T02:48:05Z</time>
      </trkpt>
      <trkpt lat="43.73609" lon="1.67624">
        <ele>180</ele>
        <time>2010-01-01T02:48:14Z</time>
      </trkpt>
      <trkpt lat="43.73707" lon="1.67625">
        <ele>177</ele>
        <time>2010-01-01T02:48:29Z</time>
      </trkpt>
      <trkpt lat="43.73753" lon="1.67628">
        <ele>176</ele>
        <time>2010-01-01T02:48:37Z</time>
      </trkpt>
      <trkpt lat="43.7381" lon="1.67627">
        <ele>173</ele>
        <time>2010-01-01T02:48:46Z</time>
      </trkpt>
      <trkpt lat="43.73948" lon="1.67636">
        <ele>176</ele>
        <time>2010-01-01T02:49:08Z</time>
      </trkpt>
      <trkpt lat="43.74096" lon="1.6762">
        <ele>171</ele>
        <time>2010-01-01T02:49:32Z</time>
      </trkpt>
      <trkpt lat="43.74227" lon="1.67618">
        <ele>163</ele>
        <time>2010-01-01T02:49:53Z</time>
      </trkpt>
      <trkpt lat="43.74308" lon="1.67624">
        <ele>159</ele>
        <time>2010-01-01T02:50:06Z</time>
      </trkpt>
      <trkpt lat="43.74462" lon="1.67642">
        <ele>159</ele>
        <time>2010-01-01T02:50:30Z</time>
      </trkpt>
      <trkpt lat="43.7457" lon="1.67642">
        <ele>158</ele>
        <time>2010-01-01T02:50:48Z</time>
      </trkpt>
      <trkpt lat="43.74607" lon="1.67647">
        <ele>157</ele>
        <time>2010-01-01T02:50:54Z</time>
      </trkpt>
      <trkpt lat="43.74606" lon="1.67647">
        <ele>157</ele>
        <time>2010-01-01T02:50:54Z</time>
      </trkpt>
      <trkpt lat="43.7461" lon="1.67648">
        <ele>157</ele>
        <time>2010-01-01T02:50:54Z</time>
      </trkpt>
      <trkpt lat="43.74685" lon="1.67694">
        <ele>149</ele>
        <time>2010-01-01T02:51:07Z</time>
      </trkpt>
      <trkpt lat="43.74713" lon="1.677">
        <ele>150</ele>
        <time>2010-01-01T02:51:12Z</time>
      </trkpt>
      <trkpt lat="43.74743" lon="1.67697">
        <ele>150</ele>
        <time>2010-01-01T02:51:17Z</time>
      </trkpt>
      <trkpt lat="43.74756" lon="1.67692">
        <ele>149</ele>
        <time>2010-01-01T02:51:19Z</time>
      </trkpt>
      <trkpt lat="43.74781" lon="1.67699">
        <ele>151</ele>
        <time>2010-01-01T02:51:23Z</time>
      </trkpt>
      <trkpt lat="43.74847" lon="1.67734">
        <ele>155</ele>
        <time>2010-01-01T02:51:34Z</time>
      </trkpt>
      <trkpt lat="43.74861" lon="1.67739">
        <ele>156</ele>
        <time>2010-01-01T02:51:37Z</time>
      </trkpt>
      <trkpt lat="43.74997" lon="1.67761">
        <ele>153</ele>
        <time>2010-01-01T02:51:59Z</time>
      </trkpt>
      <trkpt lat="43.75036" lon="1.67763">
        <ele>151</ele>
        <time>2010-01-01T02:52:05Z</time>
      </trkpt>
      <trkpt lat="43.75126" lon="1.67756">
        <ele>149</ele>
        <time>2010-01-01T02:52:19Z</time>
      </trkpt>
      <trkpt lat="43.75163" lon="1.67759">
        <ele>149</ele>
        <time>2010-01-01T02:52:25Z</time>
      </trkpt>
      <trkpt lat="43.75209" lon="1.6777">
        <ele>145</ele>
        <time>2010-01-01T02:52:33Z</time>
      </trkpt>
      <trkpt lat="43.75234" lon="1.6777">
        <ele>144</ele>
        <time>2010-01-01T02:52:37Z</time>
      </trkpt>
      <trkpt lat="43.75351" lon="1.67723">
        <ele>133</ele>
        <time>2010-01-01T02:52:56Z</time>
      </trkpt>
      <trkpt lat="43.75385" lon="1.67704">
        <ele>131</ele>
        <time>2010-01-01T02:53:02Z</time>
      </trkpt>
      <trkpt lat="43.75423" lon="1.67689">
        <ele>130</ele>
        <time>2010-01-01T02:53:08Z</time>
      </trkpt>
      <trkpt lat="43.75531" lon="1.67688">
        <ele>133</ele>
        <time>2010-01-01T02:53:26Z</time>
      </trkpt>
      <trkpt lat="43.75638" lon="1.67719">
        <ele>128</ele>
        <time>2010-01-01T02:53:43Z</time>
      </trkpt>
      <trkpt lat="43.75742" lon="1.67726">
        <ele>130</ele>
        <time>2010-01-01T02:54:00Z</time>
      </trkpt>
      <trkpt lat="43.7583" lon="1.6772">
        <ele>127</ele>
        <time>2010-01-01T02:54:14Z</time>
      </trkpt>
      <trkpt lat="43.75843" lon="1.6773">
        <ele>127</ele>
        <time>2010-01-01T02:54:16Z</time>
      </trkpt>
      <trkpt lat="43.75842" lon="1.6773">
        <ele>127</ele>
        <time>2010-01-01T02:54:17Z</time>
      </trkpt>
      <trkpt lat="43.75862" lon="1.67744">
        <ele>126</ele>
        <time>2010-01-01T02:54:20Z</time>
      </trkpt>
      <trkpt lat="43.75893" lon="1.67781">
        <ele>126</ele>
        <time>2010-01-01T02:54:27Z</time>
      </trkpt>
      <trkpt lat="43.75924" lon="1.67794">
        <ele>125</ele>
        <time>2010-01-01T02:54:32Z</time>
      </trkpt>
      <trkpt lat="43.7598" lon="1.67806">
        <ele>122</ele>
        <time>2010-01-01T02:54:41Z</time>
      </trkpt>
      <trkpt lat="43.76007" lon="1.67809">
        <ele>122</ele>
        <time>2010-01-01T02:54:45Z</time>
      </trkpt>
      <trkpt lat="43.76032" lon="1.67808">
        <ele>122</ele>
        <time>2010-01-01T02:54:49Z</time>
      </trkpt>
      <trkpt lat="43.76091" lon="1.67791">
        <ele>123</ele>
        <time>2010-01-01T02:54:59Z</time>
      </trkpt>
      <trkpt lat="43.7612" lon="1.67785">
        <ele>122</ele>
        <time>2010-01-01T02:55:04Z</time>
      </trkpt>
      <trkpt lat="43.76172" lon="1.67782">
        <ele>120</ele>
        <time>2010-01-01T02:55:12Z</time>
      </trkpt>
      <trkpt lat="43.762" lon="1.67777">
        <ele>119</ele>
        <time>2010-01-01T02:55:17Z</time>
      </trkpt>
      <trkpt lat="43.76298" lon="1.67741">
        <ele>119</ele>
        <time>2010-01-01T02:55:33Z</time>
      </trkpt>
      <trkpt lat="43.76428" lon="1.67719">
        <ele>120</ele>
        <time>2010-01-01T02:55:54Z</time>
      </trkpt>
      <trkpt lat="43.76523" lon="1.67709">
        <ele>117</ele>
        <time>2010-01-01T02:56:09Z</time>
      </trkpt>
      <trkpt lat="43.76563" lon="1.677">
        <ele>116</ele>
        <time>2010-01-01T02:56:15Z</time>
      </trkpt>
      <trkpt lat="43.76638" lon="1.67704">
        <ele>114</ele>
        <time>2010-01-01T02:56:27Z</time>
      </trkpt>
      <trkpt lat="43.76664" lon="1.67708">
        <ele>113</ele>
        <time>2010-01-01T02:56:32Z</time>
      </trkpt>
      <trkpt lat="43.76677" lon="1.67714">
        <ele>113</ele>
        <time>2010-01-01T02:56:34Z</time>
      </trkpt>
      <trkpt lat="43.76689" lon="1.67723">
        <ele>113</ele>
        <time>2010-01-01T02:56:36Z</time>
      </trkpt>
      <trkpt lat="43.7679" lon="1.67844">
        <ele>113</ele>
        <time>2010-01-01T02:56:57Z</time>
      </trkpt>
      <trkpt lat="43.7681" lon="1.67874">
        <ele>114</ele>
        <time>2010-01-01T02:57:02Z</time>
      </trkpt>
      <trkpt lat="43.76854" lon="1.67956">
        <ele>114</ele>
        <time>2010-01-01T02:57:14Z</time>
      </trkpt>
      <trkpt lat="43.76854" lon="1.67955">
        <ele>114</ele>
        <time>2010-01-01T02:57:14Z</time>
      </trkpt>
      <trkpt lat="43.76872" lon="1.67991">
        <ele>115</ele>
        <time>2010-01-01T02:57:19Z</time>
      </trkpt>
      <trkpt lat="43.76842" lon="1.6803">
        <ele>115</ele>
        <time>2010-01-01T02:57:26Z</time>
      </trkpt>
      <trkpt lat="43.76782" lon="1.68097">
        <ele>111</ele>
        <time>2010-01-01T02:57:38Z</time>
      </trkpt>
      <trkpt lat="43.76743" lon="1.68123">
        <ele>115</ele>
        <time>2010-01-01T02:57:45Z</time>
      </trkpt>
      <trkpt lat="43.76723" lon="1.68137">
        <ele>116</ele>
        <time>2010-01-01T02:57:49Z</time>
      </trkpt>
      <trkpt lat="43.7675" lon="1.68208">
        <ele>117</ele>
        <time>2010-01-01T02:57:58Z</time>
      </trkpt>
      <trkpt lat="43.76775" lon="1.68293">
        <ele>116</ele>
        <time>2010-01-01T02:58:08Z</time>
      </trkpt>
      <trkpt lat="43.76793" lon="1.68384">
        <ele>116</ele>
        <time>2010-01-01T02:58:19Z</time>
      </trkpt>
      <trkpt lat="43.76804" lon="1.68464">
        <ele>117</ele>
        <time>2010-01-01T02:58:29Z</time>
      </trkpt>
      <trkpt lat="43.76804" lon="1.68463">
        <ele>117</ele>
        <time>2010-01-01T02:58:29Z</time>
      </trkpt>
      <trkpt lat="43.76822" lon="1.68597">
        <ele>116</ele>
        <time>2010-01-01T02:58:45Z</time>
      </trkpt>
      <trkpt lat="43.76825" lon="1.68657">
        <ele>119</ele>
        <time>2010-01-01T02:58:52Z</time>
      </trkpt>
      <trkpt lat="43.76804" lon="1.68788">
        <ele>120</ele>
        <time>2010-01-01T02:59:07Z</time>
      </trkpt>
      <trkpt lat="43.768" lon="1.68817">
        <ele>119</ele>
        <time>2010-01-01T02:59:11Z</time>
      </trkpt>
      <trkpt lat="43.76795" lon="1.68838">
        <ele>119</ele>
        <time>2010-01-01T02:59:13Z</time>
      </trkpt>
      <trkpt lat="43.76764" lon="1.69009">
        <ele>119</ele>
        <time>2010-01-01T02:59:34Z</time>
      </trkpt>
      <trkpt lat="43.76759" lon="1.69053">
        <ele>118</ele>
        <time>2010-01-01T02:59:39Z</time>
      </trkpt>
      <trkpt lat="43.76756" lon="1.69055">
        <ele>118</ele>
        <time>2010-01-01T02:59:39Z</time>
      </trkpt>
      <trkpt lat="43.76751" lon="1.69064">
        <ele>117</ele>
        <time>2010-01-01T02:59:41Z</time>
      </trkpt>
      <trkpt lat="43.76752" lon="1.69075">
        <ele>116</ele>
        <time>2010-01-01T02:59:42Z</time>
      </trkpt>
      <trkpt lat="43.76756" lon="1.6908">
        <ele>116</ele>
        <time>2010-01-01T02:59:43Z</time>
      </trkpt>
      <trkpt lat="43.76735" lon="1.69126">
        <ele>117</ele>
        <time>2010-01-01T02:59:49Z</time>
      </trkpt>
      <trkpt lat="43.76725" lon="1.69148">
        <ele>119</ele>
        <time>2010-01-01T02:59:52Z</time>
      </trkpt>
      <trkpt lat="43.7682" lon="1.6928">
        <ele>113</ele>
        <time>2010-01-01T03:00:14Z</time>
      </trkpt>
      <trkpt lat="43.76846" lon="1.6931">
        <ele>113</ele>
        <time>2010-01-01T03:00:19Z</time>
      </trkpt>
      <trkpt lat="43.7687" lon="1.69328">
        <ele>113</ele>
        <time>2010-01-01T03:00:23Z</time>
      </trkpt>
      <trkpt lat="43.76889" lon="1.69346">
        <ele>114</ele>
        <time>2010-01-01T03:00:27Z</time>
      </trkpt>
      <trkpt lat="43.76909" lon="1.69381">
        <ele>114</ele>
        <time>2010-01-01T03:00:32Z</time>
      </trkpt>
      <trkpt lat="43.76909" lon="1.6938">
        <ele>114</ele>
        <time>2010-01-01T03:00:32Z</time>
      </trkpt>
      <trkpt lat="43.76921" lon="1.6941">
        <ele>114</ele>
        <time>2010-01-01T03:00:36Z</time>
      </trkpt>
      <trkpt lat="43.77005" lon="1.69648">
        <ele>115</ele>
        <time>2010-01-01T03:01:07Z</time>
      </trkpt>
      <trkpt lat="43.77027" lon="1.69686">
        <ele>115</ele>
        <time>2010-01-01T03:01:12Z</time>
      </trkpt>
      <trkpt lat="43.77027" lon="1.69685">
        <ele>115</ele>
        <time>2010-01-01T03:01:13Z</time>
      </trkpt>
      <trkpt lat="43.77045" lon="1.69711">
        <ele>115</ele>
        <time>2010-01-01T03:01:17Z</time>
      </trkpt>
      <trkpt lat="43.77064" lon="1.6973">
        <ele>115</ele>
        <time>2010-01-01T03:01:21Z</time>
      </trkpt>
      <trkpt lat="43.77077" lon="1.69741">
        <ele>115</ele>
        <time>2010-01-01T03:01:23Z</time>
      </trkpt>
      <trkpt lat="43.77096" lon="1.69751">
        <ele>114</ele>
        <time>2010-01-01T03:01:26Z</time>
      </trkpt>
      <trkpt lat="43.77143" lon="1.69765">
        <ele>114</ele>
        <time>2010-01-01T03:01:34Z</time>
      </trkpt>
      <trkpt lat="43.77142" lon="1.69765">
        <ele>114</ele>
        <time>2010-01-01T03:01:34Z</time>
      </trkpt>
      <trkpt lat="43.77179" lon="1.69778">
        <ele>114</ele>
        <time>2010-01-01T03:01:40Z</time>
      </trkpt>
      <trkpt lat="43.77178" lon="1.69778">
        <ele>114</ele>
        <time>2010-01-01T03:01:40Z</time>
      </trkpt>
      <trkpt lat="43.77196" lon="1.69788">
        <ele>114</ele>
        <time>2010-01-01T03:01:43Z</time>
      </trkpt>
      <trkpt lat="43.77191" lon="1.6981">
        <ele>114</ele>
        <time>2010-01-01T03:01:46Z</time>
      </trkpt>
      <trkpt lat="43.77114" lon="1.701">
        <ele>112</ele>
        <time>2010-01-01T03:02:22Z</time>
      </trkpt>
    </trkseg>
  </trk>
</gpx>